Darstellungsparameter: Aktuell verwendete Einstellungen:
Skalierung der Graphiken ... ?
xyx+y,   Skalierungsfaktor:      Skalierung: Modus: x, Faktor: 1
Darstellungszeitraum ... ?
Vom - - bis: - -   Zeitraum: 21.02.2004 - 20.08.2004
Min/Max/Avg-Anzeige ... ?
Zeige MMA aktuell
Zeige MMA Monat
Zeige MMA alles
Zeige --A aktuell
Zeige --A Monat
Zeige --A alles
Keine MMA-Anzeige
MMA:
Minimum Maximum Average (ber die Originaldaten)
MMA-Basis: 21.02.2004 - 20.08.2004
Quicknavigation für Darstellung... ?
Tage:      1T, 2T, 3T, 5T -1T -2T -3T -5T +1T +2T +3T +5T
Wochen: 1W, 2W, 3W -1W -2W -3W +1W +2W +3W
Monate: 1M, 3M, 6M -1M -3M -6M +1M +3M +6M
Jahre:    1J, 3J, 5J, 10J -1J -3J -5J -10J +1J +3J +5J +10J
Nutze für die Darstellung ... ?
Originaldaten oder Mittelwerte auf ...
Stundenbasis Tagesbasis Wochenbasis
Monatsbasis Jahresbasis      Datenbasis: Original-Daten
Darstellen als:
Statistik (Auto) Statistik J:M      Darstellung:
Zur Graphik,    zurück zur Übersicht aller Sensoren.
 
Tabellarische Datenbersicht: ?
 
Sensor: Nr:Datum:Temp:Feuchte:Taupunkt:
Aussen-T/F 1 21-02-2004 00:08:01 -0.2 C 59 % -7.23 C
2 21-02-2004 00:20:02 -0.3 C 60 % -7.11 C
3 21-02-2004 00:32:01 -0.3 C 60 % -7.11 C
4 21-02-2004 00:44:01 -0.4 C 61 % -6.99 C
5 21-02-2004 00:56:01 -0.6 C 62 % -6.97 C
6 21-02-2004 01:08:01 -0.9 C 61 % -7.46 C
7 21-02-2004 01:20:01 -1 C 62 % -7.35 C
8 21-02-2004 01:32:01 -1.1 C 63 % -7.24 C
9 21-02-2004 01:44:01 -1.3 C 64 % -7.22 C
10 21-02-2004 01:56:01 -1.2 C 63 % -7.33 C
11 21-02-2004 02:08:01 -1.4 C 63 % -7.52 C
12 21-02-2004 02:20:01 -1.4 C 63 % -7.52 C
13 21-02-2004 02:32:01 -1.3 C 63 % -7.43 C
14 21-02-2004 02:44:01 -1.5 C 65 % -7.21 C
15 21-02-2004 02:57:01 -1.6 C 66 % -7.11 C
16 21-02-2004 03:09:01 -1.8 C 65 % -7.5 C
17 21-02-2004 03:20:59 -1.9 C 66 % -7.4 C
18 21-02-2004 03:33:01 -2 C 65 % -7.69 C
19 21-02-2004 03:45:01 -2.1 C 66 % -7.59 C
20 21-02-2004 03:57:01 -2.3 C 66 % -7.78 C
21 21-02-2004 04:09:01 -2.5 C 66 % -7.97 C
22 21-02-2004 04:21:01 -2.4 C 66 % -7.87 C
23 21-02-2004 04:33:01 -2.3 C 67 % -7.58 C
24 21-02-2004 04:45:00 -2 C 66 % -7.49 C
25 21-02-2004 04:57:00 -1.9 C 65 % -7.59 C
Sensor: Nr:Datum:Temp:Feuchte:Taupunkt:
Aussen-T/F 26 21-02-2004 05:09:59 -1.8 C 63 % -7.9 C
27 21-02-2004 05:21:58 -1.8 C 63 % -7.9 C
28 21-02-2004 05:33:57 -1.8 C 62 % -8.11 C
29 21-02-2004 05:45:01 -1.8 C 62 % -8.11 C
30 21-02-2004 05:57:01 -2 C 63 % -8.09 C
31 21-02-2004 06:09:01 -1.9 C 63 % -8 C
32 21-02-2004 06:21:01 -2 C 63 % -8.09 C
33 21-02-2004 06:33:01 -2 C 63 % -8.09 C
34 21-02-2004 06:45:01 -2 C 64 % -7.89 C
35 21-02-2004 06:57:01 -1.8 C 63 % -7.9 C
36 21-02-2004 07:09:01 -1.4 C 61 % -7.94 C
37 21-02-2004 07:21:01 -1.4 C 60 % -8.15 C
38 21-02-2004 07:33:01 -1.1 C 59 % -8.08 C
39 21-02-2004 07:45:00 -1.1 C 58 % -8.3 C
40 21-02-2004 07:57:00 -1.4 C 60 % -8.15 C
41 21-02-2004 08:09:00 -0.9 C 58 % -8.11 C
42 21-02-2004 08:21:58 -0.7 C 58 % -7.92 C
43 21-02-2004 08:33:57 -0.4 C 56 % -8.09 C
44 21-02-2004 08:45:01 -0.4 C 56 % -8.09 C
45 21-02-2004 08:57:01 -0.4 C 57 % -7.87 C
46 21-02-2004 09:09:01 -0.3 C 57 % -7.77 C
47 21-02-2004 09:21:01 0.1 C 56 % -7.61 C
48 21-02-2004 09:33:01 0.4 C 55 % -7.57 C
49 21-02-2004 09:45:00 0.5 C 54 % -7.71 C
50 21-02-2004 09:57:00 0.7 C 54 % -7.52 C
Sensor: Nr:Datum:Temp:Feuchte:Taupunkt:
Aussen-T/F 51 21-02-2004 10:09:59 1 C 52 % -7.73 C
52 21-02-2004 10:21:58 1.1 C 52 % -7.64 C
53 21-02-2004 10:33:57 1.2 C 53 % -7.3 C
54 21-02-2004 10:45:01 1.3 C 51 % -7.7 C
55 21-02-2004 10:57:01 1.5 C 50 % -7.77 C
56 21-02-2004 11:09:01 1.5 C 50 % -7.77 C
57 21-02-2004 11:21:01 1.5 C 51 % -7.52 C
58 21-02-2004 11:33:01 1.6 C 51 % -7.42 C
59 21-02-2004 11:45:01 1.8 C 51 % -7.24 C
60 21-02-2004 11:57:01 2.2 C 50 % -7.12 C
61 21-02-2004 12:09:01 2.4 C 50 % -6.94 C
62 21-02-2004 12:21:01 3 C 46 % -7.47 C
63 21-02-2004 12:33:01 3.1 C 45 % -7.66 C
64 21-02-2004 12:45:00 3.3 C 46 % -7.19 C
65 21-02-2004 12:57:00 3.5 C 45 % -7.29 C
66 21-02-2004 13:09:00 3.4 C 45 % -7.38 C
67 21-02-2004 13:21:58 3.7 C 45 % -7.11 C
68 21-02-2004 13:33:57 3.7 C 45 % -7.11 C
69 21-02-2004 13:45:01 3.5 C 46 % -7.01 C
70 21-02-2004 13:57:01 3.5 C 46 % -7.01 C
71 21-02-2004 14:09:01 3.6 C 45 % -7.2 C
72 21-02-2004 14:21:01 3.6 C 45 % -7.2 C
73 21-02-2004 14:33:01 3.7 C 45 % -7.11 C
74 21-02-2004 14:45:01 3.9 C 45 % -6.93 C
75 21-02-2004 14:57:01 4.2 C 44 % -6.94 C
Sensor: Nr:Datum:Temp:Feuchte:Taupunkt:
Aussen-T/F 76 21-02-2004 15:09:28 4.4 C 44 % -6.76 C
77 21-02-2004 15:21:01 4.8 C 43 % -6.7 C
78 21-02-2004 15:33:01 5.3 C 41 % -6.86 C
79 21-02-2004 15:45:00 5.5 C 41 % -6.68 C
80 21-02-2004 15:57:00 5.5 C 41 % -6.68 C
81 21-02-2004 16:09:00 5.8 C 41 % -6.41 C
82 21-02-2004 16:21:59 5.7 C 40 % -6.82 C
83 21-02-2004 16:33:57 5.5 C 41 % -6.68 C
84 21-02-2004 16:45:02 5.1 C 42 % -6.73 C
85 21-02-2004 16:57:02 4.8 C 43 % -6.7 C
86 21-02-2004 17:09:04 4.6 C 44 % -6.58 C
87 21-02-2004 17:21:02 4.4 C 45 % -6.47 C
88 21-02-2004 17:33:02 4.3 C 45 % -6.56 C
89 21-02-2004 17:45:02 4.2 C 45 % -6.65 C
90 21-02-2004 17:57:02 4.1 C 46 % -6.46 C
91 21-02-2004 18:09:01 3.9 C 47 % -6.36 C
92 21-02-2004 18:21:59 3.8 C 49 % -5.91 C
93 21-02-2004 18:33:59 3.7 C 48 % -6.27 C
94 21-02-2004 18:45:01 3.7 C 50 % -5.74 C
95 21-02-2004 18:57:01 3.6 C 50 % -5.83 C
96 21-02-2004 19:09:01 3.4 C 51 % -5.76 C
97 21-02-2004 19:21:00 3 C 51 % -6.13 C
98 21-02-2004 19:33:00 2.7 C 53 % -5.9 C
99 21-02-2004 19:45:01 2.5 C 54 % -5.85 C
100 21-02-2004 19:57:01 2.5 C 55 % -5.61 C
Sensor: Nr:Datum:Temp:Feuchte:Taupunkt:
Aussen-T/F 101 21-02-2004 20:09:01 2.6 C 55 % -5.51 C
102 21-02-2004 20:21:01 2.7 C 55 % -5.42 C
103 21-02-2004 20:33:01 2.8 C 56 % -5.09 C
104 21-02-2004 20:45:01 2.9 C 55 % -5.23 C
105 21-02-2004 20:57:01 2.8 C 55 % -5.33 C
106 21-02-2004 21:09:01 2.8 C 56 % -5.09 C
107 21-02-2004 21:21:01 2.4 C 56 % -5.46 C
108 21-02-2004 21:33:01 1.9 C 58 % -5.47 C
109 21-02-2004 21:45:00 1.6 C 59 % -5.53 C
110 21-02-2004 21:57:00 1.4 C 59 % -5.72 C
111 21-02-2004 22:09:00 1.2 C 60 % -5.69 C
112 21-02-2004 22:21:58 1.1 C 61 % -5.56 C
113 21-02-2004 22:33:57 0.9 C 62 % -5.54 C
114 21-02-2004 22:45:01 0.9 C 62 % -5.54 C
115 21-02-2004 22:57:01 0.7 C 63 % -5.52 C
116 21-02-2004 23:09:01 0.6 C 64 % -5.41 C
117 21-02-2004 23:21:01 0.4 C 65 % -5.39 C
118 21-02-2004 23:33:01 0.3 C 65 % -5.49 C
119 21-02-2004 23:45:01 0.3 C 66 % -5.29 C
120 21-02-2004 23:57:01 0.1 C 66 % -5.48 C
121 22-02-2004 00:09:01 0.2 C 66 % -5.38 C
122 22-02-2004 00:21:01 0.1 C 66 % -5.48 C
123 22-02-2004 00:33:01 0 C 66 % -5.58 C
124 22-02-2004 00:45:00 0 C 65 % -5.78 C
125 22-02-2004 00:57:00 -0.1 C 66 % -5.68 C
Sensor: Nr:Datum:Temp:Feuchte:Taupunkt:
Aussen-T/F 126 22-02-2004 01:09:00 -0.2 C 67 % -5.58 C
127 22-02-2004 01:21:59 -0.1 C 67 % -5.48 C
128 22-02-2004 01:33:57 -0.1 C 68 % -5.29 C
129 22-02-2004 01:45:01 0 C 67 % -5.38 C
130 22-02-2004 01:57:01 0.2 C 67 % -5.19 C
131 22-02-2004 02:09:01 0.3 C 67 % -5.09 C
132 22-02-2004 02:21:01 0.2 C 66 % -5.38 C
133 22-02-2004 02:33:01 0.1 C 67 % -5.28 C
134 22-02-2004 02:46:01 -0.1 C 67 % -5.48 C
135 22-02-2004 02:58:01 -0.2 C 68 % -5.38 C
136 22-02-2004 03:10:00 -0.3 C 69 % -5.29 C
137 22-02-2004 03:22:00 -0.3 C 69 % -5.29 C
138 22-02-2004 03:34:01 -0.1 C 69 % -5.09 C
139 22-02-2004 03:46:01 0.2 C 68 % -4.99 C
140 22-02-2004 03:58:01 0.1 C 69 % -4.9 C
141 22-02-2004 04:10:00 0.1 C 69 % -4.9 C
142 22-02-2004 04:22:00 0.2 C 68 % -4.99 C
143 22-02-2004 04:34:00 0.2 C 68 % -4.99 C
144 22-02-2004 04:46:01 0.3 C 68 % -4.9 C
145 22-02-2004 04:58:01 0.4 C 67 % -5 C
146 22-02-2004 05:10:01 0.4 C 67 % -5 C
147 22-02-2004 05:22:01 0.4 C 68 % -4.8 C
148 22-02-2004 05:34:00 0.4 C 69 % -4.61 C
149 22-02-2004 05:46:01 0.4 C 69 % -4.61 C
150 22-02-2004 05:58:01 0.4 C 69 % -4.61 C
Sensor: Nr:Datum:Temp:Feuchte:Taupunkt:
Aussen-T/F 151 22-02-2004 06:10:01 0.4 C 69 % -4.61 C
152 22-02-2004 06:22:01 0.4 C 69 % -4.61 C
153 22-02-2004 06:34:01 0.5 C 69 % -4.51 C
154 22-02-2004 06:46:00 0.4 C 69 % -4.61 C
155 22-02-2004 06:58:00 0.4 C 70 % -4.42 C
156 22-02-2004 07:10:00 0.5 C 69 % -4.51 C
157 22-02-2004 07:22:58 0.6 C 69 % -4.42 C
158 22-02-2004 07:34:57 0.7 C 68 % -4.51 C
159 22-02-2004 07:46:01 1 C 67 % -4.42 C
160 22-02-2004 07:58:01 1.2 C 66 % -4.43 C
161 22-02-2004 08:10:01 1.3 C 66 % -4.34 C
162 22-02-2004 08:22:01 1.4 C 66 % -4.24 C
163 22-02-2004 08:34:01 1.5 C 66 % -4.15 C
164 22-02-2004 08:46:00 1.6 C 65 % -4.25 C
165 22-02-2004 08:58:00 1.7 C 65 % -4.16 C
166 22-02-2004 09:10:59 1.8 C 65 % -4.06 C
167 22-02-2004 09:22:58 1.8 C 65 % -4.06 C
168 22-02-2004 09:34:57 2 C 65 % -3.87 C
169 22-02-2004 09:46:01 1.9 C 66 % -3.76 C
170 22-02-2004 09:58:01 1.9 C 66 % -3.76 C
171 22-02-2004 10:10:01 1.8 C 66 % -3.86 C
172 22-02-2004 10:22:01 1.6 C 66 % -4.05 C
173 22-02-2004 10:34:00 1.7 C 66 % -3.95 C
174 22-02-2004 10:46:16 1.5 C 66 % -4.15 C
175 22-02-2004 10:58:01 1.7 C 66 % -3.95 C
Sensor: Nr:Datum:Temp:Feuchte:Taupunkt:
Aussen-T/F 176 22-02-2004 11:10:01 1.8 C 66 % -3.86 C
177 22-02-2004 11:22:01 1.7 C 66 % -3.95 C
178 22-02-2004 11:34:01 1.9 C 66 % -3.76 C
179 22-02-2004 11:46:40 2.1 C 64 % -3.98 C
180 22-02-2004 11:58:00 2 C 63 % -4.29 C
181 22-02-2004 12:10:00 1.9 C 65 % -3.97 C
182 22-02-2004 12:22:59 1.6 C 64 % -4.46 C
183 22-02-2004 12:34:58 2 C 63 % -4.29 C
184 22-02-2004 12:46:01 1.9 C 63 % -4.38 C
185 22-02-2004 12:58:01 2.1 C 62 % -4.4 C
186 22-02-2004 13:10:01 2.3 C 60 % -4.65 C
187 22-02-2004 13:22:01 2.5 C 58 % -4.91 C
188 22-02-2004 13:34:01 2.8 C 58 % -4.63 C
189 22-02-2004 13:46:00 2.8 C 56 % -5.09 C
190 22-02-2004 13:58:00 3.3 C 54 % -5.1 C
191 22-02-2004 14:10:00 3.3 C 53 % -5.35 C
192 22-02-2004 14:22:59 3.4 C 52 % -5.5 C
193 22-02-2004 14:34:57 3.6 C 51 % -5.57 C
194 22-02-2004 14:46:01 4 C 49 % -5.73 C
195 22-02-2004 14:58:01 4.3 C 46 % -6.28 C
196 22-02-2004 15:10:01 4.5 C 44 % -6.67 C
197 22-02-2004 15:22:01 5.1 C 41 % -7.04 C
198 22-02-2004 15:34:01 5.4 C 38 % -7.75 C
199 22-02-2004 15:46:00 5.8 C 37 % -7.74 C
200 22-02-2004 15:58:00 5.5 C 36 % -8.36 C
Sensor: Nr:Datum:Temp:Feuchte:Taupunkt:
Aussen-T/F 201 22-02-2004 16:09:59 4.8 C 41 % -7.31 C
202 22-02-2004 16:22:58 4.7 C 43 % -6.79 C
203 22-02-2004 16:34:57 4.6 C 45 % -6.29 C
204 22-02-2004 16:46:01 4.4 C 46 % -6.18 C
205 22-02-2004 16:58:01 4.1 C 46 % -6.46 C
206 22-02-2004 17:10:01 3.9 C 47 % -6.36 C
207 22-02-2004 17:22:01 3.7 C 47 % -6.55 C
208 22-02-2004 17:34:01 3.6 C 48 % -6.36 C
209 22-02-2004 17:46:01 3.6 C 49 % -6.1 C
210 22-02-2004 17:58:01 3.6 C 49 % -6.1 C
211 22-02-2004 18:10:01 3.5 C 49 % -6.19 C
212 22-02-2004 18:22:01 3.5 C 50 % -5.92 C
213 22-02-2004 18:34:01 3.5 C 50 % -5.92 C
214 22-02-2004 18:46:00 3.5 C 51 % -5.66 C
215 22-02-2004 18:58:00 3.5 C 51 % -5.66 C
216 22-02-2004 19:10:00 3.5 C 52 % -5.41 C
217 22-02-2004 19:22:59 3.5 C 53 % -5.16 C
218 22-02-2004 19:34:57 3.3 C 53 % -5.35 C
219 22-02-2004 19:46:01 2.7 C 56 % -5.18 C
220 22-02-2004 19:58:01 2.4 C 58 % -5 C
221 22-02-2004 20:10:01 2.5 C 58 % -4.91 C
222 22-02-2004 20:22:01 2.6 C 59 % -4.59 C
223 22-02-2004 20:34:01 2.7 C 58 % -4.72 C
224 22-02-2004 20:46:00 2.8 C 58 % -4.63 C
225 22-02-2004 20:58:00 2.9 C 59 % -4.31 C
Sensor: Nr:Datum:Temp:Feuchte:Taupunkt:
Aussen-T/F 226 22-02-2004 21:10:59 2.9 C 60 % -4.08 C
227 22-02-2004 21:22:58 3 C 58 % -4.44 C
228 22-02-2004 21:34:57 3 C 58 % -4.44 C
229 22-02-2004 21:46:01 3 C 58 % -4.44 C
230 22-02-2004 21:58:01 3.1 C 58 % -4.34 C
231 22-02-2004 22:10:01 3.1 C 56 % -4.81 C
232 22-02-2004 22:22:01 3 C 53 % -5.62 C
233 22-02-2004 22:34:01 2.8 C 51 % -6.31 C
234 22-02-2004 22:46:01 2.6 C 49 % -7.02 C
235 22-02-2004 22:58:01 2.2 C 48 % -7.65 C
236 22-02-2004 23:10:01 2 C 47 % -8.1 C
237 22-02-2004 23:22:01 1.8 C 48 % -8.02 C
238 22-02-2004 23:34:01 1.5 C 50 % -7.77 C
239 22-02-2004 23:46:00 1.3 C 51 % -7.7 C
240 22-02-2004 23:58:00 1.1 C 52 % -7.64 C
241 23-02-2004 00:10:00 0.8 C 54 % -7.43 C
242 23-02-2004 00:22:59 0.8 C 55 % -7.19 C
243 23-02-2004 00:34:57 0.6 C 56 % -7.15 C
244 23-02-2004 00:46:01 0.4 C 56 % -7.33 C
245 23-02-2004 00:58:01 0.3 C 57 % -7.2 C
246 23-02-2004 01:10:01 0.2 C 58 % -7.07 C
247 23-02-2004 01:22:01 0 C 60 % -6.82 C
248 23-02-2004 01:34:01 -0.3 C 61 % -6.9 C
249 23-02-2004 01:46:00 -0.4 C 61 % -6.99 C
250 23-02-2004 01:58:00 -0.3 C 62 % -6.68 C
Sensor: Nr:Datum:Temp:Feuchte:Taupunkt:
Aussen-T/F 251 23-02-2004 02:09:59 -0.3 C 62 % -6.68 C
252 23-02-2004 02:22:58 -0.6 C 63 % -6.76 C
253 23-02-2004 02:34:57 -0.9 C 63 % -7.05 C
254 23-02-2004 02:47:02 -0.9 C 65 % -6.64 C
255 23-02-2004 02:59:02 -1 C 66 % -6.54 C
256 23-02-2004 03:11:02 -1.1 C 67 % -6.44 C
257 23-02-2004 03:23:02 -1.1 C 67 % -6.44 C
258 23-02-2004 03:35:00 -1.5 C 67 % -6.82 C
259 23-02-2004 03:47:00 -1.7 C 69 % -6.63 C
260 23-02-2004 03:59:00 -1.9 C 70 % -6.63 C
261 23-02-2004 04:11:00 -1.6 C 71 % -6.16 C
262 23-02-2004 04:23:59 -1.4 C 70 % -6.15 C
263 23-02-2004 04:35:57 -1.4 C 70 % -6.15 C
264 23-02-2004 04:47:01 -1.4 C 70 % -6.15 C
265 23-02-2004 04:59:01 -1.4 C 69 % -6.34 C
266 23-02-2004 05:11:01 -1.4 C 70 % -6.15 C
267 23-02-2004 05:23:01 -1 C 69 % -5.96 C
268 23-02-2004 05:35:01 -0.9 C 68 % -6.05 C
269 23-02-2004 05:47:00 -0.9 C 67 % -6.25 C
270 23-02-2004 05:59:00 -0.9 C 67 % -6.25 C
271 23-02-2004 06:11:00 -0.8 C 68 % -5.96 C
272 23-02-2004 06:23:58 -0.7 C 67 % -6.05 C
273 23-02-2004 06:35:57 -0.7 C 68 % -5.86 C
274 23-02-2004 06:47:01 -0.7 C 68 % -5.86 C
275 23-02-2004 06:59:01 -0.6 C 68 % -5.76 C
Sensor: Nr:Datum:Temp:Feuchte:Taupunkt:
Aussen-T/F 276 23-02-2004 07:11:01 -0.6 C 68 % -5.76 C
277 23-02-2004 07:23:01 -0.6 C 68 % -5.76 C
278 23-02-2004 07:35:01 -0.5 C 68 % -5.67 C
279 23-02-2004 07:47:01 -0.4 C 68 % -5.57 C
280 23-02-2004 07:59:01 -0.4 C 68 % -5.57 C
281 23-02-2004 08:11:01 -0.3 C 68 % -5.48 C
282 23-02-2004 08:23:01 -0.3 C 68 % -5.48 C
283 23-02-2004 08:35:01 -0.3 C 68 % -5.48 C
284 23-02-2004 08:47:00 -0.4 C 69 % -5.38 C
285 23-02-2004 08:59:00 -0.1 C 69 % -5.09 C
286 23-02-2004 09:11:00 0.2 C 68 % -4.99 C
287 23-02-2004 09:23:59 0.5 C 66 % -5.1 C
288 23-02-2004 09:35:57 0.7 C 65 % -5.11 C
289 23-02-2004 09:47:23 0.8 C 65 % -5.01 C
290 23-02-2004 09:59:02 1.1 C 63 % -5.14 C
291 23-02-2004 10:02:24 0.8 C 64 % -5.22 C
292 23-02-2004 10:05:01 0.8 C 64 % -5.22 C
293 23-02-2004 10:14:01 1 C 63 % -5.23 C
294 23-02-2004 10:26:01 1 C 63 % -5.23 C
295 23-02-2004 10:38:01 1 C 63 % -5.23 C
296 23-02-2004 10:50:01 1.3 C 63 % -4.95 C
297 23-02-2004 11:13:59 1.4 C 62 % -5.07 C
298 23-02-2004 11:14:58 1.5 C 60 % -5.4 C
299 23-02-2004 11:26:58 1.9 C 57 % -5.7 C
300 23-02-2004 11:38:57 1.9 C 58 % -5.47 C
Sensor: Nr:Datum:Temp:Feuchte:Taupunkt:
Aussen-T/F 301 23-02-2004 11:50:01 2.5 C 56 % -5.37 C
302 23-02-2004 12:02:01 2.2 C 56 % -5.65 C
303 23-02-2004 12:14:01 2.6 C 57 % -5.04 C
304 23-02-2004 12:26:01 2.8 C 55 % -5.33 C
305 23-02-2004 12:38:01 3 C 51 % -6.13 C
306 23-02-2004 12:50:01 3.8 C 48 % -6.18 C
307 23-02-2004 13:02:01 3.7 C 45 % -7.11 C
308 23-02-2004 13:14:01 4.1 C 44 % -7.04 C
309 23-02-2004 13:26:01 4.3 C 43 % -7.15 C
310 23-02-2004 13:38:01 4.6 C 42 % -7.18 C
311 23-02-2004 13:50:00 5 C 39 % -7.78 C
312 23-02-2004 14:02:00 3.6 C 46 % -6.92 C
313 23-02-2004 14:14:00 1.7 C 60 % -5.21 C
314 23-02-2004 14:26:59 2.1 C 57 % -5.51 C
315 23-02-2004 14:38:57 3 C 52 % -5.87 C
316 23-02-2004 14:50:01 3.3 C 53 % -5.35 C
317 23-02-2004 15:02:01 4.2 C 50 % -5.28 C
318 23-02-2004 15:14:01 4.9 C 47 % -5.45 C
319 23-02-2004 15:26:01 3.6 C 47 % -6.64 C
320 23-02-2004 15:38:01 2.9 C 51 % -6.22 C
321 23-02-2004 15:50:01 2.7 C 49 % -6.92 C
322 23-02-2004 16:02:59 3.1 C 45 % -7.66 C
323 23-02-2004 16:13:59 3.6 C 42 % -8.09 C
324 23-02-2004 16:26:58 3.2 C 38 % -9.72 C
325 23-02-2004 16:38:57 3.5 C 37 % -9.79 C
Sensor: Nr:Datum:Temp:Feuchte:Taupunkt:
Aussen-T/F 326 23-02-2004 16:50:01 3.8 C 35 % -10.23 C
327 23-02-2004 17:02:01 3.8 C 35 % -10.23 C
328 23-02-2004 17:14:01 3.7 C 35 % -10.31 C
329 23-02-2004 17:26:01 3.2 C 37 % -10.06 C
330 23-02-2004 17:38:01 2.6 C 40 % -9.61 C
331 23-02-2004 17:50:01 2.4 C 42 % -9.18 C
332 23-02-2004 18:02:01 2.3 C 45 % -8.39 C
333 23-02-2004 18:14:01 2 C 50 % -7.31 C
334 23-02-2004 18:26:01 1.5 C 54 % -6.78 C
335 23-02-2004 18:38:01 1 C 56 % -6.77 C
336 23-02-2004 18:50:00 0.6 C 59 % -6.47 C
337 23-02-2004 19:02:00 0.2 C 60 % -6.63 C
338 23-02-2004 19:14:00 0.2 C 59 % -6.85 C
339 23-02-2004 19:26:59 -0.2 C 60 % -7.02 C
340 23-02-2004 19:38:58 -0.5 C 61 % -7.08 C
341 23-02-2004 19:50:01 -0.5 C 61 % -7.08 C
342 23-02-2004 20:02:01 -0.8 C 62 % -7.16 C
343 23-02-2004 20:14:01 -0.9 C 64 % -6.84 C
344 23-02-2004 20:26:01 -1 C 65 % -6.74 C
345 23-02-2004 20:38:01 -1.3 C 65 % -7.02 C
346 23-02-2004 20:50:00 -1.3 C 67 % -6.63 C
347 23-02-2004 21:02:00 -1.6 C 67 % -6.91 C
348 23-02-2004 21:14:00 -1.8 C 67 % -7.11 C
349 23-02-2004 21:26:59 -2 C 67 % -7.3 C
350 23-02-2004 21:38:57 -2.1 C 68 % -7.2 C
Sensor: Nr:Datum:Temp:Feuchte:Taupunkt:
Aussen-T/F 351 23-02-2004 21:50:01 -2.3 C 68 % -7.39 C
352 23-02-2004 22:02:01 -2.3 C 69 % -7.2 C
353 23-02-2004 22:14:01 -2.4 C 69 % -7.3 C
354 23-02-2004 22:26:01 -2.4 C 69 % -7.3 C
355 23-02-2004 22:38:01 -2.6 C 70 % -7.31 C
356 23-02-2004 22:50:00 -2.6 C 70 % -7.31 C
357 23-02-2004 23:02:59 -2.7 C 71 % -7.22 C
358 23-02-2004 23:14:58 -3 C 71 % -7.51 C
359 23-02-2004 23:26:58 -2.9 C 72 % -7.23 C
360 23-02-2004 23:38:57 -2.9 C 72 % -7.23 C
361 23-02-2004 23:50:01 -3 C 73 % -7.15 C
362 24-02-2004 00:02:01 -3.2 C 73 % -7.34 C
363 24-02-2004 00:14:01 -3.2 C 73 % -7.34 C
364 24-02-2004 00:26:01 -3.4 C 72 % -7.71 C
365 24-02-2004 00:38:01 -3.2 C 72 % -7.52 C
366 24-02-2004 00:50:01 -3.4 C 73 % -7.53 C
367 24-02-2004 01:02:01 -3.5 C 73 % -7.63 C
368 24-02-2004 01:14:01 -3.7 C 74 % -7.65 C
369 24-02-2004 01:26:01 -3.7 C 74 % -7.65 C
370 24-02-2004 01:38:01 -3.8 C 74 % -7.75 C
371 24-02-2004 01:50:00 -4 C 74 % -7.94 C
372 24-02-2004 02:02:00 -4 C 74 % -7.94 C
373 24-02-2004 02:14:00 -4 C 74 % -7.94 C
374 24-02-2004 02:26:58 -4.2 C 74 % -8.13 C
375 24-02-2004 02:38:57 -4.3 C 74 % -8.23 C
Sensor: Nr:Datum:Temp:Feuchte:Taupunkt:
Aussen-T/F 376 24-02-2004 02:51:03 -4.5 C 74 % -8.42 C
377 24-02-2004 03:03:03 -4.6 C 74 % -8.52 C
378 24-02-2004 03:15:02 -4.6 C 74 % -8.52 C
379 24-02-2004 03:27:02 -4.8 C 74 % -8.71 C
380 24-02-2004 03:39:00 -4.8 C 74 % -8.71 C
381 24-02-2004 03:51:00 -5.1 C 73 % -9.18 C
382 24-02-2004 04:03:00 -4.9 C 73 % -8.98 C
383 24-02-2004 04:15:59 -5 C 73 % -9.08 C
384 24-02-2004 04:27:59 -5.3 C 73 % -9.37 C
385 24-02-2004 04:39:58 -5.2 C 73 % -9.27 C
386 24-02-2004 04:51:01 -5.3 C 73 % -9.37 C
387 24-02-2004 05:03:01 -5.6 C 73 % -9.66 C
388 24-02-2004 05:15:01 -5.7 C 73 % -9.75 C
389 24-02-2004 05:27:01 -5.6 C 73 % -9.66 C
390 24-02-2004 05:39:01 -5.6 C 73 % -9.66 C
391 24-02-2004 05:51:00 -5.8 C 73 % -9.85 C
392 24-02-2004 06:03:00 -5.8 C 73 % -9.85 C
393 24-02-2004 06:15:59 -6 C 73 % -10.04 C
394 24-02-2004 06:27:59 -6.1 C 73 % -10.14 C
395 24-02-2004 06:39:57 -6.1 C 73 % -10.14 C
396 24-02-2004 06:51:01 -6.1 C 73 % -10.14 C
397 24-02-2004 07:03:01 -6.2 C 72 % -10.41 C
398 24-02-2004 07:15:01 -6.2 C 73 % -10.24 C
399 24-02-2004 07:27:01 -6.1 C 72 % -10.32 C
400 24-02-2004 07:39:01 -6 C 72 % -10.22 C
Sensor: Nr:Datum:Temp:Feuchte:Taupunkt:
Aussen-T/F 401 24-02-2004 07:51:00 -5.7 C 71 % -10.11 C
402 24-02-2004 08:03:59 -5.5 C 70 % -10.09 C
403 24-02-2004 08:15:58 -5.3 C 69 % -10.08 C
404 24-02-2004 08:27:58 -4.8 C 69 % -9.6 C
405 24-02-2004 08:39:57 -4.4 C 67 % -9.59 C
406 24-02-2004 08:51:01 -4.4 C 67 % -9.59 C
407 24-02-2004 09:03:01 -4.1 C 67 % -9.31 C
408 24-02-2004 09:15:01 -3.9 C 67 % -9.11 C
409 24-02-2004 09:27:01 -3.5 C 67 % -8.73 C
410 24-02-2004 09:39:01 -3.1 C 66 % -8.54 C
411 24-02-2004 09:51:01 -2.6 C 65 % -8.26 C
412 24-02-2004 10:03:01 -2.3 C 64 % -8.17 C
413 24-02-2004 10:15:01 -1.9 C 64 % -7.79 C
414 24-02-2004 10:27:01 -1.4 C 62 % -7.73 C
415 24-02-2004 10:39:01 -1.1 C 61 % -7.65 C
416 24-02-2004 10:51:01 -0.6 C 60 % -7.39 C
417 24-02-2004 11:03:01 -0.1 C 59 % -7.14 C
418 24-02-2004 11:15:01 0 C 56 % -7.71 C
419 24-02-2004 11:27:01 0.2 C 56 % -7.52 C
420 24-02-2004 11:39:01 0.5 C 55 % -7.47 C
421 24-02-2004 11:51:01 0.8 C 52 % -7.92 C
422 24-02-2004 12:03:01 1.3 C 51 % -7.7 C
423 24-02-2004 12:15:01 1.9 C 50 % -7.4 C
424 24-02-2004 12:27:01 2.3 C 46 % -8.11 C
425 24-02-2004 12:39:01 2.3 C 45 % -8.39 C
Sensor: Nr:Datum:Temp:Feuchte:Taupunkt:
Aussen-T/F 426 24-02-2004 12:51:01 2.5 C 44 % -8.49 C
427 24-02-2004 13:03:02 2.6 C 42 % -8.99 C
428 24-02-2004 13:15:01 3.1 C 40 % -9.16 C
429 24-02-2004 13:27:01 3.1 C 40 % -9.16 C
430 24-02-2004 13:39:01 3.4 C 40 % -8.89 C
431 24-02-2004 13:51:01 3.8 C 40 % -8.53 C
432 24-02-2004 14:03:01 3.3 C 41 % -8.67 C
433 24-02-2004 14:15:01 3.4 C 43 % -7.97 C
434 24-02-2004 14:27:01 3.5 C 44 % -7.58 C
435 24-02-2004 14:39:01 3.5 C 46 % -7.01 C
436 24-02-2004 14:51:00 3.3 C 46 % -7.19 C
437 24-02-2004 15:03:00 3.3 C 46 % -7.19 C
438 24-02-2004 15:15:59 3.2 C 47 % -7 C
439 24-02-2004 15:27:59 3.2 C 47 % -7 C
440 24-02-2004 15:39:58 3.3 C 47 % -6.91 C
441 24-02-2004 15:51:01 3.3 C 47 % -6.91 C
442 24-02-2004 16:03:01 3.2 C 47 % -7 C
443 24-02-2004 16:15:01 3.2 C 48 % -6.73 C
444 24-02-2004 16:27:01 3 C 48 % -6.92 C
445 24-02-2004 16:39:01 2.7 C 50 % -6.66 C
446 24-02-2004 16:51:01 2.7 C 51 % -6.41 C
447 24-02-2004 17:03:01 2.7 C 52 % -6.15 C
448 24-02-2004 17:15:01 2.7 C 53 % -5.9 C
449 24-02-2004 17:27:01 2.5 C 54 % -5.85 C
450 24-02-2004 17:39:01 2.1 C 56 % -5.74 C
Sensor: Nr:Datum:Temp:Feuchte:Taupunkt:
Aussen-T/F 451 24-02-2004 17:51:00 1.8 C 59 % -5.34 C
452 24-02-2004 18:03:00 1.7 C 60 % -5.21 C
453 24-02-2004 18:15:59 1.7 C 60 % -5.21 C
454 24-02-2004 18:27:59 1.6 C 60 % -5.31 C
455 24-02-2004 18:39:58 1.6 C 60 % -5.31 C
456 24-02-2004 18:51:01 1.5 C 60 % -5.4 C
457 24-02-2004 19:03:01 1.6 C 60 % -5.31 C
458 24-02-2004 19:15:01 1.6 C 59 % -5.53 C
459 24-02-2004 19:27:01 1.6 C 59 % -5.53 C
460 24-02-2004 19:39:02 1.5 C 59 % -5.62 C
461 24-02-2004 19:51:00 1.5 C 58 % -5.85 C
462 24-02-2004 20:03:00 1.4 C 58 % -5.94 C
463 24-02-2004 20:15:59 1.4 C 58 % -5.94 C
464 24-02-2004 20:27:59 1.4 C 58 % -5.94 C
465 24-02-2004 20:39:57 1.2 C 58 % -6.13 C
466 24-02-2004 20:51:01 1.2 C 59 % -5.91 C
467 24-02-2004 21:03:01 1.2 C 59 % -5.91 C
468 24-02-2004 21:15:01 1.2 C 58 % -6.13 C
469 24-02-2004 21:27:01 1.3 C 58 % -6.03 C
470 24-02-2004 21:39:01 1.2 C 59 % -5.91 C
471 24-02-2004 21:51:01 1.1 C 60 % -5.78 C
472 24-02-2004 22:03:00 1.2 C 60 % -5.69 C
473 24-02-2004 22:15:58 1.3 C 60 % -5.59 C
474 24-02-2004 22:27:58 1.3 C 60 % -5.59 C
475 24-02-2004 22:39:57 1.3 C 61 % -5.37 C
Sensor: Nr:Datum:Temp:Feuchte:Taupunkt:
Aussen-T/F 476 24-02-2004 22:51:01 1.3 C 61 % -5.37 C
477 24-02-2004 23:03:01 1.4 C 61 % -5.28 C
478 24-02-2004 23:15:01 1.3 C 63 % -4.95 C
479 24-02-2004 23:27:01 1.3 C 65 % -4.54 C
480 24-02-2004 23:39:01 1.3 C 66 % -4.34 C
481 24-02-2004 23:51:01 1.2 C 67 % -4.23 C
482 25-02-2004 00:03:01 1.2 C 67 % -4.23 C
483 25-02-2004 00:15:01 1.5 C 65 % -4.35 C
484 25-02-2004 00:27:01 1.5 C 64 % -4.55 C
485 25-02-2004 00:39:02 1.6 C 63 % -4.67 C
486 25-02-2004 00:51:00 1.6 C 63 % -4.67 C
487 25-02-2004 01:03:00 1.6 C 63 % -4.67 C
488 25-02-2004 01:15:59 1.6 C 63 % -4.67 C
489 25-02-2004 01:27:59 1.6 C 63 % -4.67 C
490 25-02-2004 01:39:58 1.5 C 64 % -4.55 C
491 25-02-2004 01:51:01 1.5 C 65 % -4.35 C
492 25-02-2004 02:03:01 1.5 C 65 % -4.35 C
493 25-02-2004 02:15:01 1.4 C 65 % -4.44 C
494 25-02-2004 02:27:01 1.2 C 68 % -4.04 C
495 25-02-2004 02:39:00 1.2 C 68 % -4.04 C
496 25-02-2004 02:52:03 1.2 C 68 % -4.04 C
497 25-02-2004 03:04:03 1.3 C 67 % -4.14 C
498 25-02-2004 03:16:02 1.3 C 67 % -4.14 C
499 25-02-2004 03:28:02 1.3 C 66 % -4.34 C
500 25-02-2004 03:40:00 1.3 C 67 % -4.14 C
Sensor: Nr:Datum:Temp:Feuchte:Taupunkt:
Aussen-T/F 501 25-02-2004 03:52:00 1.2 C 69 % -3.84 C
502 25-02-2004 04:04:00 1 C 72 % -3.47 C
503 25-02-2004 04:16:59 0.7 C 75 % -3.21 C
504 25-02-2004 04:28:59 0.7 C 76 % -3.03 C
505 25-02-2004 04:40:58 0.7 C 76 % -3.03 C
506 25-02-2004 04:52:00 0.7 C 75 % -3.21 C
507 25-02-2004 05:04:00 0.6 C 77 % -2.96 C
508 25-02-2004 05:16:00 0.6 C 77 % -2.96 C
509 25-02-2004 05:28:00 0.5 C 78 % -2.88 C
510 25-02-2004 05:40:00 0.5 C 79 % -2.71 C
511 25-02-2004 05:52:01 0.4 C 79 % -2.81 C
512 25-02-2004 06:04:01 0.5 C 79 % -2.71 C
513 25-02-2004 06:16:01 0.5 C 79 % -2.71 C
514 25-02-2004 06:28:01 0.5 C 79 % -2.71 C
515 25-02-2004 06:40:01 0.6 C 79 % -2.61 C
516 25-02-2004 06:52:00 0.5 C 80 % -2.54 C
517 25-02-2004 07:04:00 0.4 C 81 % -2.47 C
518 25-02-2004 07:16:58 0.4 C 82 % -2.3 C
519 25-02-2004 07:28:58 0.4 C 82 % -2.3 C
520 25-02-2004 07:40:57 0.4 C 82 % -2.3 C
521 25-02-2004 07:52:01 0.5 C 82 % -2.21 C
522 25-02-2004 08:04:01 0.5 C 82 % -2.21 C
523 25-02-2004 08:16:01 0.4 C 83 % -2.14 C
524 25-02-2004 08:28:01 0.4 C 83 % -2.14 C
525 25-02-2004 08:40:01 0.4 C 84 % -1.98 C
Sensor: Nr:Datum:Temp:Feuchte:Taupunkt:
Aussen-T/F 526 25-02-2004 08:52:00 0.4 C 84 % -1.98 C
527 25-02-2004 09:04:59 0.4 C 84 % -1.98 C
528 25-02-2004 09:16:58 0.5 C 84 % -1.88 C
529 25-02-2004 09:28:58 0.6 C 84 % -1.78 C
530 25-02-2004 09:40:57 0.8 C 82 % -1.91 C
531 25-02-2004 09:52:01 1 C 81 % -1.88 C
532 25-02-2004 10:04:01 1.2 C 80 % -1.86 C
533 25-02-2004 10:16:01 1.5 C 80 % -1.57 C
534 25-02-2004 10:28:01 1.6 C 80 % -1.47 C
535 25-02-2004 10:40:00 1.9 C 79 % -1.35 C
536 25-02-2004 10:52:01 2.2 C 77 % -1.4 C
537 25-02-2004 11:04:01 2.2 C 75 % -1.76 C
538 25-02-2004 11:16:01 2.6 C 74 % -1.56 C
539 25-02-2004 11:28:01 3 C 71 % -1.73 C
540 25-02-2004 11:40:01 3.7 C 68 % -1.64 C
541 25-02-2004 11:52:00 3.6 C 65 % -2.35 C
542 25-02-2004 12:04:00 3.4 C 66 % -2.33 C
543 25-02-2004 12:16:59 3.7 C 64 % -2.46 C
544 25-02-2004 12:28:59 3.8 C 64 % -2.37 C
545 25-02-2004 12:40:58 3.8 C 63 % -2.58 C
546 25-02-2004 12:52:01 3.8 C 63 % -2.58 C
547 25-02-2004 13:04:00 3.8 C 61 % -3.01 C
548 25-02-2004 13:16:00 3.6 C 62 % -2.98 C
549 25-02-2004 13:28:00 3.7 C 64 % -2.46 C
550 25-02-2004 13:40:00 4.4 C 61 % -2.45 C
Sensor: Nr:Datum:Temp:Feuchte:Taupunkt:
Aussen-T/F 551 25-02-2004 13:52:01 5 C 56 % -3.03 C
552 25-02-2004 14:04:01 5 C 54 % -3.52 C
553 25-02-2004 14:16:01 4.6 C 54 % -3.89 C
554 25-02-2004 14:28:01 4.4 C 55 % -3.83 C
555 25-02-2004 14:40:01 4.3 C 54 % -4.17 C
556 25-02-2004 14:52:01 4.1 C 55 % -4.11 C
557 25-02-2004 15:04:01 4.2 C 55 % -4.02 C
558 25-02-2004 15:16:01 4 C 55 % -4.21 C
559 25-02-2004 15:28:01 3.7 C 57 % -4.01 C
560 25-02-2004 15:40:01 3.4 C 60 % -3.61 C
561 25-02-2004 15:52:00 3.1 C 63 % -3.24 C
562 25-02-2004 16:04:00 3.3 C 67 % -2.23 C
563 25-02-2004 16:16:58 1.1 C 72 % -3.37 C
564 25-02-2004 16:28:58 0.8 C 78 % -2.59 C
565 25-02-2004 16:40:57 0.7 C 79 % -2.51 C
566 25-02-2004 16:52:01 0.7 C 79 % -2.51 C
567 25-02-2004 17:04:01 0.6 C 80 % -2.44 C
568 25-02-2004 17:16:01 0.7 C 80 % -2.34 C
569 25-02-2004 17:28:01 0.7 C 80 % -2.34 C
570 25-02-2004 17:40:01 0.7 C 80 % -2.34 C
571 25-02-2004 17:52:00 0.6 C 80 % -2.44 C
572 25-02-2004 18:04:00 0.6 C 80 % -2.44 C
573 25-02-2004 18:16:59 0.7 C 80 % -2.34 C
574 25-02-2004 18:28:59 0.7 C 81 % -2.18 C
575 25-02-2004 18:40:58 0.5 C 80 % -2.54 C
Sensor: Nr:Datum:Temp:Feuchte:Taupunkt:
Aussen-T/F 576 25-02-2004 18:52:01 0.3 C 81 % -2.57 C
577 25-02-2004 19:04:02 0.3 C 81 % -2.57 C
578 25-02-2004 19:16:01 0.1 C 81 % -2.76 C
579 25-02-2004 19:28:01 0.1 C 82 % -2.6 C
580 25-02-2004 19:40:01 0.1 C 81 % -2.76 C
581 25-02-2004 19:52:00 0.1 C 81 % -2.76 C
582 25-02-2004 20:04:00 0.1 C 81 % -2.76 C
583 25-02-2004 20:16:58 0 C 81 % -2.86 C
584 25-02-2004 20:28:58 0 C 81 % -2.86 C
585 25-02-2004 20:40:57 0 C 81 % -2.86 C
586 25-02-2004 20:52:01 0 C 81 % -2.86 C
587 25-02-2004 21:04:01 0.1 C 81 % -2.76 C
588 25-02-2004 21:16:01 0 C 81 % -2.86 C
589 25-02-2004 21:28:01 -0.1 C 81 % -2.96 C
590 25-02-2004 21:40:01 -0.1 C 81 % -2.96 C
591 25-02-2004 21:52:00 0 C 80 % -3.03 C
592 25-02-2004 22:04:59 0 C 80 % -3.03 C
593 25-02-2004 22:16:58 0 C 80 % -3.03 C
594 25-02-2004 22:28:58 0.1 C 80 % -2.93 C
595 25-02-2004 22:40:57 0 C 79 % -3.2 C
596 25-02-2004 22:52:01 0.1 C 79 % -3.1 C
597 25-02-2004 23:04:01 0 C 78 % -3.37 C
598 25-02-2004 23:16:01 0 C 78 % -3.37 C
599 25-02-2004 23:28:01 0 C 80 % -3.03 C
600 25-02-2004 23:40:01 0 C 80 % -3.03 C
Sensor: Nr:Datum:Temp:Feuchte:Taupunkt:
Aussen-T/F 601 25-02-2004 23:52:01 0 C 81 % -2.86 C
602 26-02-2004 00:04:01 -0.1 C 79 % -3.3 C
603 26-02-2004 00:16:01 -0.1 C 79 % -3.3 C
604 26-02-2004 00:28:01 -0.1 C 80 % -3.13 C
605 26-02-2004 00:40:01 -0.1 C 80 % -3.13 C
606 26-02-2004 00:52:01 -0.1 C 80 % -3.13 C
607 26-02-2004 01:04:00 -0.1 C 80 % -3.13 C
608 26-02-2004 01:16:58 -0.1 C 79 % -3.3 C
609 26-02-2004 01:28:58 -0.1 C 79 % -3.3 C
610 26-02-2004 01:40:57 -0.2 C 79 % -3.39 C
611 26-02-2004 01:52:01 -0.2 C 79 % -3.39 C
612 26-02-2004 02:04:01 -0.3 C 78 % -3.66 C
613 26-02-2004 02:16:01 -0.3 C 77 % -3.83 C
614 26-02-2004 02:28:01 -0.4 C 77 % -3.93 C
615 26-02-2004 02:40:01 -0.6 C 76 % -4.3 C
616 26-02-2004 02:53:02 -0.7 C 76 % -4.4 C
617 26-02-2004 03:05:02 -1.1 C 76 % -4.78 C
618 26-02-2004 03:17:02 -1.3 C 76 % -4.98 C
619 26-02-2004 03:29:02 -1.4 C 76 % -5.07 C
620 26-02-2004 03:41:00 -1.5 C 77 % -5 C
621 26-02-2004 03:53:00 -1.6 C 77 % -5.1 C
622 26-02-2004 04:05:00 -1.9 C 76 % -5.56 C
623 26-02-2004 04:17:59 -2.1 C 76 % -5.75 C
624 26-02-2004 04:29:59 -2.1 C 77 % -5.58 C
625 26-02-2004 04:41:57 -1.8 C 77 % -5.29 C
Sensor: Nr:Datum:Temp:Feuchte:Taupunkt:
Aussen-T/F 626 26-02-2004 04:53:01 -1.7 C 77 % -5.19 C
627 26-02-2004 05:05:01 -1.6 C 76 % -5.27 C
628 26-02-2004 05:17:01 -1.6 C 76 % -5.27 C
629 26-02-2004 05:29:01 -1.6 C 76 % -5.27 C
630 26-02-2004 05:41:01 -1.5 C 76 % -5.17 C
631 26-02-2004 05:53:00 -1.6 C 76 % -5.27 C
632 26-02-2004 06:04:59 -1.6 C 76 % -5.27 C
633 26-02-2004 06:17:58 -1.7 C 76 % -5.36 C
634 26-02-2004 06:29:58 -1.7 C 76 % -5.36 C
635 26-02-2004 06:41:57 -1.7 C 76 % -5.36 C
636 26-02-2004 06:53:01 -1.9 C 75 % -5.73 C
637 26-02-2004 07:05:01 -2.1 C 75 % -5.93 C
638 26-02-2004 07:17:01 -2.5 C 74 % -6.49 C
639 26-02-2004 07:29:01 -2.6 C 74 % -6.58 C
640 26-02-2004 07:41:01 -2.6 C 75 % -6.41 C
641 26-02-2004 07:53:01 -2.3 C 75 % -6.12 C
642 26-02-2004 08:05:01 -2 C 74 % -6 C
643 26-02-2004 08:17:01 -1.8 C 71 % -6.35 C
644 26-02-2004 08:29:01 -1.9 C 70 % -6.63 C
645 26-02-2004 08:41:01 -2.1 C 70 % -6.83 C
646 26-02-2004 08:53:00 -2.2 C 70 % -6.92 C
647 26-02-2004 09:05:00 -2.4 C 71 % -6.93 C
648 26-02-2004 09:17:58 -2.2 C 69 % -7.11 C
649 26-02-2004 09:29:58 -2 C 68 % -7.11 C
650 26-02-2004 09:41:57 -1.9 C 68 % -7.01 C
Sensor: Nr:Datum:Temp:Feuchte:Taupunkt:
Aussen-T/F 651 26-02-2004 09:53:01 -1.7 C 68 % -6.82 C
652 26-02-2004 10:05:01 -1.4 C 68 % -6.53 C
653 26-02-2004 10:17:01 -1.1 C 67 % -6.44 C
654 26-02-2004 10:29:01 -1.1 C 66 % -6.63 C
655 26-02-2004 10:41:01 -0.9 C 64 % -6.84 C
656 26-02-2004 10:53:00 -0.6 C 60 % -7.39 C
657 26-02-2004 11:05:59 -0.4 C 60 % -7.2 C
658 26-02-2004 11:17:58 -0.3 C 60 % -7.11 C
659 26-02-2004 11:29:58 -0.1 C 57 % -7.58 C
660 26-02-2004 11:41:57 0.1 C 56 % -7.61 C
661 26-02-2004 11:53:01 0.1 C 53 % -8.32 C
662 26-02-2004 12:05:01 0.4 C 52 % -8.29 C
663 26-02-2004 12:17:01 0.4 C 52 % -8.29 C
664 26-02-2004 12:29:01 0.5 C 51 % -8.44 C
665 26-02-2004 12:41:00 1.1 C 50 % -8.14 C
666 26-02-2004 12:53:01 1.5 C 47 % -8.56 C
667 26-02-2004 13:05:01 1.7 C 45 % -8.93 C
668 26-02-2004 13:17:01 2 C 45 % -8.66 C
669 26-02-2004 13:29:01 2.2 C 45 % -8.48 C
670 26-02-2004 13:41:01 2.6 C 42 % -8.99 C
671 26-02-2004 13:53:00 2.7 C 44 % -8.31 C
672 26-02-2004 14:05:00 3.2 C 41 % -8.76 C
673 26-02-2004 14:17:58 3.3 C 42 % -8.36 C
674 26-02-2004 14:29:58 3.1 C 41 % -8.85 C
675 26-02-2004 14:41:57 3.3 C 41 % -8.67 C
Sensor: Nr:Datum:Temp:Feuchte:Taupunkt:
Aussen-T/F 676 26-02-2004 14:53:01 3.4 C 41 % -8.58 C
677 26-02-2004 15:05:01 3.4 C 40 % -8.89 C
678 26-02-2004 15:17:01 2.6 C 41 % -9.3 C
679 26-02-2004 15:29:01 2.4 C 43 % -8.88 C
680 26-02-2004 15:41:01 2.6 C 44 % -8.4 C
681 26-02-2004 15:53:01 2.6 C 45 % -8.11 C
682 26-02-2004 16:05:01 2.7 C 45 % -8.02 C
683 26-02-2004 16:17:01 2.1 C 46 % -8.29 C
684 26-02-2004 16:29:01 1.7 C 51 % -7.33 C
685 26-02-2004 16:41:01 1.5 C 52 % -7.27 C
686 26-02-2004 16:53:00 1.3 C 54 % -6.96 C
687 26-02-2004 17:05:00 1.1 C 60 % -5.78 C
688 26-02-2004 17:17:59 1.2 C 60 % -5.69 C
689 26-02-2004 17:29:59 1.2 C 61 % -5.47 C
690 26-02-2004 17:41:57 1.1 C 62 % -5.35 C
691 26-02-2004 17:53:01 1.1 C 63 % -5.14 C
692 26-02-2004 18:05:01 1.2 C 62 % -5.26 C
693 26-02-2004 18:17:01 0.7 C 67 % -4.71 C
694 26-02-2004 18:29:01 0.5 C 70 % -4.32 C
695 26-02-2004 18:41:01 0.5 C 68 % -4.71 C
696 26-02-2004 18:53:00 0.5 C 66 % -5.1 C
697 26-02-2004 19:04:59 0.6 C 63 % -5.61 C
698 26-02-2004 19:17:58 0.6 C 61 % -6.04 C
699 26-02-2004 19:29:58 0.7 C 60 % -6.16 C
700 26-02-2004 19:41:57 0.8 C 59 % -6.28 C
Sensor: Nr:Datum:Temp:Feuchte:Taupunkt:
Aussen-T/F 701 26-02-2004 19:53:01 0.8 C 58 % -6.5 C
702 26-02-2004 20:05:01 0.6 C 59 % -6.47 C
703 26-02-2004 20:17:01 0.5 C 60 % -6.35 C
704 26-02-2004 20:29:01 0.4 C 60 % -6.44 C
705 26-02-2004 20:41:01 0.2 C 61 % -6.41 C
706 26-02-2004 20:53:01 0 C 61 % -6.6 C
707 26-02-2004 21:05:01 -0.2 C 61 % -6.8 C
708 26-02-2004 21:17:01 -0.3 C 62 % -6.68 C
709 26-02-2004 21:29:01 -0.4 C 63 % -6.57 C
710 26-02-2004 21:41:01 -0.7 C 64 % -6.65 C
711 26-02-2004 21:53:00 -1 C 66 % -6.54 C
712 26-02-2004 22:05:00 -1.1 C 67 % -6.44 C
713 26-02-2004 22:17:58 -1.2 C 66 % -6.73 C
714 26-02-2004 22:29:58 -1.4 C 66 % -6.92 C
715 26-02-2004 22:41:57 -1.7 C 66 % -7.2 C
716 26-02-2004 22:53:01 -1.7 C 67 % -7.01 C
717 26-02-2004 23:05:01 -1.9 C 68 % -7.01 C
718 26-02-2004 23:17:01 -1.9 C 68 % -7.01 C
719 26-02-2004 23:29:01 -2 C 68 % -7.11 C
720 26-02-2004 23:41:01 -2.1 C 67 % -7.39 C
721 26-02-2004 23:53:00 -2.2 C 68 % -7.3 C
722 27-02-2004 00:05:59 -2.1 C 67 % -7.39 C
723 27-02-2004 00:17:58 -2.2 C 66 % -7.68 C
724 27-02-2004 00:29:58 -2.3 C 66 % -7.78 C
725 27-02-2004 00:41:57 -2.2 C 65 % -7.88 C
Sensor: Nr:Datum:Temp:Feuchte:Taupunkt:
Aussen-T/F 726 27-02-2004 00:53:01 -2.3 C 65 % -7.97 C
727 27-02-2004 01:05:01 -2.3 C 66 % -7.78 C
728 27-02-2004 01:17:01 -2.6 C 66 % -8.06 C
729 27-02-2004 01:29:01 -2.7 C 66 % -8.16 C
730 27-02-2004 01:41:00 -2.6 C 65 % -8.26 C
731 27-02-2004 01:53:01 -2.8 C 65 % -8.45 C
732 27-02-2004 02:05:01 -3.1 C 66 % -8.54 C
733 27-02-2004 02:17:01 -3.4 C 67 % -8.64 C
734 27-02-2004 02:29:01 -3.5 C 68 % -8.54 C
735 27-02-2004 02:41:01 -3.7 C 69 % -8.55 C
736 27-02-2004 02:54:01 -3.9 C 69 % -8.74 C
737 27-02-2004 03:06:01 -3.7 C 70 % -8.36 C
738 27-02-2004 03:18:00 -3.5 C 70 % -8.17 C
739 27-02-2004 03:30:00 -3.8 C 69 % -8.64 C
740 27-02-2004 03:42:01 -3.9 C 69 % -8.74 C
741 27-02-2004 03:54:01 -4.1 C 70 % -8.75 C
742 27-02-2004 04:06:00 -4 C 68 % -9.02 C
743 27-02-2004 04:18:00 -4.1 C 68 % -9.12 C
744 27-02-2004 04:30:00 -4.1 C 69 % -8.93 C
745 27-02-2004 04:42:00 -4.3 C 69 % -9.12 C
746 27-02-2004 04:54:01 -4.5 C 69 % -9.31 C
747 27-02-2004 05:06:01 -4.8 C 70 % -9.42 C
748 27-02-2004 05:18:01 -5 C 70 % -9.61 C
749 27-02-2004 05:30:01 -5.1 C 71 % -9.53 C
750 27-02-2004 05:42:01 -5.2 C 72 % -9.45 C
Sensor: Nr:Datum:Temp:Feuchte:Taupunkt:
Aussen-T/F 751 27-02-2004 05:54:01 -5.3 C 72 % -9.54 C
752 27-02-2004 06:06:01 -5.6 C 72 % -9.83 C
753 27-02-2004 06:18:01 -5.7 C 72 % -9.93 C
754 27-02-2004 06:30:01 -5.5 C 72 % -9.74 C
755 27-02-2004 06:42:01 -5.3 C 72 % -9.54 C
756 27-02-2004 06:54:00 -5.5 C 71 % -9.91 C
757 27-02-2004 07:06:00 -5.8 C 71 % -10.2 C
758 27-02-2004 07:18:59 -5.8 C 71 % -10.2 C
759 27-02-2004 07:30:57 -5.8 C 71 % -10.2 C
760 27-02-2004 07:42:57 -5.8 C 72 % -10.03 C
761 27-02-2004 07:54:01 -5.8 C 72 % -10.03 C
762 27-02-2004 08:06:01 -5.8 C 72 % -10.03 C
763 27-02-2004 08:18:01 -5.7 C 73 % -9.75 C
764 27-02-2004 08:30:01 -5.5 C 73 % -9.56 C
765 27-02-2004 08:42:01 -5.3 C 72 % -9.54 C
766 27-02-2004 08:54:00 -5.1 C 71 % -9.53 C
767 27-02-2004 09:06:59 -5 C 70 % -9.61 C
768 27-02-2004 09:18:58 -4.5 C 68 % -9.5 C
769 27-02-2004 09:30:57 -4 C 67 % -9.21 C
770 27-02-2004 09:42:57 -3.7 C 66 % -9.11 C
771 27-02-2004 09:54:01 -3.4 C 65 % -9.02 C
772 27-02-2004 10:06:01 -3 C 64 % -8.84 C
773 27-02-2004 10:18:01 -2.5 C 64 % -8.36 C
774 27-02-2004 10:30:01 -2.1 C 63 % -8.19 C
775 27-02-2004 10:42:00 -1.6 C 61 % -8.13 C
Sensor: Nr:Datum:Temp:Feuchte:Taupunkt:
Aussen-T/F 776 27-02-2004 10:54:01 -1.2 C 59 % -8.18 C
777 27-02-2004 11:06:01 -0.8 C 57 % -8.24 C
778 27-02-2004 11:18:01 -0.6 C 56 % -8.28 C
779 27-02-2004 11:30:01 -0.4 C 56 % -8.09 C
780 27-02-2004 11:42:01 0 C 57 % -7.48 C
781 27-02-2004 11:54:00 0.1 C 55 % -7.85 C
782 27-02-2004 12:06:00 0.4 C 50 % -8.79 C
783 27-02-2004 12:18:58 0.5 C 48 % -9.21 C
784 27-02-2004 12:30:57 0.4 C 47 % -9.57 C
785 27-02-2004 12:42:57 1.2 C 45 % -9.39 C
786 27-02-2004 12:54:01 1.8 C 43 % -9.42 C
787 27-02-2004 13:06:01 2.2 C 39 % -10.29 C
788 27-02-2004 13:18:01 2.3 C 41 % -9.57 C
789 27-02-2004 13:30:01 2.1 C 41 % -9.75 C
790 27-02-2004 13:42:01 2.7 C 42 % -8.9 C
791 27-02-2004 13:54:01 3 C 37 % -10.24 C
792 27-02-2004 14:06:01 3.1 C 37 % -10.15 C
793 27-02-2004 14:18:01 2.6 C 40 % -9.61 C
794 27-02-2004 14:30:01 2.5 C 39 % -10.02 C
795 27-02-2004 14:42:01 2.4 C 39 % -10.11 C
796 27-02-2004 14:54:00 2.6 C 40 % -9.61 C
797 27-02-2004 15:06:00 3.1 C 38 % -9.81 C
798 27-02-2004 15:18:59 2.7 C 38 % -10.17 C
799 27-02-2004 15:30:57 2.3 C 39 % -10.2 C
800 27-02-2004 15:42:57 2 C 41 % -9.84 C
Sensor: Nr:Datum:Temp:Feuchte:Taupunkt:
Aussen-T/F 801 27-02-2004 15:54:01 1.6 C 46 % -8.75 C
802 27-02-2004 16:06:01 1.4 C 50 % -7.86 C
803 27-02-2004 16:18:01 1 C 56 % -6.77 C
804 27-02-2004 16:30:01 1.1 C 56 % -6.68 C
805 27-02-2004 16:42:01 1 C 58 % -6.32 C
806 27-02-2004 16:54:00 0.5 C 59 % -6.56 C
807 27-02-2004 17:06:00 0.6 C 60 % -6.25 C
808 27-02-2004 17:18:59 0.7 C 60 % -6.16 C
809 27-02-2004 17:30:58 0.7 C 58 % -6.6 C
810 27-02-2004 17:42:58 0.8 C 58 % -6.5 C
811 27-02-2004 17:54:01 0.9 C 58 % -6.41 C
812 27-02-2004 18:06:01 0.7 C 57 % -6.82 C
813 27-02-2004 18:18:01 0.6 C 57 % -6.92 C
814 27-02-2004 18:30:01 0.5 C 57 % -7.01 C
815 27-02-2004 18:42:01 0.4 C 59 % -6.66 C
816 27-02-2004 18:54:00 0.1 C 60 % -6.72 C
817 27-02-2004 19:06:00 -0.3 C 60 % -7.11 C
818 27-02-2004 19:18:59 -0.6 C 62 % -6.97 C
819 27-02-2004 19:30:57 -0.9 C 63 % -7.05 C
820 27-02-2004 19:42:57 -0.9 C 62 % -7.25 C
821 27-02-2004 19:54:01 -1.1 C 61 % -7.65 C
822 27-02-2004 20:06:01 -1.1 C 61 % -7.65 C
823 27-02-2004 20:18:01 -1.1 C 60 % -7.87 C
824 27-02-2004 20:30:01 -1.1 C 58 % -8.3 C
825 27-02-2004 20:42:01 -0.8 C 55 % -8.7 C
Sensor: Nr:Datum:Temp:Feuchte:Taupunkt:
Aussen-T/F 826 27-02-2004 20:54:00 -0.5 C 52 % -9.14 C
827 27-02-2004 21:06:00 -0.7 C 51 % -9.57 C
828 27-02-2004 21:18:59 -0.8 C 51 % -9.66 C
829 27-02-2004 21:30:58 -0.9 C 51 % -9.75 C
830 27-02-2004 21:42:58 -1.2 C 52 % -9.79 C
831 27-02-2004 21:54:01 -1.6 C 55 % -9.45 C
832 27-02-2004 22:06:00 -1.7 C 56 % -9.31 C
833 27-02-2004 22:18:00 -1.9 C 57 % -9.28 C
834 27-02-2004 22:30:00 -1.8 C 59 % -8.74 C
835 27-02-2004 22:42:00 -1.5 C 58 % -8.68 C
836 27-02-2004 22:54:01 -1.4 C 58 % -8.58 C
837 27-02-2004 23:06:01 -1.1 C 58 % -8.3 C
838 27-02-2004 23:18:01 -1.1 C 60 % -7.87 C
839 27-02-2004 23:30:01 -1 C 59 % -7.99 C
840 27-02-2004 23:42:00 -1.1 C 60 % -7.87 C
841 27-02-2004 23:54:01 -1.4 C 60 % -8.15 C
842 28-02-2004 00:06:01 -1.5 C 61 % -8.03 C
843 28-02-2004 00:18:01 -1.4 C 60 % -8.15 C
844 28-02-2004 00:30:01 -1.4 C 60 % -8.15 C
845 28-02-2004 00:42:01 -1.4 C 60 % -8.15 C
846 28-02-2004 00:54:00 -1.4 C 60 % -8.15 C
847 28-02-2004 01:06:00 -1.3 C 59 % -8.27 C
848 28-02-2004 01:18:58 -1.2 C 56 % -8.84 C
849 28-02-2004 01:30:57 -1.4 C 57 % -8.81 C
850 28-02-2004 01:42:57 -1.6 C 57 % -8.99 C
Sensor: Nr:Datum:Temp:Feuchte:Taupunkt:
Aussen-T/F 851 28-02-2004 01:54:01 -1.7 C 56 % -9.31 C
852 28-02-2004 02:06:01 -2 C 57 % -9.37 C
853 28-02-2004 02:18:01 -2.4 C 59 % -9.31 C
854 28-02-2004 02:30:01 -2.5 C 58 % -9.62 C
855 28-02-2004 02:42:01 -2.7 C 58 % -9.81 C
856 28-02-2004 02:55:03 -2.9 C 60 % -9.57 C
857 28-02-2004 03:07:03 -2.8 C 59 % -9.68 C
858 28-02-2004 03:19:03 -2.6 C 60 % -9.28 C
859 28-02-2004 03:31:00 -2.6 C 60 % -9.28 C
860 28-02-2004 03:43:00 -2.7 C 61 % -9.17 C
861 28-02-2004 03:55:00 -2.7 C 62 % -8.96 C
862 28-02-2004 04:07:00 -2.7 C 62 % -8.96 C
863 28-02-2004 04:19:59 -2.7 C 61 % -9.17 C
864 28-02-2004 04:31:58 -2.8 C 62 % -9.05 C
865 28-02-2004 04:43:58 -2.8 C 61 % -9.26 C
866 28-02-2004 04:55:01 -2.7 C 59 % -9.59 C
867 28-02-2004 05:07:01 -2.7 C 59 % -9.59 C
868 28-02-2004 05:19:00 -2.8 C 60 % -9.47 C
869 28-02-2004 05:31:00 -2.5 C 59 % -9.4 C
870 28-02-2004 05:43:00 -2.5 C 59 % -9.4 C
871 28-02-2004 05:55:01 -2.6 C 60 % -9.28 C
872 28-02-2004 06:07:01 -2.1 C 59 % -9.02 C
873 28-02-2004 06:19:01 -2.1 C 59 % -9.02 C
874 28-02-2004 06:31:01 -2.2 C 59 % -9.12 C
875 28-02-2004 06:43:01 -2.1 C 60 % -8.81 C
Sensor: Nr:Datum:Temp:Feuchte:Taupunkt:
Aussen-T/F 876 28-02-2004 06:55:00 -2.1 C 60 % -8.81 C
877 28-02-2004 07:07:59 -2 C 61 % -8.5 C
878 28-02-2004 07:19:58 -1.9 C 61 % -8.41 C
879 28-02-2004 07:31:57 -1.8 C 62 % -8.11 C
880 28-02-2004 07:43:57 -1.8 C 62 % -8.11 C
881 28-02-2004 07:55:01 -1.8 C 63 % -7.9 C
882 28-02-2004 08:07:01 -1.9 C 64 % -7.79 C
883 28-02-2004 08:19:01 -1.9 C 66 % -7.4 C
884 28-02-2004 08:31:01 -1.8 C 67 % -7.11 C
885 28-02-2004 08:43:01 -1.8 C 67 % -7.11 C
886 28-02-2004 08:55:03 -1.7 C 66 % -7.2 C
887 28-02-2004 09:07:01 -1.6 C 66 % -7.11 C
888 28-02-2004 09:19:01 -1.2 C 66 % -6.73 C
889 28-02-2004 09:31:01 -1 C 65 % -6.74 C
890 28-02-2004 09:43:01 -0.9 C 65 % -6.64 C
891 28-02-2004 09:55:00 -0.4 C 64 % -6.37 C
892 28-02-2004 10:07:00 0 C 62 % -6.39 C
893 28-02-2004 10:19:59 0.1 C 61 % -6.51 C
894 28-02-2004 10:31:58 0.2 C 60 % -6.63 C
895 28-02-2004 10:43:58 0.7 C 58 % -6.6 C
896 28-02-2004 10:55:01 1 C 55 % -7.01 C
897 28-02-2004 11:07:01 0.8 C 59 % -6.28 C
898 28-02-2004 11:19:01 1.2 C 59 % -5.91 C
899 28-02-2004 11:31:01 0.7 C 60 % -6.16 C
900 28-02-2004 11:43:01 0.7 C 60 % -6.16 C
Sensor: Nr:Datum:Temp:Feuchte:Taupunkt:
Aussen-T/F 901 28-02-2004 11:55:00 1.3 C 58 % -6.03 C
902 28-02-2004 12:07:00 2.1 C 56 % -5.74 C
903 28-02-2004 12:19:58 2.3 C 53 % -6.28 C
904 28-02-2004 12:31:57 2.9 C 51 % -6.22 C
905 28-02-2004 12:43:57 2.6 C 50 % -6.75 C
906 28-02-2004 12:55:01 2.9 C 50 % -6.48 C
907 28-02-2004 13:07:01 3.6 C 48 % -6.36 C
908 28-02-2004 13:19:01 4.7 C 44 % -6.49 C
909 28-02-2004 13:31:01 3.8 C 43 % -7.61 C
910 28-02-2004 13:43:01 3.5 C 45 % -7.29 C
911 28-02-2004 13:55:00 5.1 C 41 % -7.04 C
912 28-02-2004 14:07:00 5.4 C 37 % -8.1 C
913 28-02-2004 14:19:58 4.3 C 40 % -8.08 C
914 28-02-2004 14:31:57 5 C 39 % -7.78 C
915 28-02-2004 14:43:57 6 C 35 % -8.27 C
916 28-02-2004 14:55:02 6.8 C 33 % -8.32 C
917 28-02-2004 15:07:01 7.3 C 31 % -8.68 C
918 28-02-2004 15:19:02 6.9 C 31 % -9.03 C
919 28-02-2004 15:31:03 4.9 C 32 % -10.38 C
920 28-02-2004 15:43:03 5 C 33 % -9.91 C
921 28-02-2004 15:55:00 6.1 C 33 % -8.94 C
922 28-02-2004 16:07:00 6.9 C 31 % -9.03 C
923 28-02-2004 16:19:59 6.7 C 29 % -10.05 C
924 28-02-2004 16:31:58 6.8 C 31 % -9.12 C
925 28-02-2004 16:43:58 6.2 C 31 % -9.64 C
Sensor: Nr:Datum:Temp:Feuchte:Taupunkt:
Aussen-T/F 926 28-02-2004 16:55:02 6.2 C 31 % -9.64 C
927 28-02-2004 17:07:01 5.9 C 31 % -9.91 C
928 28-02-2004 17:19:01 5.3 C 30 % -10.84 C
929 28-02-2004 17:31:01 4.6 C 32 % -10.64 C
930 28-02-2004 17:43:01 3.6 C 36 % -10.05 C
931 28-02-2004 17:55:00 2.6 C 40 % -9.61 C
932 28-02-2004 18:07:00 2.1 C 45 % -8.57 C
933 28-02-2004 18:19:59 1.5 C 48 % -8.29 C
934 28-02-2004 18:31:58 1 C 48 % -8.75 C
935 28-02-2004 18:43:58 0.7 C 50 % -8.51 C
936 28-02-2004 18:55:01 0.4 C 51 % -8.53 C
937 28-02-2004 19:07:01 0.2 C 53 % -8.23 C
938 28-02-2004 19:19:01 0 C 54 % -8.18 C
939 28-02-2004 19:36:01 -0.3 C 55 % -8.23 C
940 28-02-2004 19:48:01 -0.4 C 56 % -8.09 C
941 28-02-2004 20:00:01 -0.6 C 56 % -8.28 C
942 28-02-2004 20:12:00 -0.7 C 57 % -8.15 C
943 28-02-2004 20:24:59 -1 C 56 % -8.66 C
944 28-02-2004 20:36:58 -1.1 C 57 % -8.52 C
945 28-02-2004 20:48:01 -1.3 C 57 % -8.71 C
946 28-02-2004 21:00:01 -1.4 C 57 % -8.81 C
947 28-02-2004 21:12:01 -1.6 C 58 % -8.77 C
948 28-02-2004 21:24:01 -1.8 C 58 % -8.96 C
949 28-02-2004 21:36:01 -2 C 59 % -8.93 C
950 28-02-2004 21:48:00 -2.1 C 61 % -8.6 C
Sensor: Nr:Datum:Temp:Feuchte:Taupunkt:
Aussen-T/F 951 28-02-2004 22:00:00 -2.2 C 60 % -8.9 C
952 28-02-2004 22:12:00 -2.3 C 59 % -9.21 C
953 28-02-2004 22:24:58 -2.5 C 59 % -9.4 C
954 28-02-2004 22:36:57 -2.6 C 59 % -9.5 C
955 28-02-2004 22:48:01 -2.8 C 60 % -9.47 C
956 28-02-2004 23:00:01 -2.9 C 61 % -9.36 C
957 28-02-2004 23:12:01 -3 C 61 % -9.45 C
958 28-02-2004 23:24:01 -3.2 C 63 % -9.23 C
959 28-02-2004 23:36:01 -3.4 C 62 % -9.62 C
960 29-02-2004 00:00:00 -3.4 C 64 % -9.22 C
961 29-02-2004 00:11:59 -3.7 C 63 % -9.71 C
962 29-02-2004 00:24:58 -3.9 C 63 % -9.9 C
963 29-02-2004 00:36:57 -3.9 C 64 % -9.7 C
964 29-02-2004 00:48:36 -3.9 C 64 % -9.7 C
965 29-02-2004 01:00:39 -4 C 64 % -9.79 C
966 29-02-2004 01:12:39 -4.1 C 64 % -9.89 C
967 29-02-2004 01:24:34 -4.1 C 65 % -9.69 C
968 29-02-2004 01:36:37 -3.9 C 65 % -9.5 C
969 29-02-2004 01:48:30 -4.2 C 65 % -9.79 C
970 29-02-2004 02:00:33 -4.2 C 65 % -9.79 C
971 29-02-2004 02:12:28 -4.3 C 65 % -9.88 C
972 29-02-2004 02:24:31 -4.6 C 65 % -10.17 C
973 29-02-2004 02:36:31 -4.8 C 66 % -10.16 C
974 29-02-2004 02:58:04 -4.8 C 68 % -9.79 C
975 29-02-2004 03:11:05 -4.9 C 68 % -9.88 C
Sensor: Nr:Datum:Temp:Feuchte:Taupunkt:
Aussen-T/F 976 29-02-2004 03:23:05 -4.9 C 68 % -9.88 C
977 29-02-2004 03:37:04 -5 C 68 % -9.98 C
978 29-02-2004 03:49:04 -5 C 69 % -9.79 C
979 29-02-2004 04:02:04 -5.1 C 69 % -9.89 C
980 29-02-2004 04:14:04 -5.4 C 69 % -10.18 C
981 29-02-2004 04:27:04 -5.6 C 69 % -10.37 C
982 29-02-2004 04:40:04 -5.5 C 70 % -10.09 C
983 29-02-2004 04:53:04 -5.6 C 70 % -10.19 C
984 29-02-2004 05:01:15 -5.7 C 71 % -10.11 C
985 29-02-2004 05:06:05 -5.7 C 70 % -10.29 C
986 29-02-2004 05:13:18 -5.3 C 72 % -9.54 C
987 29-02-2004 05:25:12 -4.8 C 71 % -9.24 C
988 29-02-2004 05:37:12 -4.6 C 69 % -9.41 C
989 29-02-2004 05:49:15 -4.7 C 68 % -9.69 C
990 29-02-2004 06:01:09 -4.6 C 68 % -9.6 C
991 29-02-2004 06:13:12 -4.4 C 68 % -9.4 C
992 29-02-2004 06:25:53 -4.1 C 68 % -9.12 C
993 29-02-2004 06:37:07 -3.9 C 67 % -9.11 C
994 29-02-2004 06:49:07 -4 C 67 % -9.21 C
995 29-02-2004 07:01:32 -3.9 C 67 % -9.11 C
996 29-02-2004 07:13:46 -4.1 C 67 % -9.31 C
997 29-02-2004 07:25:11 -4 C 68 % -9.02 C
998 29-02-2004 07:37:11 -4.3 C 68 % -9.31 C
999 29-02-2004 07:49:25 -4.6 C 69 % -9.41 C
1000 29-02-2004 08:01:49 -4.7 C 69 % -9.51 C
Sensor: Nr:Datum:Temp:Feuchte:Taupunkt:
Aussen-T/F 1001 29-02-2004 08:13:49 -4.8 C 70 % -9.42 C
1002 29-02-2004 08:25:03 -4.8 C 70 % -9.42 C
1003 29-02-2004 08:37:28 -4.7 C 70 % -9.32 C
1004 29-02-2004 08:49:42 -4.6 C 71 % -9.05 C
1005 29-02-2004 09:01:42 -4.4 C 71 % -8.85 C
1006 29-02-2004 09:13:06 -3.8 C 70 % -8.46 C
1007 29-02-2004 09:25:21 -3.4 C 69 % -8.26 C
1008 29-02-2004 09:37:45 -3.3 C 68 % -8.35 C
1009 29-02-2004 09:49:45 -3 C 69 % -7.88 C
1010 29-02-2004 10:01:59 -2.5 C 68 % -7.58 C
1011 29-02-2004 10:13:23 -2.2 C 63 % -8.28 C
1012 29-02-2004 10:25:37 -2 C 65 % -7.69 C
1013 29-02-2004 10:37:37 -1.6 C 64 % -7.51 C
1014 29-02-2004 10:49:02 -1.1 C 64 % -7.03 C
1015 29-02-2004 11:01:16 -0.6 C 62 % -6.97 C
1016 29-02-2004 11:13:41 0.2 C 58 % -7.07 C
1017 29-02-2004 11:25:41 0.8 C 56 % -6.96 C
1018 29-02-2004 11:37:00 1.3 C 54 % -6.96 C
1019 29-02-2004 11:49:02 0.9 C 53 % -7.58 C
1020 29-02-2004 12:01:01 0.9 C 53 % -7.58 C
1021 29-02-2004 12:13:01 0.6 C 53 % -7.86 C
1022 29-02-2004 12:25:01 0.6 C 53 % -7.86 C
1023 29-02-2004 12:37:02 0.8 C 52 % -7.92 C
1024 29-02-2004 12:49:00 1.4 C 51 % -7.61 C
1025 29-02-2004 13:01:00 1.9 C 50 % -7.4 C
Sensor: Nr:Datum:Temp:Feuchte:Taupunkt:
Aussen-T/F 1026 29-02-2004 13:13:00 2.2 C 48 % -7.65 C
1027 29-02-2004 13:25:59 3.2 C 46 % -7.28 C
1028 29-02-2004 13:37:58 3.8 C 42 % -7.91 C
1029 29-02-2004 13:49:01 3.8 C 42 % -7.91 C
1030 29-02-2004 14:01:01 4.2 C 38 % -8.83 C
1031 29-02-2004 14:13:01 3.5 C 39 % -9.12 C
1032 29-02-2004 14:25:01 3.3 C 41 % -8.67 C
1033 29-02-2004 14:37:01 3.2 C 43 % -8.15 C
1034 29-02-2004 14:49:00 3.9 C 39 % -8.77 C
1035 29-02-2004 15:01:00 4.6 C 36 % -9.16 C
1036 29-02-2004 15:13:00 5.2 C 35 % -8.98 C
1037 29-02-2004 15:25:58 4.7 C 35 % -9.43 C
1038 29-02-2004 15:37:57 5.5 C 34 % -9.09 C
1039 29-02-2004 15:49:01 4.6 C 35 % -9.52 C
1040 29-02-2004 16:01:01 5.2 C 34 % -9.35 C
1041 29-02-2004 16:13:01 4.5 C 35 % -9.6 C
1042 29-02-2004 16:25:01 4.7 C 35 % -9.43 C
1043 29-02-2004 16:37:01 5.2 C 35 % -8.98 C
1044 29-02-2004 16:49:00 5.2 C 32 % -10.12 C
1045 29-02-2004 17:01:00 5.2 C 32 % -10.12 C
1046 29-02-2004 17:13:00 5.5 C 34 % -9.09 C
1047 29-02-2004 17:25:58 4.7 C 41 % -7.4 C
1048 29-02-2004 17:37:57 3.4 C 48 % -6.55 C
1049 29-02-2004 17:49:03 3.2 C 50 % -6.2 C
1050 29-02-2004 18:01:01 2.5 C 50 % -6.85 C
Sensor: Nr:Datum:Temp:Feuchte:Taupunkt:
Aussen-T/F 1051 29-02-2004 18:13:01 2.2 C 48 % -7.65 C
1052 29-02-2004 18:25:01 1.8 C 50 % -7.49 C
1053 29-02-2004 18:37:01 1.5 C 52 % -7.27 C
1054 29-02-2004 18:49:00 1.1 C 54 % -7.15 C
1055 29-02-2004 19:01:59 0.8 C 56 % -6.96 C
1056 29-02-2004 19:13:59 0.6 C 56 % -7.15 C
1057 29-02-2004 19:25:58 0.3 C 59 % -6.75 C
1058 29-02-2004 19:37:57 0.1 C 60 % -6.72 C
1059 29-02-2004 19:49:01 0.3 C 60 % -6.53 C
1060 29-02-2004 20:01:01 0.2 C 60 % -6.63 C
1061 29-02-2004 20:13:01 0.1 C 61 % -6.51 C
1062 29-02-2004 20:25:01 -0.1 C 61 % -6.71 C
1063 29-02-2004 20:37:00 -0.3 C 62 % -6.68 C
1064 29-02-2004 20:49:01 -0.4 C 63 % -6.57 C
1065 29-02-2004 21:01:01 -0.6 C 65 % -6.35 C
1066 29-02-2004 21:13:01 -0.8 C 66 % -6.35 C
1067 29-02-2004 21:25:01 -0.9 C 66 % -6.44 C
1068 29-02-2004 21:37:01 -1 C 66 % -6.54 C
1069 29-02-2004 21:49:01 -1.1 C 66 % -6.63 C
1070 29-02-2004 22:01:00 -1.2 C 66 % -6.73 C
1071 29-02-2004 22:13:00 -1.2 C 66 % -6.73 C
1072 29-02-2004 22:25:58 -1.4 C 66 % -6.92 C
1073 29-02-2004 22:37:57 -1.5 C 66 % -7.01 C
1074 29-02-2004 22:49:01 -1.6 C 66 % -7.11 C
1075 29-02-2004 23:01:01 -1.6 C 65 % -7.31 C
Sensor: Nr:Datum:Temp:Feuchte:Taupunkt:
Aussen-T/F 1076 29-02-2004 23:13:01 -1.7 C 65 % -7.4 C
1077 29-02-2004 23:25:01 -1.7 C 65 % -7.4 C
1078 29-02-2004 23:37:01 -1.7 C 65 % -7.4 C
1079 29-02-2004 23:49:01 -1.8 C 65 % -7.5 C
1080 01-03-2004 00:01:00 -1.8 C 65 % -7.5 C
1081 01-03-2004 00:13:01 -1.8 C 64 % -7.7 C
1082 01-03-2004 00:25:00 -1.7 C 63 % -7.81 C
1083 01-03-2004 00:37:00 -1.8 C 64 % -7.7 C
1084 01-03-2004 00:49:00 -1.9 C 64 % -7.79 C
1085 01-03-2004 01:01:00 -2 C 64 % -7.89 C
1086 01-03-2004 01:13:00 -2 C 64 % -7.89 C
1087 01-03-2004 01:25:01 -2.2 C 63 % -8.28 C
1088 01-03-2004 01:37:01 -2.3 C 62 % -8.58 C
1089 01-03-2004 01:49:00 -2.3 C 61 % -8.79 C
1090 01-03-2004 02:01:00 -2.3 C 61 % -8.79 C
1091 01-03-2004 02:13:00 -2.6 C 62 % -8.86 C
1092 01-03-2004 02:25:00 -2.6 C 63 % -8.66 C
1093 01-03-2004 02:37:00 -2.8 C 63 % -8.85 C
1094 01-03-2004 02:50:03 -2.8 C 63 % -8.85 C
1095 01-03-2004 03:02:03 -3 C 64 % -8.84 C
1096 01-03-2004 03:14:03 -3.3 C 64 % -9.12 C
1097 01-03-2004 03:26:03 -3.3 C 65 % -8.93 C
1098 01-03-2004 03:37:59 -3.4 C 65 % -9.02 C
1099 01-03-2004 03:49:59 -3.4 C 65 % -9.02 C
1100 01-03-2004 04:02:59 -3.1 C 65 % -8.74 C
Sensor: Nr:Datum:Temp:Feuchte:Taupunkt:
Aussen-T/F 1101 01-03-2004 04:14:58 -3 C 64 % -8.84 C
1102 01-03-2004 04:26:58 -2.9 C 65 % -8.55 C
1103 01-03-2004 04:38:57 -2.9 C 65 % -8.55 C
1104 01-03-2004 04:50:01 -2.9 C 66 % -8.35 C
1105 01-03-2004 05:02:01 -3.2 C 66 % -8.64 C
1106 01-03-2004 05:14:01 -3.4 C 69 % -8.26 C
1107 01-03-2004 05:26:01 -3.5 C 69 % -8.36 C
1108 01-03-2004 05:38:00 -3.8 C 71 % -8.28 C
1109 01-03-2004 05:50:01 -3.8 C 72 % -8.1 C
1110 01-03-2004 06:02:01 -3.8 C 72 % -8.1 C
1111 01-03-2004 06:14:01 -3.9 C 72 % -8.19 C
1112 01-03-2004 06:26:01 -4 C 72 % -8.29 C
1113 01-03-2004 06:38:01 -4.1 C 73 % -8.21 C
1114 01-03-2004 06:50:00 -4.1 C 73 % -8.21 C
1115 01-03-2004 07:02:00 -4.4 C 72 % -8.68 C
1116 01-03-2004 07:14:00 -4.4 C 73 % -8.5 C
1117 01-03-2004 07:26:59 -4.2 C 73 % -8.31 C
1118 01-03-2004 07:38:58 -4.3 C 73 % -8.4 C
1119 01-03-2004 07:50:01 -4.2 C 73 % -8.31 C
1120 01-03-2004 08:02:00 -4.2 C 73 % -8.31 C
1121 01-03-2004 08:14:00 -4.1 C 73 % -8.21 C
1122 01-03-2004 08:26:01 -4.3 C 73 % -8.4 C
1123 01-03-2004 08:38:01 -4.2 C 73 % -8.31 C
1124 01-03-2004 08:50:01 -4.2 C 73 % -8.31 C
1125 01-03-2004 09:02:00 -3.9 C 72 % -8.19 C
Sensor: Nr:Datum:Temp:Feuchte:Taupunkt:
Aussen-T/F 1126 01-03-2004 09:14:00 -3.8 C 71 % -8.28 C
1127 01-03-2004 09:26:59 -3.5 C 71 % -7.99 C
1128 01-03-2004 09:38:58 -3.2 C 70 % -7.88 C
1129 01-03-2004 09:50:01 -2.8 C 69 % -7.68 C
1130 01-03-2004 10:02:01 -2.3 C 68 % -7.39 C
1131 01-03-2004 10:14:01 -1.9 C 65 % -7.59 C
1132 01-03-2004 10:26:01 -1.3 C 63 % -7.43 C
1133 01-03-2004 10:38:01 -0.9 C 61 % -7.46 C
1134 01-03-2004 10:50:00 -0.3 C 58 % -7.55 C
1135 01-03-2004 11:02:00 0.2 C 54 % -7.99 C
1136 01-03-2004 11:14:00 0.5 C 52 % -8.19 C
1137 01-03-2004 11:26:58 1.6 C 45 % -9.03 C
1138 01-03-2004 11:38:57 1.4 C 45 % -9.21 C
1139 01-03-2004 11:50:01 1.4 C 45 % -9.21 C
1140 01-03-2004 12:02:01 2.2 C 43 % -9.06 C
1141 01-03-2004 12:14:01 2 C 40 % -10.15 C
1142 01-03-2004 12:26:01 2.2 C 41 % -9.66 C
1143 01-03-2004 12:38:01 3 C 39 % -9.57 C
1144 01-03-2004 12:50:01 3.3 C 38 % -9.63 C
1145 01-03-2004 13:02:01 2.3 C 39 % -10.2 C
1146 01-03-2004 13:14:01 2.9 C 40 % -9.34 C
1147 01-03-2004 13:26:01 3 C 35 % -10.93 C
1148 01-03-2004 13:38:01 3.1 C 36 % -10.49 C
1149 01-03-2004 13:50:00 4.3 C 34 % -10.15 C
1150 01-03-2004 14:02:00 4.4 C 32 % -10.82 C
Sensor: Nr:Datum:Temp:Feuchte:Taupunkt:
Aussen-T/F 1151 01-03-2004 14:14:00 3.7 C 35 % -10.31 C
1152 01-03-2004 14:26:59 4 C 33 % -10.79 C
1153 01-03-2004 14:38:57 4.7 C 33 % -10.17 C
1154 01-03-2004 14:50:01 4 C 32 % -11.17 C
1155 01-03-2004 15:02:01 3.8 C 35 % -10.23 C
1156 01-03-2004 15:14:01 4.4 C 34 % -10.06 C
1157 01-03-2004 15:26:01 4.3 C 33 % -10.52 C
1158 01-03-2004 15:38:01 4.8 C 31 % -10.87 C
1159 01-03-2004 15:50:00 4.9 C 30 % -11.19 C
1160 01-03-2004 16:14:00 5.2 C 28 % -11.79 C
1161 01-03-2004 16:14:58 5.1 C 28 % -11.87 C
1162 01-03-2004 16:26:58 5.9 C 28 % -11.18 C
1163 01-03-2004 16:38:57 4.9 C 30 % -11.19 C
1164 01-03-2004 16:50:01 5.1 C 30 % -11.02 C
1165 01-03-2004 17:02:01 4.8 C 32 % -10.47 C
1166 01-03-2004 17:14:01 4.2 C 34 % -10.24 C
1167 01-03-2004 17:26:01 4 C 34 % -10.41 C
1168 01-03-2004 17:38:01 3.5 C 36 % -10.14 C
1169 01-03-2004 17:50:01 2.7 C 39 % -9.84 C
1170 01-03-2004 18:02:00 2.2 C 41 % -9.66 C
1171 01-03-2004 18:14:00 1.8 C 44 % -9.13 C
1172 01-03-2004 18:26:59 1.6 C 45 % -9.03 C
1173 01-03-2004 18:38:58 1.3 C 46 % -9.02 C
1174 01-03-2004 18:50:01 1.1 C 47 % -8.93 C
1175 01-03-2004 19:02:01 1 C 48 % -8.75 C
Sensor: Nr:Datum:Temp:Feuchte:Taupunkt:
Aussen-T/F 1176 01-03-2004 19:14:01 1 C 48 % -8.75 C
1177 01-03-2004 19:26:01 1 C 49 % -8.49 C
1178 01-03-2004 19:38:01 0.8 C 50 % -8.42 C
1179 01-03-2004 19:50:01 0.7 C 51 % -8.26 C
1180 01-03-2004 20:13:59 0.6 C 51 % -8.35 C
1181 01-03-2004 20:14:58 0.6 C 52 % -8.1 C
1182 01-03-2004 20:26:58 0.6 C 53 % -7.86 C
1183 01-03-2004 20:38:57 0.6 C 53 % -7.86 C
1184 01-03-2004 20:50:01 0.8 C 52 % -7.92 C
1185 01-03-2004 21:02:01 1 C 51 % -7.98 C
1186 01-03-2004 21:14:01 1 C 51 % -7.98 C
1187 01-03-2004 21:26:01 1.1 C 51 % -7.89 C
1188 01-03-2004 21:38:01 1.1 C 51 % -7.89 C
1189 01-03-2004 21:50:00 1.1 C 52 % -7.64 C
1190 01-03-2004 22:02:00 1 C 52 % -7.73 C
1191 01-03-2004 22:14:00 1 C 53 % -7.48 C
1192 01-03-2004 22:26:58 0.9 C 55 % -7.1 C
1193 01-03-2004 22:38:57 1 C 54 % -7.24 C
1194 01-03-2004 22:50:01 1 C 56 % -6.77 C
1195 01-03-2004 23:02:01 1 C 55 % -7.01 C
1196 01-03-2004 23:14:01 1 C 57 % -6.54 C
1197 01-03-2004 23:26:01 1 C 60 % -5.87 C
1198 01-03-2004 23:38:01 0.7 C 63 % -5.52 C
1199 01-03-2004 23:50:00 0.6 C 66 % -5 C
1200 02-03-2004 00:02:59 0.5 C 65 % -5.3 C
Sensor: Nr:Datum:Temp:Feuchte:Taupunkt:
Aussen-T/F 1201 02-03-2004 00:14:58 0.5 C 66 % -5.1 C
1202 02-03-2004 00:26:58 0.4 C 67 % -5 C
1203 02-03-2004 00:38:57 0.4 C 67 % -5 C
1204 02-03-2004 00:50:01 0.4 C 67 % -5 C
1205 02-03-2004 01:02:01 0.3 C 67 % -5.09 C
1206 02-03-2004 01:14:01 0.3 C 67 % -5.09 C
1207 02-03-2004 01:26:01 0.2 C 67 % -5.19 C
1208 02-03-2004 01:38:01 0.2 C 68 % -4.99 C
1209 02-03-2004 01:50:01 0.2 C 67 % -5.19 C
1210 02-03-2004 02:02:01 0.2 C 67 % -5.19 C
1211 02-03-2004 02:14:01 0.3 C 67 % -5.09 C
1212 02-03-2004 02:26:01 0.4 C 67 % -5 C
1213 02-03-2004 02:38:01 0.5 C 66 % -5.1 C
1214 02-03-2004 02:51:01 0.5 C 66 % -5.1 C
1215 02-03-2004 03:03:01 0.6 C 66 % -5 C
1216 02-03-2004 03:15:59 0.7 C 66 % -4.91 C
1217 02-03-2004 03:26:59 0.7 C 66 % -4.91 C
1218 02-03-2004 03:39:01 0.7 C 66 % -4.91 C
1219 02-03-2004 03:51:01 0.8 C 66 % -4.81 C
1220 02-03-2004 04:03:01 0.8 C 66 % -4.81 C
1221 02-03-2004 04:15:01 1 C 65 % -4.82 C
1222 02-03-2004 04:27:01 0.9 C 67 % -4.52 C
1223 02-03-2004 04:39:01 1.1 C 67 % -4.33 C
1224 02-03-2004 04:51:00 1.5 C 70 % -3.36 C
1225 02-03-2004 05:03:59 1.8 C 70 % -3.07 C
Sensor: Nr:Datum:Temp:Feuchte:Taupunkt:
Aussen-T/F 1226 02-03-2004 05:15:58 1.8 C 72 % -2.7 C
1227 02-03-2004 05:27:58 1.8 C 74 % -2.33 C
1228 02-03-2004 05:39:57 1.8 C 74 % -2.33 C
1229 02-03-2004 05:51:01 1.9 C 76 % -1.87 C
1230 02-03-2004 06:03:01 1.8 C 77 % -1.79 C
1231 02-03-2004 06:15:01 1.7 C 78 % -1.71 C
1232 02-03-2004 06:27:01 1.7 C 78 % -1.71 C
1233 02-03-2004 06:39:00 1.7 C 78 % -1.71 C
1234 02-03-2004 06:51:01 1.8 C 78 % -1.62 C
1235 02-03-2004 07:03:01 1.8 C 79 % -1.44 C
1236 02-03-2004 07:15:01 1.8 C 79 % -1.44 C
1237 02-03-2004 07:27:01 1.9 C 79 % -1.35 C
1238 02-03-2004 07:39:01 2 C 78 % -1.42 C
1239 02-03-2004 07:51:00 2 C 78 % -1.42 C
1240 02-03-2004 08:03:00 2.2 C 78 % -1.23 C
1241 02-03-2004 08:15:58 2.1 C 79 % -1.15 C
1242 02-03-2004 08:27:58 2.1 C 79 % -1.15 C
1243 02-03-2004 08:39:57 2.1 C 80 % -0.98 C
1244 02-03-2004 08:51:01 2.1 C 81 % -0.81 C
1245 02-03-2004 09:03:01 2.2 C 81 % -0.71 C
1246 02-03-2004 09:15:01 2.3 C 80 % -0.79 C
1247 02-03-2004 09:27:01 2.4 C 79 % -0.86 C
1248 02-03-2004 09:39:01 2.6 C 79 % -0.67 C
1249 02-03-2004 09:51:01 2.8 C 78 % -0.65 C
1250 02-03-2004 10:03:01 3 C 76 % -0.81 C
Sensor: Nr:Datum:Temp:Feuchte:Taupunkt:
Aussen-T/F 1251 02-03-2004 10:15:02 3 C 76 % -0.81 C
1252 02-03-2004 10:27:02 3.1 C 75 % -0.89 C
1253 02-03-2004 10:39:01 3.1 C 75 % -0.89 C
1254 02-03-2004 10:51:00 3.1 C 75 % -0.89 C
1255 02-03-2004 11:03:00 2.9 C 76 % -0.9 C
1256 02-03-2004 11:15:59 3 C 75 % -0.99 C
1257 02-03-2004 11:27:59 3 C 74 % -1.17 C
1258 02-03-2004 11:39:57 3.1 C 74 % -1.07 C
1259 02-03-2004 11:51:01 3.3 C 73 % -1.06 C
1260 02-03-2004 12:03:01 3.3 C 72 % -1.25 C
1261 02-03-2004 12:15:01 3.3 C 72 % -1.25 C
1262 02-03-2004 12:27:01 3.5 C 71 % -1.25 C
1263 02-03-2004 12:39:02 3.6 C 68 % -1.74 C
1264 02-03-2004 12:51:00 3.8 C 63 % -2.58 C
1265 02-03-2004 13:03:00 4 C 60 % -3.05 C
1266 02-03-2004 13:15:59 4.3 C 57 % -3.45 C
1267 02-03-2004 13:27:59 4.2 C 57 % -3.54 C
1268 02-03-2004 13:39:58 4.5 C 57 % -3.26 C
1269 02-03-2004 13:51:01 4.5 C 57 % -3.26 C
1270 02-03-2004 14:03:00 4.4 C 56 % -3.59 C
1271 02-03-2004 14:15:00 4.5 C 55 % -3.74 C
1272 02-03-2004 14:27:00 4.7 C 53 % -4.05 C
1273 02-03-2004 14:39:00 4.9 C 51 % -4.37 C
1274 02-03-2004 14:51:01 5 C 51 % -4.28 C
1275 02-03-2004 15:03:01 5.3 C 50 % -4.26 C
Sensor: Nr:Datum:Temp:Feuchte:Taupunkt:
Aussen-T/F 1276 02-03-2004 15:15:01 5.2 C 48 % -4.89 C
1277 02-03-2004 15:27:01 5.4 C 48 % -4.71 C
1278 02-03-2004 15:39:01 6 C 47 % -4.44 C
1279 02-03-2004 15:51:01 6.4 C 47 % -4.07 C
1280 02-03-2004 16:03:01 6.4 C 43 % -5.25 C
1281 02-03-2004 16:15:01 6.7 C 44 % -4.67 C
1282 02-03-2004 16:27:01 7 C 41 % -5.33 C
1283 02-03-2004 16:39:01 5.7 C 46 % -5 C
1284 02-03-2004 16:51:00 5.8 C 47 % -4.62 C
1285 02-03-2004 17:03:00 5.7 C 47 % -4.71 C
1286 02-03-2004 17:15:58 5.5 C 48 % -4.62 C
1287 02-03-2004 17:27:58 5.4 C 48 % -4.71 C
1288 02-03-2004 17:39:57 5.4 C 48 % -4.71 C
1289 02-03-2004 17:51:01 5.4 C 48 % -4.71 C
1290 02-03-2004 18:03:01 5.3 C 48 % -4.8 C
1291 02-03-2004 18:15:01 5 C 48 % -5.08 C
1292 02-03-2004 18:27:01 4.7 C 50 % -4.82 C
1293 02-03-2004 18:39:01 4.8 C 50 % -4.72 C
1294 02-03-2004 18:51:01 4.6 C 51 % -4.65 C
1295 02-03-2004 19:03:01 4.6 C 50 % -4.91 C
1296 02-03-2004 19:15:01 4.3 C 51 % -4.92 C
1297 02-03-2004 19:27:01 4.3 C 51 % -4.92 C
1298 02-03-2004 19:39:01 4.3 C 51 % -4.92 C
1299 02-03-2004 19:51:01 4.2 C 51 % -5.02 C
1300 02-03-2004 20:03:00 4.2 C 51 % -5.02 C
Sensor: Nr:Datum:Temp:Feuchte:Taupunkt:
Aussen-T/F 1301 02-03-2004 20:15:59 4 C 52 % -4.95 C
1302 02-03-2004 20:27:59 4 C 52 % -4.95 C
1303 02-03-2004 20:39:57 4 C 52 % -4.95 C
1304 02-03-2004 20:51:01 3.9 C 54 % -4.54 C
1305 02-03-2004 21:03:01 3.8 C 54 % -4.63 C
1306 02-03-2004 21:15:01 3.8 C 55 % -4.39 C
1307 02-03-2004 21:27:01 3.8 C 55 % -4.39 C
1308 02-03-2004 21:39:01 3.8 C 56 % -4.15 C
1309 02-03-2004 21:51:00 3.7 C 55 % -4.49 C
1310 02-03-2004 22:03:00 3.6 C 56 % -4.34 C
1311 02-03-2004 22:15:58 3.6 C 57 % -4.11 C
1312 02-03-2004 22:27:58 3.8 C 56 % -4.15 C
1313 02-03-2004 22:39:57 3.8 C 56 % -4.15 C
1314 02-03-2004 22:51:01 3.9 C 56 % -4.06 C
1315 02-03-2004 23:03:01 3.9 C 56 % -4.06 C
1316 02-03-2004 23:15:01 3.9 C 56 % -4.06 C
1317 02-03-2004 23:27:01 3.7 C 56 % -4.25 C
1318 02-03-2004 23:39:01 3.6 C 56 % -4.34 C
1319 02-03-2004 23:51:01 3.3 C 57 % -4.39 C
1320 03-03-2004 00:03:01 3.5 C 58 % -3.97 C
1321 03-03-2004 00:15:01 3.5 C 57 % -4.2 C
1322 03-03-2004 00:27:01 3.5 C 57 % -4.2 C
1323 03-03-2004 00:39:01 3.5 C 58 % -3.97 C
1324 03-03-2004 00:51:00 3.4 C 58 % -4.06 C
1325 03-03-2004 01:03:00 3.4 C 59 % -3.84 C
Sensor: Nr:Datum:Temp:Feuchte:Taupunkt:
Aussen-T/F 1326 03-03-2004 01:15:59 3.3 C 59 % -3.93 C
1327 03-03-2004 01:27:59 3.3 C 59 % -3.93 C
1328 03-03-2004 01:39:57 3.3 C 59 % -3.93 C
1329 03-03-2004 01:51:01 3.2 C 60 % -3.8 C
1330 03-03-2004 02:03:01 3.1 C 60 % -3.89 C
1331 03-03-2004 02:15:01 3 C 61 % -3.77 C
1332 03-03-2004 02:27:01 2.8 C 62 % -3.74 C
1333 03-03-2004 02:39:01 2.8 C 62 % -3.74 C
1334 03-03-2004 02:52:01 2.8 C 61 % -3.96 C
1335 03-03-2004 03:04:01 2.8 C 61 % -3.96 C
1336 03-03-2004 03:16:00 2.7 C 61 % -4.05 C
1337 03-03-2004 03:28:00 2.6 C 61 % -4.15 C
1338 03-03-2004 03:40:01 2.6 C 61 % -4.15 C
1339 03-03-2004 03:52:01 2.5 C 62 % -4.03 C
1340 03-03-2004 04:04:00 2.4 C 62 % -4.12 C
1341 03-03-2004 04:16:00 2.3 C 62 % -4.21 C
1342 03-03-2004 04:28:00 2.2 C 62 % -4.31 C
1343 03-03-2004 04:40:00 2.1 C 61 % -4.62 C
1344 03-03-2004 04:52:01 1.7 C 63 % -4.57 C
1345 03-03-2004 05:04:01 1.3 C 63 % -4.95 C
1346 03-03-2004 05:16:01 1.1 C 64 % -4.93 C
1347 03-03-2004 05:28:01 0.8 C 65 % -5.01 C
1348 03-03-2004 05:40:00 0.7 C 65 % -5.11 C
1349 03-03-2004 05:52:01 0.5 C 65 % -5.3 C
1350 03-03-2004 06:04:01 0.5 C 65 % -5.3 C
Sensor: Nr:Datum:Temp:Feuchte:Taupunkt:
Aussen-T/F 1351 03-03-2004 06:16:01 0.5 C 64 % -5.5 C
1352 03-03-2004 06:28:01 0.3 C 65 % -5.49 C
1353 03-03-2004 06:40:01 0.1 C 66 % -5.48 C
1354 03-03-2004 06:52:00 0.1 C 66 % -5.48 C
1355 03-03-2004 07:04:00 0 C 66 % -5.58 C
1356 03-03-2004 07:16:58 0.2 C 66 % -5.38 C
1357 03-03-2004 07:28:58 0.4 C 65 % -5.39 C
1358 03-03-2004 07:40:57 0.6 C 64 % -5.41 C
1359 03-03-2004 07:52:01 0.7 C 63 % -5.52 C
1360 03-03-2004 08:04:01 0.7 C 63 % -5.52 C
1361 03-03-2004 08:16:01 0.6 C 63 % -5.61 C
1362 03-03-2004 08:28:01 0.6 C 63 % -5.61 C
1363 03-03-2004 08:40:01 0.5 C 63 % -5.71 C
1364 03-03-2004 08:52:01 0.4 C 64 % -5.6 C
1365 03-03-2004 09:04:01 0.5 C 63 % -5.71 C
1366 03-03-2004 09:16:01 0.6 C 63 % -5.61 C
1367 03-03-2004 09:28:01 0.8 C 62 % -5.63 C
1368 03-03-2004 09:40:01 1 C 60 % -5.87 C
1369 03-03-2004 09:52:00 1.4 C 60 % -5.5 C
1370 03-03-2004 10:04:00 1.7 C 58 % -5.66 C
1371 03-03-2004 10:16:59 1.9 C 58 % -5.47 C
1372 03-03-2004 10:28:59 2.2 C 55 % -5.89 C
1373 03-03-2004 10:40:57 2.5 C 54 % -5.85 C
1374 03-03-2004 10:52:01 2.8 C 53 % -5.81 C
1375 03-03-2004 11:04:01 3.2 C 52 % -5.69 C
Sensor: Nr:Datum:Temp:Feuchte:Taupunkt:
Aussen-T/F 1376 03-03-2004 11:16:01 3.5 C 51 % -5.66 C
1377 03-03-2004 11:28:01 3.8 C 50 % -5.65 C
1378 03-03-2004 11:40:01 4.2 C 48 % -5.81 C
1379 03-03-2004 11:52:00 4.6 C 47 % -5.72 C
1380 03-03-2004 12:03:59 5 C 46 % -5.64 C
1381 03-03-2004 12:16:58 5.4 C 45 % -5.56 C
1382 03-03-2004 12:28:58 6 C 43 % -5.61 C
1383 03-03-2004 12:40:57 6.4 C 41 % -5.87 C
1384 03-03-2004 12:52:01 7.2 C 41 % -5.15 C
1385 03-03-2004 13:04:01 8 C 39 % -5.09 C
1386 03-03-2004 13:16:01 8.2 C 37 % -5.6 C
1387 03-03-2004 13:28:01 8 C 36 % -6.14 C
1388 03-03-2004 13:40:01 8.5 C 37 % -5.33 C
1389 03-03-2004 13:52:01 8.5 C 35 % -6.06 C
1390 03-03-2004 14:04:01 8.6 C 34 % -6.35 C
1391 03-03-2004 14:16:01 8.9 C 34 % -6.09 C
1392 03-03-2004 14:28:01 9.6 C 33 % -5.86 C
1393 03-03-2004 14:40:01 10.1 C 32 % -5.82 C
1394 03-03-2004 14:52:00 10.1 C 31 % -6.24 C
1395 03-03-2004 15:04:00 10.2 C 29 % -7.02 C
1396 03-03-2004 15:16:58 9.8 C 31 % -6.5 C
1397 03-03-2004 15:28:58 10.4 C 30 % -6.4 C
1398 03-03-2004 15:40:57 11.1 C 28 % -6.69 C
1399 03-03-2004 15:52:01 10.8 C 29 % -6.5 C
1400 03-03-2004 16:04:01 11 C 27 % -7.25 C
Sensor: Nr:Datum:Temp:Feuchte:Taupunkt:
Aussen-T/F 1401 03-03-2004 16:16:01 11.2 C 27 % -7.08 C
1402 03-03-2004 16:28:01 10.4 C 28 % -7.3 C
1403 03-03-2004 16:40:01 10.7 C 28 % -7.04 C
1404 03-03-2004 16:52:00 10.3 C 28 % -7.38 C
1405 03-03-2004 17:04:59 9.8 C 30 % -6.92 C
1406 03-03-2004 17:16:58 10 C 32 % -5.91 C
1407 03-03-2004 17:28:58 9.5 C 30 % -7.19 C
1408 03-03-2004 17:40:57 8.9 C 33 % -6.47 C
1409 03-03-2004 17:52:01 8.2 C 33 % -7.09 C
1410 03-03-2004 18:04:01 7.4 C 35 % -7.03 C
1411 03-03-2004 18:16:01 6.9 C 36 % -7.11 C
1412 03-03-2004 18:28:01 6.6 C 38 % -6.68 C
1413 03-03-2004 18:40:01 5.8 C 41 % -6.41 C
1414 03-03-2004 18:52:01 5.2 C 45 % -5.74 C
1415 03-03-2004 19:04:01 4.7 C 47 % -5.63 C
1416 03-03-2004 19:16:01 4.3 C 48 % -5.72 C
1417 03-03-2004 19:28:01 4.1 C 49 % -5.63 C
1418 03-03-2004 19:40:01 3.6 C 52 % -5.32 C
1419 03-03-2004 19:52:01 3.5 C 52 % -5.41 C
1420 03-03-2004 20:04:00 3.1 C 54 % -5.29 C
1421 03-03-2004 20:16:59 2.7 C 57 % -4.95 C
1422 03-03-2004 20:28:59 2.5 C 59 % -4.68 C
1423 03-03-2004 20:40:58 2.4 C 59 % -4.78 C
1424 03-03-2004 20:52:01 2.1 C 59 % -5.06 C
1425 03-03-2004 21:04:00 1.8 C 62 % -4.69 C
Sensor: Nr:Datum:Temp:Feuchte:Taupunkt:
Aussen-T/F 1426 03-03-2004 21:16:01 1.7 C 61 % -5 C
1427 03-03-2004 21:28:01 1.5 C 62 % -4.97 C
1428 03-03-2004 21:40:00 1.3 C 63 % -4.95 C
1429 03-03-2004 21:52:01 1.1 C 62 % -5.35 C
1430 03-03-2004 22:04:01 1 C 63 % -5.23 C
1431 03-03-2004 22:16:01 0.7 C 64 % -5.31 C
1432 03-03-2004 22:28:01 0.6 C 65 % -5.2 C
1433 03-03-2004 22:40:01 0.5 C 66 % -5.1 C
1434 03-03-2004 22:52:01 0.4 C 66 % -5.19 C
1435 03-03-2004 23:04:01 0.2 C 66 % -5.38 C
1436 03-03-2004 23:16:01 0.1 C 66 % -5.48 C
1437 03-03-2004 23:28:01 -0.1 C 66 % -5.68 C
1438 03-03-2004 23:40:01 -0.1 C 67 % -5.48 C
1439 03-03-2004 23:52:00 0 C 67 % -5.38 C
1440 04-03-2004 00:04:00 -0.2 C 67 % -5.58 C
1441 04-03-2004 00:16:59 -0.4 C 67 % -5.77 C
1442 04-03-2004 00:28:59 -0.6 C 67 % -5.96 C
1443 04-03-2004 00:40:57 -0.9 C 68 % -6.05 C
1444 04-03-2004 00:52:01 -1 C 69 % -5.96 C
1445 04-03-2004 01:04:01 -1.1 C 70 % -5.86 C
1446 04-03-2004 01:16:01 -1.3 C 70 % -6.06 C
1447 04-03-2004 01:28:01 -1.4 C 71 % -5.97 C
1448 04-03-2004 01:40:01 -1.6 C 71 % -6.16 C
1449 04-03-2004 01:52:00 -1.7 C 72 % -6.07 C
1450 04-03-2004 02:04:00 -1.8 C 73 % -5.99 C
Sensor: Nr:Datum:Temp:Feuchte:Taupunkt:
Aussen-T/F 1451 04-03-2004 02:16:58 -1.9 C 73 % -6.09 C
1452 04-03-2004 02:28:58 -2.1 C 72 % -6.46 C
1453 04-03-2004 02:40:57 -2.1 C 73 % -6.28 C
1454 04-03-2004 02:53:02 -2.2 C 73 % -6.38 C
1455 04-03-2004 03:05:02 -2.3 C 73 % -6.47 C
1456 04-03-2004 03:17:02 -2.3 C 73 % -6.47 C
1457 04-03-2004 03:29:02 -2.2 C 74 % -6.2 C
1458 04-03-2004 03:41:00 -2.4 C 74 % -6.39 C
1459 04-03-2004 03:53:00 -2.5 C 74 % -6.49 C
1460 04-03-2004 04:05:00 -2.4 C 74 % -6.39 C
1461 04-03-2004 04:17:59 -2.5 C 74 % -6.49 C
1462 04-03-2004 04:29:59 -2.5 C 74 % -6.49 C
1463 04-03-2004 04:41:57 -2.5 C 74 % -6.49 C
1464 04-03-2004 04:53:01 -2.6 C 74 % -6.58 C
1465 04-03-2004 05:05:01 -2.4 C 75 % -6.22 C
1466 04-03-2004 05:17:01 -2.3 C 74 % -6.29 C
1467 04-03-2004 05:29:01 -2.5 C 73 % -6.67 C
1468 04-03-2004 05:41:01 -2.7 C 73 % -6.86 C
1469 04-03-2004 05:53:00 -2.8 C 73 % -6.95 C
1470 04-03-2004 06:05:00 -2.6 C 74 % -6.58 C
1471 04-03-2004 06:17:58 -2.6 C 74 % -6.58 C
1472 04-03-2004 06:29:58 -2.6 C 75 % -6.41 C
1473 04-03-2004 06:41:57 -2.6 C 74 % -6.58 C
1474 04-03-2004 06:53:01 -2.7 C 75 % -6.51 C
1475 04-03-2004 07:05:01 -2.8 C 75 % -6.6 C
Sensor: Nr:Datum:Temp:Feuchte:Taupunkt:
Aussen-T/F 1476 04-03-2004 07:17:01 -2.7 C 75 % -6.51 C
1477 04-03-2004 07:29:01 -2.6 C 75 % -6.41 C
1478 04-03-2004 07:41:01 -2.7 C 74 % -6.68 C
1479 04-03-2004 07:53:01 -2.5 C 75 % -6.31 C
1480 04-03-2004 08:05:01 -2.4 C 75 % -6.22 C
1481 04-03-2004 08:17:01 -2.4 C 74 % -6.39 C
1482 04-03-2004 08:29:01 -2.5 C 74 % -6.49 C
1483 04-03-2004 08:41:01 -2.4 C 75 % -6.22 C
1484 04-03-2004 08:53:00 -2.2 C 75 % -6.02 C
1485 04-03-2004 09:05:00 -2 C 75 % -5.83 C
1486 04-03-2004 09:17:59 -1.8 C 75 % -5.64 C
1487 04-03-2004 09:29:59 -1.5 C 74 % -5.52 C
1488 04-03-2004 09:41:57 -0.8 C 74 % -4.84 C
1489 04-03-2004 09:53:01 -0.1 C 70 % -4.9 C
1490 04-03-2004 10:05:01 0.4 C 68 % -4.8 C
1491 04-03-2004 10:17:01 1.4 C 66 % -4.24 C
1492 04-03-2004 10:29:01 2.1 C 62 % -4.4 C
1493 04-03-2004 10:41:01 2.2 C 60 % -4.74 C
1494 04-03-2004 10:53:00 2.8 C 57 % -4.86 C
1495 04-03-2004 11:05:00 3.5 C 57 % -4.2 C
1496 04-03-2004 11:17:58 4.1 C 54 % -4.36 C
1497 04-03-2004 11:29:58 4.7 C 52 % -4.3 C
1498 04-03-2004 11:41:57 4.8 C 52 % -4.2 C
1499 04-03-2004 11:53:01 5.1 C 51 % -4.18 C
1500 04-03-2004 12:05:01 5.3 C 52 % -3.74 C
Sensor: Nr:Datum:Temp:Feuchte:Taupunkt:
Aussen-T/F 1501 04-03-2004 12:17:01 6.2 C 48 % -3.98 C
1502 04-03-2004 12:29:01 7.1 C 45 % -4.01 C
1503 04-03-2004 12:41:01 7.4 C 44 % -4.04 C
1504 04-03-2004 12:53:01 7.8 C 42 % -4.29 C
1505 04-03-2004 13:05:01 8.6 C 41 % -3.89 C
1506 04-03-2004 13:17:01 8.9 C 40 % -3.95 C
1507 04-03-2004 13:29:01 8.9 C 38 % -4.63 C
1508 04-03-2004 13:41:01 9.5 C 37 % -4.44 C
1509 04-03-2004 13:53:00 10.2 C 35 % -4.56 C
1510 04-03-2004 14:05:00 10.7 C 35 % -4.11 C
1511 04-03-2004 14:17:59 10.5 C 32 % -5.47 C
1512 04-03-2004 14:29:59 10.4 C 32 % -5.56 C
1513 04-03-2004 14:41:57 9.9 C 35 % -4.82 C
1514 04-03-2004 14:53:01 10 C 33 % -5.51 C
1515 04-03-2004 15:05:01 10.8 C 32 % -5.21 C
1516 04-03-2004 15:17:01 11.1 C 30 % -5.79 C
1517 04-03-2004 15:29:01 11.1 C 31 % -5.37 C
1518 04-03-2004 15:41:01 10.5 C 31 % -5.89 C
1519 04-03-2004 15:53:00 10.3 C 31 % -6.06 C
1520 04-03-2004 16:05:59 10.1 C 31 % -6.24 C
1521 04-03-2004 16:17:58 10.3 C 32 % -5.65 C
1522 04-03-2004 16:29:58 10.3 C 31 % -6.06 C
1523 04-03-2004 16:41:57 10 C 32 % -5.91 C
1524 04-03-2004 16:53:01 9.7 C 41 % -2.9 C
1525 04-03-2004 17:05:01 9.4 C 37 % -4.53 C
Sensor: Nr:Datum:Temp:Feuchte:Taupunkt:
Aussen-T/F 1526 04-03-2004 17:17:01 9.1 C 37 % -4.8 C
1527 04-03-2004 17:29:01 8.9 C 40 % -3.95 C
1528 04-03-2004 17:41:01 8.6 C 39 % -4.55 C
1529 04-03-2004 17:53:01 8.4 C 41 % -4.07 C
1530 04-03-2004 18:05:01 8.1 C 42 % -4.02 C
1531 04-03-2004 18:17:01 7.8 C 45 % -3.37 C
1532 04-03-2004 18:29:01 7.4 C 46 % -3.44 C
1533 04-03-2004 18:41:01 7.1 C 47 % -3.43 C
1534 04-03-2004 18:53:01 6.9 C 48 % -3.33 C
1535 04-03-2004 19:05:00 6.8 C 47 % -3.71 C
1536 04-03-2004 19:17:58 6.8 C 46 % -3.99 C
1537 04-03-2004 19:29:58 6.8 C 45 % -4.28 C
1538 04-03-2004 19:41:57 6.6 C 45 % -4.47 C
1539 04-03-2004 19:53:01 6.5 C 44 % -4.85 C
1540 04-03-2004 20:05:01 6.5 C 43 % -5.16 C
1541 04-03-2004 20:17:01 6.4 C 42 % -5.56 C
1542 04-03-2004 20:29:01 6.3 C 44 % -5.03 C
1543 04-03-2004 20:41:01 6 C 46 % -4.72 C
1544 04-03-2004 20:53:00 5.7 C 48 % -4.43 C
1545 04-03-2004 21:05:59 5.5 C 49 % -4.35 C
1546 04-03-2004 21:17:58 5.4 C 49 % -4.44 C
1547 04-03-2004 21:29:58 5.2 C 48 % -4.89 C
1548 04-03-2004 21:41:57 5 C 49 % -4.81 C
1549 04-03-2004 21:53:01 4.9 C 49 % -4.9 C
1550 04-03-2004 22:05:01 4.6 C 50 % -4.91 C
Sensor: Nr:Datum:Temp:Feuchte:Taupunkt:
Aussen-T/F 1551 04-03-2004 22:17:01 4.3 C 51 % -4.92 C
1552 04-03-2004 22:29:01 3.8 C 54 % -4.63 C
1553 04-03-2004 22:41:01 3.6 C 53 % -5.07 C
1554 04-03-2004 22:53:00 3.5 C 53 % -5.16 C
1555 04-03-2004 23:05:59 3.3 C 53 % -5.35 C
1556 04-03-2004 23:17:58 3.1 C 55 % -5.05 C
1557 04-03-2004 23:29:58 2.8 C 56 % -5.09 C
1558 04-03-2004 23:41:57 2.4 C 56 % -5.46 C
1559 04-03-2004 23:53:01 2.3 C 56 % -5.56 C
1560 05-03-2004 00:05:01 2.1 C 56 % -5.74 C
1561 05-03-2004 00:17:01 2.1 C 56 % -5.74 C
1562 05-03-2004 00:29:01 1.9 C 58 % -5.47 C
1563 05-03-2004 00:41:00 1.8 C 58 % -5.57 C
1564 05-03-2004 00:53:01 1.7 C 58 % -5.66 C
1565 05-03-2004 01:05:01 1.5 C 59 % -5.62 C
1566 05-03-2004 01:17:01 1.4 C 59 % -5.72 C
1567 05-03-2004 01:29:01 1.2 C 60 % -5.69 C
1568 05-03-2004 01:41:01 1 C 60 % -5.87 C
1569 05-03-2004 01:53:01 1 C 60 % -5.87 C
1570 05-03-2004 02:05:00 0.8 C 62 % -5.63 C
1571 05-03-2004 02:17:58 0.6 C 62 % -5.82 C
1572 05-03-2004 02:29:58 0.5 C 63 % -5.71 C
1573 05-03-2004 02:41:57 0.5 C 63 % -5.71 C
1574 05-03-2004 02:54:03 0.4 C 63 % -5.8 C
1575 05-03-2004 03:06:03 0.3 C 65 % -5.49 C
Sensor: Nr:Datum:Temp:Feuchte:Taupunkt:
Aussen-T/F 1576 05-03-2004 03:18:02 0.3 C 65 % -5.49 C
1577 05-03-2004 03:30:02 0.3 C 65 % -5.49 C
1578 05-03-2004 03:42:00 0.2 C 65 % -5.58 C
1579 05-03-2004 03:54:00 0.1 C 65 % -5.68 C
1580 05-03-2004 04:06:00 0.2 C 65 % -5.58 C
1581 05-03-2004 04:18:59 -0.1 C 65 % -5.88 C
1582 05-03-2004 04:30:58 -0.3 C 65 % -6.07 C
1583 05-03-2004 04:42:58 -0.5 C 66 % -6.06 C
1584 05-03-2004 04:54:01 -0.5 C 67 % -5.86 C
1585 05-03-2004 05:06:01 -0.7 C 67 % -6.05 C
1586 05-03-2004 05:18:01 -0.8 C 68 % -5.96 C
1587 05-03-2004 05:30:01 -0.9 C 68 % -6.05 C
1588 05-03-2004 05:42:01 -1 C 67 % -6.34 C
1589 05-03-2004 05:54:00 -1 C 67 % -6.34 C
1590 05-03-2004 06:06:00 -1.1 C 68 % -6.24 C
1591 05-03-2004 06:18:58 -1.2 C 67 % -6.53 C
1592 05-03-2004 06:30:57 -1.2 C 66 % -6.73 C
1593 05-03-2004 06:42:57 -1.2 C 64 % -7.13 C
1594 05-03-2004 06:54:01 -1.2 C 64 % -7.13 C
1595 05-03-2004 07:06:01 -1.4 C 65 % -7.12 C
1596 05-03-2004 07:18:01 -1.4 C 63 % -7.52 C
1597 05-03-2004 07:30:01 -1.5 C 64 % -7.41 C
1598 05-03-2004 07:42:02 -1.4 C 64 % -7.32 C
1599 05-03-2004 07:54:00 -1.4 C 63 % -7.52 C
1600 05-03-2004 08:06:00 -1.3 C 64 % -7.22 C
Sensor: Nr:Datum:Temp:Feuchte:Taupunkt:
Aussen-T/F 1601 05-03-2004 08:18:58 -1.2 C 63 % -7.33 C
1602 05-03-2004 08:30:57 -1.1 C 63 % -7.24 C
1603 05-03-2004 08:42:57 -0.9 C 61 % -7.46 C
1604 05-03-2004 08:54:01 -0.8 C 60 % -7.58 C
1605 05-03-2004 09:06:01 -0.6 C 61 % -7.18 C
1606 05-03-2004 09:18:01 -0.6 C 61 % -7.18 C
1607 05-03-2004 09:30:01 -0.4 C 60 % -7.2 C
1608 05-03-2004 09:42:01 0.1 C 59 % -6.94 C
1609 05-03-2004 09:54:00 0.6 C 58 % -6.69 C
1610 05-03-2004 10:06:59 1.2 C 56 % -6.59 C
1611 05-03-2004 10:18:58 1.7 C 53 % -6.83 C
1612 05-03-2004 10:30:57 2.2 C 51 % -6.87 C
1613 05-03-2004 10:42:57 2.7 C 50 % -6.66 C
1614 05-03-2004 10:54:01 3.2 C 46 % -7.28 C
1615 05-03-2004 11:06:01 3.6 C 45 % -7.2 C
1616 05-03-2004 11:18:01 4 C 45 % -6.84 C
1617 05-03-2004 11:30:01 4.8 C 41 % -7.31 C
1618 05-03-2004 11:42:01 5.1 C 39 % -7.69 C
1619 05-03-2004 11:54:01 5.4 C 37 % -8.1 C
1620 05-03-2004 12:06:02 5.8 C 37 % -7.74 C
1621 05-03-2004 12:18:01 6.2 C 35 % -8.1 C
1622 05-03-2004 12:30:01 6.6 C 35 % -7.74 C
1623 05-03-2004 12:42:01 7 C 33 % -8.15 C
1624 05-03-2004 12:54:01 7.5 C 32 % -8.1 C
1625 05-03-2004 13:06:00 7.9 C 30 % -8.58 C
Sensor: Nr:Datum:Temp:Feuchte:Taupunkt:
Aussen-T/F 1626 05-03-2004 13:18:59 8 C 28 % -9.37 C
1627 05-03-2004 13:30:57 8.5 C 27 % -9.4 C
1628 05-03-2004 13:42:57 8.7 C 25 % -10.2 C
1629 05-03-2004 13:54:01 9 C 23 % -10.99 C
1630 05-03-2004 14:06:01 9.1 C 20 % -12.64 C
1631 05-03-2004 14:18:01 9.5 C 20 % -12.31 C
1632 05-03-2004 14:30:01 10.1 C 20 % -11.81 C
1633 05-03-2004 14:42:01 10 C 20 % -11.89 C
1634 05-03-2004 14:54:00 9.2 C 20 % -12.56 C
1635 05-03-2004 15:06:00 9 C 20 % -12.72 C
1636 05-03-2004 15:18:58 8.6 C 20 % -13.06 C
1637 05-03-2004 15:30:58 8.3 C 20 % -13.31 C
1638 05-03-2004 15:42:58 8.9 C 20 % -12.81 C
1639 05-03-2004 15:54:01 8.5 C 20 % -13.14 C
1640 05-03-2004 16:06:01 8.1 C 20 % -13.47 C
1641 05-03-2004 16:18:01 7.8 C 20 % -13.72 C
1642 05-03-2004 16:30:01 7.8 C 20 % -13.72 C
1643 05-03-2004 16:42:01 7.5 C 20 % -13.97 C
1644 05-03-2004 16:54:00 7.4 C 20 % -14.05 C
1645 05-03-2004 17:06:00 7.2 C 20 % -14.22 C
1646 05-03-2004 17:18:58 7.1 C 20 % -14.3 C
1647 05-03-2004 17:30:57 6.9 C 23 % -12.76 C
1648 05-03-2004 17:42:57 6.6 C 25 % -11.99 C
1649 05-03-2004 17:54:02 6.3 C 27 % -11.29 C
1650 05-03-2004 18:06:01 6.2 C 29 % -10.48 C
Sensor: Nr:Datum:Temp:Feuchte:Taupunkt:
Aussen-T/F 1651 05-03-2004 18:18:01 5.8 C 29 % -10.83 C
1652 05-03-2004 18:30:01 5.7 C 30 % -10.49 C
1653 05-03-2004 18:42:01 5.6 C 30 % -10.58 C
1654 05-03-2004 18:54:03 5.5 C 31 % -10.25 C
1655 05-03-2004 19:06:02 5.5 C 32 % -9.85 C
1656 05-03-2004 19:18:02 5.6 C 33 % -9.38 C
1657 05-03-2004 19:30:02 5.2 C 32 % -10.12 C
1658 05-03-2004 19:42:02 5.2 C 35 % -8.98 C
1659 05-03-2004 19:54:00 5.1 C 33 % -9.82 C
1660 05-03-2004 20:06:00 5.1 C 35 % -9.07 C
1661 05-03-2004 20:18:59 5.1 C 35 % -9.07 C
1662 05-03-2004 20:30:58 5 C 36 % -8.8 C
1663 05-03-2004 20:42:58 5 C 36 % -8.8 C
1664 05-03-2004 20:54:01 5 C 36 % -8.8 C
1665 05-03-2004 21:06:00 4.8 C 40 % -7.63 C
1666 05-03-2004 21:18:00 4.3 C 44 % -6.85 C
1667 05-03-2004 21:30:00 4.1 C 47 % -6.18 C
1668 05-03-2004 21:42:00 4.1 C 45 % -6.74 C
1669 05-03-2004 21:54:01 4.1 C 46 % -6.46 C
1670 05-03-2004 22:06:01 3.8 C 47 % -6.45 C
1671 05-03-2004 22:18:01 3.6 C 47 % -6.64 C
1672 05-03-2004 22:30:01 3.7 C 48 % -6.27 C
1673 05-03-2004 22:42:01 3.5 C 49 % -6.19 C
1674 05-03-2004 22:54:01 3.2 C 52 % -5.69 C
1675 05-03-2004 23:06:01 2.6 C 59 % -4.59 C
Sensor: Nr:Datum:Temp:Feuchte:Taupunkt:
Aussen-T/F 1676 05-03-2004 23:18:01 2.1 C 65 % -3.78 C
1677 05-03-2004 23:30:01 1.7 C 70 % -3.17 C
1678 05-03-2004 23:42:01 1.5 C 73 % -2.8 C
1679 05-03-2004 23:54:00 1.3 C 74 % -2.81 C
1680 06-03-2004 00:06:00 1.3 C 75 % -2.63 C
1681 06-03-2004 00:18:59 1.2 C 76 % -2.55 C
1682 06-03-2004 00:30:57 1.1 C 76 % -2.65 C
1683 06-03-2004 00:42:57 1 C 77 % -2.57 C
1684 06-03-2004 00:54:01 0.9 C 78 % -2.49 C
1685 06-03-2004 01:06:01 1 C 78 % -2.39 C
1686 06-03-2004 01:18:01 1 C 78 % -2.39 C
1687 06-03-2004 01:30:01 0.6 C 79 % -2.61 C
1688 06-03-2004 01:42:01 0.6 C 80 % -2.44 C
1689 06-03-2004 01:54:00 0.4 C 80 % -2.64 C
1690 06-03-2004 02:06:59 0.3 C 81 % -2.57 C
1691 06-03-2004 02:18:58 0.3 C 81 % -2.57 C
1692 06-03-2004 02:30:57 0.3 C 81 % -2.57 C
1693 06-03-2004 02:42:57 0.3 C 81 % -2.57 C
1694 06-03-2004 02:55:02 0.3 C 81 % -2.57 C
1695 06-03-2004 03:07:02 0.3 C 81 % -2.57 C
1696 06-03-2004 03:19:02 0.2 C 81 % -2.67 C
1697 06-03-2004 03:31:00 0.2 C 81 % -2.67 C
1698 06-03-2004 03:43:00 0.2 C 81 % -2.67 C
1699 06-03-2004 03:55:00 0.2 C 81 % -2.67 C
1700 06-03-2004 04:07:00 0.2 C 81 % -2.67 C
Sensor: Nr:Datum:Temp:Feuchte:Taupunkt:
Aussen-T/F 1701 06-03-2004 04:19:59 0.2 C 81 % -2.67 C
1702 06-03-2004 04:31:58 0.2 C 80 % -2.83 C
1703 06-03-2004 04:43:58 0.2 C 80 % -2.83 C
1704 06-03-2004 04:55:01 0.2 C 80 % -2.83 C
1705 06-03-2004 05:07:01 0.2 C 80 % -2.83 C
1706 06-03-2004 05:19:00 0.3 C 80 % -2.73 C
1707 06-03-2004 05:31:00 0.3 C 80 % -2.73 C
1708 06-03-2004 05:43:00 0.3 C 80 % -2.73 C
1709 06-03-2004 05:55:01 0.3 C 80 % -2.73 C
1710 06-03-2004 06:07:01 0.3 C 80 % -2.73 C
1711 06-03-2004 06:19:01 0.3 C 80 % -2.73 C
1712 06-03-2004 06:31:01 0.4 C 80 % -2.64 C
1713 06-03-2004 06:43:01 0.3 C 80 % -2.73 C
1714 06-03-2004 06:55:00 0.3 C 80 % -2.73 C
1715 06-03-2004 07:07:59 0.4 C 79 % -2.81 C
1716 06-03-2004 07:19:58 0.4 C 79 % -2.81 C
1717 06-03-2004 07:31:57 0.4 C 79 % -2.81 C
1718 06-03-2004 07:43:57 0.4 C 79 % -2.81 C
1719 06-03-2004 07:55:01 0.4 C 79 % -2.81 C
1720 06-03-2004 08:07:01 0.4 C 79 % -2.81 C
1721 06-03-2004 08:19:01 0.5 C 79 % -2.71 C
1722 06-03-2004 08:31:01 0.5 C 79 % -2.71 C
1723 06-03-2004 08:43:01 0.4 C 80 % -2.64 C
1724 06-03-2004 08:55:01 0.5 C 80 % -2.54 C
1725 06-03-2004 09:07:02 0.6 C 81 % -2.28 C
Sensor: Nr:Datum:Temp:Feuchte:Taupunkt:
Aussen-T/F 1726 06-03-2004 09:19:01 0.6 C 81 % -2.28 C
1727 06-03-2004 09:31:01 0.6 C 81 % -2.28 C
1728 06-03-2004 09:43:01 0.7 C 81 % -2.18 C
1729 06-03-2004 09:55:00 0.7 C 81 % -2.18 C
1730 06-03-2004 10:07:00 0.9 C 81 % -1.98 C
1731 06-03-2004 10:19:59 0.9 C 81 % -1.98 C
1732 06-03-2004 10:31:57 0.9 C 81 % -1.98 C
1733 06-03-2004 10:43:57 1 C 80 % -2.05 C
1734 06-03-2004 10:55:01 1 C 80 % -2.05 C
1735 06-03-2004 11:07:01 1.2 C 80 % -1.86 C
1736 06-03-2004 11:19:01 1.4 C 80 % -1.66 C
1737 06-03-2004 11:31:01 1.4 C 81 % -1.49 C
1738 06-03-2004 11:43:01 1.2 C 81 % -1.69 C
1739 06-03-2004 11:55:00 1.3 C 81 % -1.59 C
1740 06-03-2004 12:07:00 1.2 C 81 % -1.69 C
1741 06-03-2004 12:19:59 1.2 C 82 % -1.52 C
1742 06-03-2004 12:31:58 1.3 C 82 % -1.43 C
1743 06-03-2004 12:43:58 1.4 C 82 % -1.33 C
1744 06-03-2004 12:55:01 1.3 C 82 % -1.43 C
1745 06-03-2004 13:07:01 1.2 C 82 % -1.52 C
1746 06-03-2004 13:19:01 1.2 C 82 % -1.52 C
1747 06-03-2004 13:31:01 1.2 C 83 % -1.36 C
1748 06-03-2004 13:43:01 1.3 C 83 % -1.26 C
1749 06-03-2004 13:55:01 1.5 C 84 % -0.9 C
1750 06-03-2004 14:07:02 1.7 C 84 % -0.71 C
Sensor: Nr:Datum:Temp:Feuchte:Taupunkt:
Aussen-T/F 1751 06-03-2004 14:19:01 1.8 C 84 % -0.61 C
1752 06-03-2004 14:31:01 1.8 C 84 % -0.61 C
1753 06-03-2004 14:43:01 1.9 C 83 % -0.67 C
1754 06-03-2004 14:55:01 1.9 C 83 % -0.67 C
1755 06-03-2004 15:07:00 2 C 83 % -0.58 C
1756 06-03-2004 15:19:59 2.2 C 82 % -0.55 C
1757 06-03-2004 15:31:58 2.4 C 82 % -0.35 C
1758 06-03-2004 15:43:58 2.4 C 81 % -0.52 C
1759 06-03-2004 15:55:01 2.4 C 81 % -0.52 C
1760 06-03-2004 16:07:01 3 C 79 % -0.28 C
1761 06-03-2004 16:19:01 3.4 C 76 % -0.42 C
1762 06-03-2004 16:31:01 3.4 C 74 % -0.78 C
1763 06-03-2004 16:43:01 3.1 C 75 % -0.89 C
1764 06-03-2004 16:55:00 3.1 C 75 % -0.89 C
1765 06-03-2004 17:07:00 3.1 C 76 % -0.71 C
1766 06-03-2004 17:19:58 3.1 C 76 % -0.71 C
1767 06-03-2004 17:31:57 2.8 C 78 % -0.65 C
1768 06-03-2004 17:43:57 2.7 C 78 % -0.74 C
1769 06-03-2004 17:55:01 2.6 C 79 % -0.67 C
1770 06-03-2004 18:07:02 2.4 C 79 % -0.86 C
1771 06-03-2004 18:19:02 2.3 C 80 % -0.79 C
1772 06-03-2004 18:31:01 2.2 C 81 % -0.71 C
1773 06-03-2004 18:43:01 2.2 C 81 % -0.71 C
1774 06-03-2004 18:55:00 2.3 C 81 % -0.62 C
1775 06-03-2004 19:07:00 2.5 C 78 % -0.94 C
Sensor: Nr:Datum:Temp:Feuchte:Taupunkt:
Aussen-T/F 1776 06-03-2004 19:19:59 2.3 C 78 % -1.13 C
1777 06-03-2004 19:31:57 2.3 C 79 % -0.96 C
1778 06-03-2004 19:43:57 2.3 C 79 % -0.96 C
1779 06-03-2004 19:55:01 2.3 C 79 % -0.96 C
1780 06-03-2004 20:07:02 2.3 C 79 % -0.96 C
1781 06-03-2004 20:19:01 2.4 C 78 % -1.03 C
1782 06-03-2004 20:31:01 2.4 C 78 % -1.03 C
1783 06-03-2004 20:43:01 2.5 C 78 % -0.94 C
1784 06-03-2004 20:55:00 2.4 C 78 % -1.03 C
1785 06-03-2004 21:07:00 2.5 C 77 % -1.11 C
1786 06-03-2004 21:19:58 2.7 C 77 % -0.92 C
1787 06-03-2004 21:31:57 2.6 C 76 % -1.19 C
1788 06-03-2004 21:43:57 2.6 C 76 % -1.19 C
1789 06-03-2004 21:55:01 2.6 C 76 % -1.19 C
1790 06-03-2004 22:07:01 2.5 C 77 % -1.11 C
1791 06-03-2004 22:19:01 2.5 C 78 % -0.94 C
1792 06-03-2004 22:31:01 2.5 C 78 % -0.94 C
1793 06-03-2004 22:43:01 2.5 C 78 % -0.94 C
1794 06-03-2004 22:55:01 2.4 C 78 % -1.03 C
1795 06-03-2004 23:07:01 2.7 C 74 % -1.46 C
1796 06-03-2004 23:19:01 2.6 C 70 % -2.31 C
1797 06-03-2004 23:31:01 2.5 C 69 % -2.6 C
1798 06-03-2004 23:43:01 2.4 C 69 % -2.69 C
1799 06-03-2004 23:55:00 2.3 C 71 % -2.4 C
1800 07-03-2004 00:07:00 2.2 C 72 % -2.31 C
Sensor: Nr:Datum:Temp:Feuchte:Taupunkt:
Aussen-T/F 1801 07-03-2004 00:19:59 2.2 C 71 % -2.5 C
1802 07-03-2004 00:31:57 2.2 C 71 % -2.5 C
1803 07-03-2004 00:43:57 2.2 C 72 % -2.31 C
1804 07-03-2004 00:55:01 1.9 C 74 % -2.23 C
1805 07-03-2004 01:07:01 1.8 C 75 % -2.15 C
1806 07-03-2004 01:19:01 1.8 C 74 % -2.33 C
1807 07-03-2004 01:31:01 1.8 C 73 % -2.51 C
1808 07-03-2004 01:43:01 1.5 C 72 % -2.99 C
1809 07-03-2004 01:55:00 1.2 C 73 % -3.09 C
1810 07-03-2004 02:06:59 1.3 C 74 % -2.81 C
1811 07-03-2004 02:19:58 1.3 C 73 % -2.99 C
1812 07-03-2004 02:31:57 1.5 C 72 % -2.99 C
1813 07-03-2004 02:43:57 1.5 C 71 % -3.17 C
1814 07-03-2004 02:56:02 1.4 C 72 % -3.08 C
1815 07-03-2004 03:08:02 1.6 C 71 % -3.08 C
1816 07-03-2004 03:20:02 1.7 C 70 % -3.17 C
1817 07-03-2004 03:32:00 1.8 C 70 % -3.07 C
1818 07-03-2004 03:44:00 1.9 C 69 % -3.17 C
1819 07-03-2004 03:56:00 1.8 C 70 % -3.07 C
1820 07-03-2004 04:08:00 1.9 C 70 % -2.98 C
1821 07-03-2004 04:20:59 2 C 70 % -2.88 C
1822 07-03-2004 04:32:57 2 C 70 % -2.88 C
1823 07-03-2004 04:44:01 2.2 C 70 % -2.69 C
1824 07-03-2004 04:56:01 2.2 C 70 % -2.69 C
1825 07-03-2004 05:08:01 2.3 C 70 % -2.59 C
Sensor: Nr:Datum:Temp:Feuchte:Taupunkt:
Aussen-T/F 1826 07-03-2004 05:20:01 2.3 C 70 % -2.59 C
1827 07-03-2004 05:32:01 2.2 C 71 % -2.5 C
1828 07-03-2004 05:44:01 1.8 C 75 % -2.15 C
1829 07-03-2004 05:56:00 1.5 C 79 % -1.74 C
1830 07-03-2004 06:08:00 1.1 C 80 % -1.96 C
1831 07-03-2004 06:20:58 1 C 83 % -1.55 C
1832 07-03-2004 06:32:57 0.8 C 85 % -1.43 C
1833 07-03-2004 06:44:01 0.8 C 86 % -1.27 C
1834 07-03-2004 06:56:01 0.9 C 86 % -1.17 C
1835 07-03-2004 07:08:01 1 C 86 % -1.07 C
1836 07-03-2004 07:20:01 1.2 C 86 % -0.88 C
1837 07-03-2004 07:32:01 1.2 C 86 % -0.88 C
1838 07-03-2004 07:44:01 1.4 C 86 % -0.68 C
1839 07-03-2004 07:56:01 1.6 C 86 % -0.48 C
1840 07-03-2004 08:08:01 1.8 C 85 % -0.45 C
1841 07-03-2004 08:20:01 2 C 85 % -0.25 C
1842 07-03-2004 08:32:01 2.1 C 85 % -0.15 C
1843 07-03-2004 08:44:01 2.2 C 85 % -0.05 C
1844 07-03-2004 08:56:01 2.3 C 84 % -0.12 C
1845 07-03-2004 09:08:00 2.4 C 84 % -0.02 C
1846 07-03-2004 09:20:59 2.4 C 83 % -0.18 C
1847 07-03-2004 09:32:57 2.6 C 83 % 0.01 C
1848 07-03-2004 09:44:01 3 C 82 % 0.24 C
1849 07-03-2004 09:56:01 3.1 C 82 % 0.33 C
1850 07-03-2004 10:08:01 3 C 82 % 0.24 C
Sensor: Nr:Datum:Temp:Feuchte:Taupunkt:
Aussen-T/F 1851 07-03-2004 10:20:01 3 C 82 % 0.24 C
1852 07-03-2004 10:32:01 3.2 C 82 % 0.43 C
1853 07-03-2004 10:44:01 3.4 C 83 % 0.79 C
1854 07-03-2004 10:56:00 3.5 C 83 % 0.89 C
1855 07-03-2004 11:08:59 3.8 C 83 % 1.19 C
1856 07-03-2004 11:20:58 4 C 80 % 0.87 C
1857 07-03-2004 11:32:58 4.4 C 80 % 1.26 C
1858 07-03-2004 11:44:01 4.8 C 76 % 0.94 C
1859 07-03-2004 11:56:01 5.3 C 72 % 0.67 C
1860 07-03-2004 12:08:01 5.5 C 70 % 0.48 C
1861 07-03-2004 12:20:01 5.7 C 69 % 0.47 C
1862 07-03-2004 12:32:01 5.6 C 66 % -0.24 C
1863 07-03-2004 12:44:01 5.9 C 66 % 0.05 C
1864 07-03-2004 12:56:01 6.3 C 63 % -0.21 C
1865 07-03-2004 13:08:00 6.8 C 61 % -0.18 C
1866 07-03-2004 13:20:59 6.5 C 60 % -0.69 C
1867 07-03-2004 13:32:57 7.1 C 59 % -0.36 C
1868 07-03-2004 13:44:01 6.9 C 57 % -1.01 C
1869 07-03-2004 13:56:01 7.6 C 56 % -0.6 C
1870 07-03-2004 14:08:01 7.5 C 54 % -1.19 C
1871 07-03-2004 14:20:01 7.8 C 54 % -0.91 C
1872 07-03-2004 14:32:01 7.5 C 54 % -1.19 C
1873 07-03-2004 14:44:01 7.5 C 54 % -1.19 C
1874 07-03-2004 14:56:00 7.2 C 56 % -0.98 C
1875 07-03-2004 15:08:00 7 C 56 % -1.16 C
Sensor: Nr:Datum:Temp:Feuchte:Taupunkt:
Aussen-T/F 1876 07-03-2004 15:20:59 6.9 C 57 % -1.01 C
1877 07-03-2004 15:32:57 6.9 C 57 % -1.01 C
1878 07-03-2004 15:44:02 7 C 56 % -1.16 C
1879 07-03-2004 15:56:02 7.1 C 55 % -1.31 C
1880 07-03-2004 16:08:01 7.1 C 56 % -1.07 C
1881 07-03-2004 16:20:01 6.9 C 57 % -1.01 C
1882 07-03-2004 16:32:01 6.9 C 57 % -1.01 C
1883 07-03-2004 16:44:01 7 C 57 % -0.92 C
1884 07-03-2004 16:56:01 6.9 C 58 % -0.78 C
1885 07-03-2004 17:08:00 6.8 C 57 % -1.11 C
1886 07-03-2004 17:20:58 6.2 C 60 % -0.97 C
1887 07-03-2004 17:32:57 5.9 C 64 % -0.38 C
1888 07-03-2004 17:44:01 5.7 C 65 % -0.35 C
1889 07-03-2004 17:56:01 5.5 C 66 % -0.33 C
1890 07-03-2004 18:08:02 5.2 C 70 % 0.19 C
1891 07-03-2004 18:20:02 4.9 C 74 % 0.67 C
1892 07-03-2004 18:32:01 4.6 C 77 % 0.92 C
1893 07-03-2004 18:44:01 4.2 C 80 % 1.07 C
1894 07-03-2004 18:56:01 4.2 C 80 % 1.07 C
1895 07-03-2004 19:08:01 4.2 C 80 % 1.07 C
1896 07-03-2004 19:20:59 4.2 C 80 % 1.07 C
1897 07-03-2004 19:32:57 4.2 C 81 % 1.24 C
1898 07-03-2004 19:44:01 4.2 C 81 % 1.24 C
1899 07-03-2004 19:56:01 4.1 C 81 % 1.14 C
1900 07-03-2004 20:08:01 3.9 C 81 % 0.95 C
Sensor: Nr:Datum:Temp:Feuchte:Taupunkt:
Aussen-T/F 1901 07-03-2004 20:20:01 3.6 C 81 % 0.65 C
1902 07-03-2004 20:32:01 3.6 C 82 % 0.82 C
1903 07-03-2004 20:44:01 3.5 C 82 % 0.72 C
1904 07-03-2004 20:56:00 3.6 C 83 % 0.99 C
1905 07-03-2004 21:08:00 3.6 C 82 % 0.82 C
1906 07-03-2004 21:20:59 3.7 C 82 % 0.92 C
1907 07-03-2004 21:32:58 3.8 C 82 % 1.02 C
1908 07-03-2004 21:44:01 3.6 C 82 % 0.82 C
1909 07-03-2004 21:56:01 3.2 C 81 % 0.26 C
1910 07-03-2004 22:08:00 3.1 C 81 % 0.16 C
1911 07-03-2004 22:20:00 3.1 C 81 % 0.16 C
1912 07-03-2004 22:32:00 3.1 C 82 % 0.33 C
1913 07-03-2004 22:44:00 3.1 C 82 % 0.33 C
1914 07-03-2004 22:56:01 3.2 C 83 % 0.6 C
1915 07-03-2004 23:08:01 3.4 C 83 % 0.79 C
1916 07-03-2004 23:20:01 3.5 C 83 % 0.89 C
1917 07-03-2004 23:32:01 3.5 C 82 % 0.72 C
1918 07-03-2004 23:44:01 3.4 C 82 % 0.63 C
1919 07-03-2004 23:56:01 3.3 C 82 % 0.53 C
1920 08-03-2004 00:08:01 3.2 C 82 % 0.43 C
1921 08-03-2004 00:20:01 3.3 C 82 % 0.53 C
1922 08-03-2004 00:32:01 3.2 C 81 % 0.26 C
1923 08-03-2004 00:44:01 3 C 81 % 0.07 C
1924 08-03-2004 00:56:00 3.1 C 81 % 0.16 C
1925 08-03-2004 01:08:59 3 C 81 % 0.07 C
Sensor: Nr:Datum:Temp:Feuchte:Taupunkt:
Aussen-T/F 1926 08-03-2004 01:20:58 3.2 C 81 % 0.26 C
1927 08-03-2004 01:32:57 3.1 C 81 % 0.16 C
1928 08-03-2004 01:44:01 3.1 C 81 % 0.16 C
1929 08-03-2004 01:56:01 3.1 C 80 % -0.01 C
1930 08-03-2004 02:08:01 3.1 C 80 % -0.01 C
1931 08-03-2004 02:20:01 3.2 C 80 % 0.09 C
1932 08-03-2004 02:32:00 3.2 C 80 % 0.09 C
1933 08-03-2004 02:44:00 3.2 C 80 % 0.09 C
1934 08-03-2004 02:57:03 3.1 C 80 % -0.01 C
1935 08-03-2004 03:09:03 3 C 80 % -0.1 C
1936 08-03-2004 03:21:03 3.1 C 81 % 0.16 C
1937 08-03-2004 03:33:00 3.1 C 81 % 0.16 C
1938 08-03-2004 03:45:00 3.1 C 81 % 0.16 C
1939 08-03-2004 03:57:00 3.1 C 81 % 0.16 C
1940 08-03-2004 04:09:00 3.1 C 81 % 0.16 C
1941 08-03-2004 04:21:59 2.8 C 82 % 0.04 C
1942 08-03-2004 04:33:58 3 C 82 % 0.24 C
1943 08-03-2004 04:45:01 2.9 C 82 % 0.14 C
1944 08-03-2004 04:57:01 2.8 C 82 % 0.04 C
1945 08-03-2004 05:09:00 2.9 C 83 % 0.31 C
1946 08-03-2004 05:21:00 3.1 C 82 % 0.33 C
1947 08-03-2004 05:33:00 3.1 C 82 % 0.33 C
1948 08-03-2004 05:45:01 3.1 C 82 % 0.33 C
1949 08-03-2004 05:57:01 2.9 C 83 % 0.31 C
1950 08-03-2004 06:09:01 3.1 C 82 % 0.33 C
Sensor: Nr:Datum:Temp:Feuchte:Taupunkt:
Aussen-T/F 1951 08-03-2004 06:21:01 2.8 C 82 % 0.04 C
1952 08-03-2004 06:33:01 2.8 C 83 % 0.21 C
1953 08-03-2004 06:45:01 2.8 C 82 % 0.04 C
1954 08-03-2004 06:57:01 2.8 C 81 % -0.13 C
1955 08-03-2004 07:09:01 2.7 C 80 % -0.4 C
1956 08-03-2004 07:21:01 2.7 C 78 % -0.74 C
1957 08-03-2004 07:33:01 2.5 C 75 % -1.47 C
1958 08-03-2004 07:45:01 2.4 C 74 % -1.75 C
1959 08-03-2004 07:57:01 2.3 C 72 % -2.22 C
1960 08-03-2004 08:09:00 2.2 C 71 % -2.5 C
1961 08-03-2004 08:21:59 2.3 C 71 % -2.4 C
1962 08-03-2004 08:33:58 2.2 C 70 % -2.69 C
1963 08-03-2004 08:45:01 2.3 C 70 % -2.59 C
1964 08-03-2004 08:57:01 2.4 C 69 % -2.69 C
1965 08-03-2004 09:09:01 2.4 C 68 % -2.89 C
1966 08-03-2004 09:21:01 2.4 C 66 % -3.29 C
1967 08-03-2004 09:33:01 2.4 C 65 % -3.49 C
1968 08-03-2004 09:45:00 2.4 C 65 % -3.49 C
1969 08-03-2004 09:57:00 2.6 C 65 % -3.3 C
1970 08-03-2004 10:09:00 3.1 C 64 % -3.03 C
1971 08-03-2004 10:21:58 3.4 C 60 % -3.61 C
1972 08-03-2004 10:33:57 3.6 C 60 % -3.42 C
1973 08-03-2004 10:45:01 3.6 C 58 % -3.87 C
1974 08-03-2004 10:57:01 3.5 C 57 % -4.2 C
1975 08-03-2004 11:09:01 3.7 C 58 % -3.78 C
Sensor: Nr:Datum:Temp:Feuchte:Taupunkt:
Aussen-T/F 1976 08-03-2004 11:21:01 4 C 52 % -4.95 C
1977 08-03-2004 11:33:01 4.3 C 52 % -4.67 C
1978 08-03-2004 11:45:01 4 C 50 % -5.46 C
1979 08-03-2004 11:57:01 4 C 48 % -6 C
1980 08-03-2004 12:09:00 4.6 C 48 % -5.45 C
1981 08-03-2004 12:21:58 4.6 C 48 % -5.45 C
1982 08-03-2004 12:33:57 5.1 C 46 % -5.54 C
1983 08-03-2004 12:45:01 5.2 C 42 % -6.64 C
1984 08-03-2004 12:57:01 5 C 42 % -6.82 C
1985 08-03-2004 13:09:01 5.5 C 40 % -7 C
1986 08-03-2004 13:21:01 6.3 C 40 % -6.28 C
1987 08-03-2004 13:33:01 6 C 39 % -6.88 C
1988 08-03-2004 13:45:00 6.1 C 37 % -7.47 C
1989 08-03-2004 13:57:00 6.5 C 35 % -7.83 C
1990 08-03-2004 14:09:59 7 C 33 % -8.15 C
1991 08-03-2004 14:21:58 7.2 C 31 % -8.77 C
1992 08-03-2004 14:33:57 7.6 C 32 % -8.01 C
1993 08-03-2004 14:45:01 7.9 C 30 % -8.58 C
1994 08-03-2004 14:57:01 8.7 C 30 % -7.88 C
1995 08-03-2004 15:09:01 8.9 C 26 % -9.53 C
1996 08-03-2004 15:21:01 9 C 26 % -9.45 C
1997 08-03-2004 15:33:01 9.2 C 20 % -12.56 C
1998 08-03-2004 15:45:01 9 C 20 % -12.72 C
1999 08-03-2004 15:57:01 9.5 C 20 % -12.31 C
2000 08-03-2004 16:09:01 9.8 C 20 % -12.06 C
Sensor: Nr:Datum:Temp:Feuchte:Taupunkt:
Aussen-T/F 2001 08-03-2004 16:21:01 9.2 C 20 % -12.56 C
2002 08-03-2004 16:33:01 9.5 C 20 % -12.31 C
2003 08-03-2004 16:45:01 8.7 C 20 % -12.97 C
2004 08-03-2004 16:57:01 8.7 C 20 % -12.97 C
2005 08-03-2004 17:09:00 8.9 C 23 % -11.07 C
2006 08-03-2004 17:21:59 7.9 C 23 % -11.92 C
2007 08-03-2004 17:33:58 7.6 C 25 % -11.14 C
2008 08-03-2004 17:45:00 7.5 C 20 % -13.97 C
2009 08-03-2004 17:57:00 7.1 C 20 % -14.3 C
2010 08-03-2004 18:09:00 6.2 C 26 % -11.85 C
2011 08-03-2004 18:21:58 5.4 C 31 % -10.34 C
2012 08-03-2004 18:33:57 5.1 C 34 % -9.44 C
2013 08-03-2004 18:45:01 4.6 C 37 % -8.81 C
2014 08-03-2004 18:57:01 4.4 C 39 % -8.32 C
2015 08-03-2004 19:09:01 4.3 C 39 % -8.41 C
2016 08-03-2004 19:21:01 4.2 C 40 % -8.17 C
2017 08-03-2004 19:33:02 4 C 41 % -8.04 C
2018 08-03-2004 19:45:00 3.8 C 43 % -7.61 C
2019 08-03-2004 19:57:00 3.6 C 45 % -7.2 C
2020 08-03-2004 20:09:00 3.4 C 46 % -7.1 C
2021 08-03-2004 20:21:58 3.2 C 48 % -6.73 C
2022 08-03-2004 20:33:57 3 C 49 % -6.65 C
2023 08-03-2004 20:45:01 2.8 C 50 % -6.57 C
2024 08-03-2004 20:57:01 2.5 C 54 % -5.85 C
2025 08-03-2004 21:09:01 2.4 C 54 % -5.94 C
Sensor: Nr:Datum:Temp:Feuchte:Taupunkt:
Aussen-T/F 2026 08-03-2004 21:21:01 2.1 C 56 % -5.74 C
2027 08-03-2004 21:33:01 1.8 C 58 % -5.57 C
2028 08-03-2004 21:45:00 1.6 C 58 % -5.75 C
2029 08-03-2004 21:57:00 1.5 C 61 % -5.19 C
2030 08-03-2004 22:09:00 1.3 C 61 % -5.37 C
2031 08-03-2004 22:21:58 1.3 C 60 % -5.59 C
2032 08-03-2004 22:33:57 1.4 C 59 % -5.72 C
2033 08-03-2004 22:45:01 1.4 C 60 % -5.5 C
2034 08-03-2004 22:57:01 1.3 C 60 % -5.59 C
2035 08-03-2004 23:09:01 1.3 C 60 % -5.59 C
2036 08-03-2004 23:21:01 1.3 C 61 % -5.37 C
2037 08-03-2004 23:33:01 1.4 C 61 % -5.28 C
2038 08-03-2004 23:45:01 1.4 C 61 % -5.28 C
2039 08-03-2004 23:57:01 1.7 C 62 % -4.78 C
2040 09-03-2004 00:09:01 1.6 C 61 % -5.09 C
2041 09-03-2004 00:21:01 1.5 C 61 % -5.19 C
2042 09-03-2004 00:33:01 1.2 C 63 % -5.05 C
2043 09-03-2004 00:45:00 1.2 C 64 % -4.84 C
2044 09-03-2004 00:57:00 1.5 C 64 % -4.55 C
2045 09-03-2004 01:09:00 1.1 C 67 % -4.33 C
2046 09-03-2004 01:21:59 1 C 74 % -3.1 C
2047 09-03-2004 01:33:57 0.8 C 78 % -2.59 C
2048 09-03-2004 01:45:01 0.7 C 79 % -2.51 C
2049 09-03-2004 01:57:01 0.8 C 81 % -2.08 C
2050 09-03-2004 02:09:01 1.1 C 81 % -1.79 C
Sensor: Nr:Datum:Temp:Feuchte:Taupunkt:
Aussen-T/F 2051 09-03-2004 02:21:01 1.2 C 83 % -1.36 C
2052 09-03-2004 02:33:01 1.2 C 82 % -1.52 C
2053 09-03-2004 02:46:01 1.1 C 82 % -1.62 C
2054 09-03-2004 02:58:01 1.2 C 82 % -1.52 C
2055 09-03-2004 03:10:00 1 C 81 % -1.88 C
2056 09-03-2004 03:22:00 1.1 C 82 % -1.62 C
2057 09-03-2004 03:34:01 1 C 82 % -1.72 C
2058 09-03-2004 03:46:01 1.2 C 82 % -1.52 C
2059 09-03-2004 03:58:01 1.3 C 82 % -1.43 C
2060 09-03-2004 04:10:00 1 C 81 % -1.88 C
2061 09-03-2004 04:22:00 0.4 C 81 % -2.47 C
2062 09-03-2004 04:34:00 0.3 C 82 % -2.4 C
2063 09-03-2004 04:46:01 0.3 C 83 % -2.24 C
2064 09-03-2004 04:58:01 0.3 C 84 % -2.08 C
2065 09-03-2004 05:10:01 0.4 C 84 % -1.98 C
2066 09-03-2004 05:22:01 0.4 C 84 % -1.98 C
2067 09-03-2004 05:34:00 0.4 C 84 % -1.98 C
2068 09-03-2004 05:46:01 0.4 C 84 % -1.98 C
2069 09-03-2004 05:58:01 0.3 C 81 % -2.57 C
2070 09-03-2004 06:10:01 0.3 C 80 % -2.73 C
2071 09-03-2004 06:22:01 0.3 C 80 % -2.73 C
2072 09-03-2004 06:34:01 0.2 C 80 % -2.83 C
2073 09-03-2004 06:46:00 0.1 C 81 % -2.76 C
2074 09-03-2004 06:58:00 0 C 80 % -3.03 C
2075 09-03-2004 07:10:00 0 C 80 % -3.03 C
Sensor: Nr:Datum:Temp:Feuchte:Taupunkt:
Aussen-T/F 2076 09-03-2004 07:22:58 0.1 C 81 % -2.76 C
2077 09-03-2004 07:34:57 0.1 C 80 % -2.93 C
2078 09-03-2004 07:46:01 0.2 C 80 % -2.83 C
2079 09-03-2004 07:58:01 0.2 C 80 % -2.83 C
2080 09-03-2004 08:10:01 0.2 C 80 % -2.83 C
2081 09-03-2004 08:22:01 0.4 C 80 % -2.64 C
2082 09-03-2004 08:34:01 0.5 C 80 % -2.54 C
2083 09-03-2004 08:46:01 0.4 C 79 % -2.81 C
2084 09-03-2004 08:58:01 0.2 C 79 % -3 C
2085 09-03-2004 09:10:01 0 C 79 % -3.2 C
2086 09-03-2004 09:22:01 0 C 78 % -3.37 C
2087 09-03-2004 09:34:01 0.2 C 75 % -3.69 C
2088 09-03-2004 09:46:00 0.5 C 73 % -3.76 C
2089 09-03-2004 09:58:00 0.7 C 70 % -4.13 C
2090 09-03-2004 10:10:00 1.2 C 65 % -4.63 C
2091 09-03-2004 10:22:59 1.6 C 63 % -4.67 C
2092 09-03-2004 10:34:58 2.2 C 58 % -5.19 C
2093 09-03-2004 10:46:01 2 C 56 % -5.84 C
2094 09-03-2004 10:58:01 1.8 C 58 % -5.57 C
2095 09-03-2004 11:10:01 1.7 C 56 % -6.12 C
2096 09-03-2004 11:22:01 2.1 C 55 % -5.98 C
2097 09-03-2004 11:34:01 2.4 C 53 % -6.18 C
2098 09-03-2004 11:46:00 2.8 C 49 % -6.83 C
2099 09-03-2004 11:58:00 2.9 C 51 % -6.22 C
2100 09-03-2004 12:10:00 4 C 51 % -5.2 C
Sensor: Nr:Datum:Temp:Feuchte:Taupunkt:
Aussen-T/F 2101 09-03-2004 12:22:58 4 C 46 % -6.55 C
2102 09-03-2004 12:34:57 4 C 48 % -6 C
2103 09-03-2004 12:46:01 4.1 C 47 % -6.18 C
2104 09-03-2004 12:58:01 4 C 47 % -6.27 C
2105 09-03-2004 13:10:01 3.9 C 49 % -5.82 C
2106 09-03-2004 13:22:01 4.3 C 47 % -6 C
2107 09-03-2004 13:34:01 4.7 C 44 % -6.49 C
2108 09-03-2004 13:46:00 4.7 C 41 % -7.4 C
2109 09-03-2004 13:58:00 4.8 C 43 % -6.7 C
2110 09-03-2004 14:10:59 4.7 C 42 % -7.09 C
2111 09-03-2004 14:22:58 4.8 C 43 % -6.7 C
2112 09-03-2004 14:34:57 4.9 C 43 % -6.61 C
2113 09-03-2004 14:46:01 4.8 C 43 % -6.7 C
2114 09-03-2004 14:58:01 5.1 C 42 % -6.73 C
2115 09-03-2004 15:10:01 5.1 C 40 % -7.36 C
2116 09-03-2004 15:22:01 4.8 C 39 % -7.96 C
2117 09-03-2004 15:34:01 4.6 C 41 % -7.49 C
2118 09-03-2004 15:46:01 4.5 C 41 % -7.58 C
2119 09-03-2004 15:58:01 4.5 C 40 % -7.9 C
2120 09-03-2004 16:10:01 4.8 C 39 % -7.96 C
2121 09-03-2004 16:22:01 5 C 37 % -8.45 C
2122 09-03-2004 16:34:01 4.7 C 38 % -8.38 C
2123 09-03-2004 16:46:01 4.3 C 38 % -8.74 C
2124 09-03-2004 16:58:01 4.5 C 39 % -8.23 C
2125 09-03-2004 17:10:00 4.4 C 41 % -7.68 C
Sensor: Nr:Datum:Temp:Feuchte:Taupunkt:
Aussen-T/F 2126 09-03-2004 17:22:58 3.9 C 40 % -8.44 C
2127 09-03-2004 17:34:57 3.8 C 40 % -8.53 C
2128 09-03-2004 17:46:01 3.6 C 40 % -8.71 C
2129 09-03-2004 17:58:01 3.5 C 42 % -8.18 C
2130 09-03-2004 18:10:02 3.2 C 42 % -8.45 C
2131 09-03-2004 18:22:02 2.9 C 48 % -7.01 C
2132 09-03-2004 18:34:02 2.7 C 46 % -7.74 C
2133 09-03-2004 18:46:03 2.4 C 48 % -7.47 C
2134 09-03-2004 18:58:03 2.2 C 49 % -7.39 C
2135 09-03-2004 19:10:01 2 C 50 % -7.31 C
2136 09-03-2004 19:22:59 1.7 C 52 % -7.08 C
2137 09-03-2004 19:34:58 1.3 C 53 % -7.21 C
2138 09-03-2004 19:46:02 1 C 54 % -7.24 C
2139 09-03-2004 19:58:02 0.7 C 58 % -6.6 C
2140 09-03-2004 20:10:01 0.4 C 59 % -6.66 C
2141 09-03-2004 20:22:01 0.3 C 61 % -6.32 C
2142 09-03-2004 20:34:01 0.1 C 62 % -6.3 C
2143 09-03-2004 20:46:01 0.1 C 63 % -6.09 C
2144 09-03-2004 20:58:01 0.1 C 64 % -5.88 C
2145 09-03-2004 21:10:01 -0.2 C 65 % -5.97 C
2146 09-03-2004 21:22:01 -0.3 C 65 % -6.07 C
2147 09-03-2004 21:34:01 -0.4 C 66 % -5.96 C
2148 09-03-2004 21:46:00 -0.3 C 65 % -6.07 C
2149 09-03-2004 21:58:00 -0.3 C 64 % -6.27 C
2150 09-03-2004 22:10:00 -0.3 C 64 % -6.27 C
Sensor: Nr:Datum:Temp:Feuchte:Taupunkt:
Aussen-T/F 2151 09-03-2004 22:22:59 -0.3 C 65 % -6.07 C
2152 09-03-2004 22:34:57 -0.2 C 65 % -5.97 C
2153 09-03-2004 22:46:01 -0.4 C 65 % -6.16 C
2154 09-03-2004 22:58:01 -0.4 C 66 % -5.96 C
2155 09-03-2004 23:10:01 -0.5 C 66 % -6.06 C
2156 09-03-2004 23:22:01 -0.6 C 66 % -6.16 C
2157 09-03-2004 23:34:01 -0.8 C 67 % -6.15 C
2158 09-03-2004 23:46:00 -0.7 C 68 % -5.86 C
2159 09-03-2004 23:58:00 -0.9 C 68 % -6.05 C
2160 10-03-2004 00:09:59 -0.6 C 69 % -5.57 C
2161 10-03-2004 00:22:58 -0.6 C 69 % -5.57 C
2162 10-03-2004 00:34:57 -0.7 C 69 % -5.67 C
2163 10-03-2004 00:46:01 -0.7 C 69 % -5.67 C
2164 10-03-2004 00:58:01 -0.5 C 70 % -5.29 C
2165 10-03-2004 01:10:01 -0.5 C 68 % -5.67 C
2166 10-03-2004 01:22:01 -0.7 C 69 % -5.67 C
2167 10-03-2004 01:34:01 -0.8 C 70 % -5.58 C
2168 10-03-2004 01:46:01 -0.7 C 71 % -5.29 C
2169 10-03-2004 01:58:01 -0.5 C 71 % -5.1 C
2170 10-03-2004 02:10:01 -0.4 C 71 % -5.01 C
2171 10-03-2004 02:22:01 -0.3 C 71 % -4.91 C
2172 10-03-2004 02:34:01 -0.2 C 71 % -4.81 C
2173 10-03-2004 02:47:01 -0.2 C 71 % -4.81 C
2174 10-03-2004 02:59:01 -0.2 C 72 % -4.63 C
2175 10-03-2004 03:11:00 -0.2 C 72 % -4.63 C
Sensor: Nr:Datum:Temp:Feuchte:Taupunkt:
Aussen-T/F 2176 10-03-2004 03:23:00 -0.2 C 74 % -4.26 C
2177 10-03-2004 03:35:01 -0.3 C 74 % -4.36 C
2178 10-03-2004 03:47:01 -0.3 C 76 % -4.01 C
2179 10-03-2004 03:59:01 -0.3 C 76 % -4.01 C
2180 10-03-2004 04:11:01 -0.2 C 76 % -3.91 C
2181 10-03-2004 04:23:00 -0.3 C 76 % -4.01 C
2182 10-03-2004 04:35:00 -0.2 C 77 % -3.74 C
2183 10-03-2004 04:47:01 -0.2 C 78 % -3.56 C
2184 10-03-2004 04:59:01 -0.3 C 78 % -3.66 C
2185 10-03-2004 05:11:01 -0.2 C 79 % -3.39 C
2186 10-03-2004 05:23:01 -0.3 C 79 % -3.49 C
2187 10-03-2004 05:35:01 -0.4 C 79 % -3.59 C
2188 10-03-2004 05:47:01 -0.4 C 79 % -3.59 C
2189 10-03-2004 05:59:01 -0.4 C 79 % -3.59 C
2190 10-03-2004 06:11:01 -0.4 C 79 % -3.59 C
2191 10-03-2004 06:23:01 -0.4 C 79 % -3.59 C
2192 10-03-2004 06:35:01 -0.4 C 79 % -3.59 C
2193 10-03-2004 06:47:00 -0.3 C 79 % -3.49 C
2194 10-03-2004 06:59:00 -0.3 C 79 % -3.49 C
2195 10-03-2004 07:11:00 -0.3 C 78 % -3.66 C
2196 10-03-2004 07:23:58 -0.4 C 78 % -3.76 C
2197 10-03-2004 07:35:57 -0.3 C 78 % -3.66 C
2198 10-03-2004 07:47:02 -0.3 C 78 % -3.66 C
2199 10-03-2004 07:59:02 -0.2 C 79 % -3.39 C
2200 10-03-2004 08:11:01 0 C 79 % -3.2 C
Sensor: Nr:Datum:Temp:Feuchte:Taupunkt:
Aussen-T/F 2201 10-03-2004 08:23:01 0 C 79 % -3.2 C
2202 10-03-2004 08:35:01 0.1 C 79 % -3.1 C
2203 10-03-2004 08:47:00 0.2 C 79 % -3 C
2204 10-03-2004 08:59:00 0.4 C 78 % -2.98 C
2205 10-03-2004 09:11:00 0.6 C 77 % -2.96 C
2206 10-03-2004 09:23:58 0.7 C 77 % -2.86 C
2207 10-03-2004 09:35:57 0.7 C 75 % -3.21 C
2208 10-03-2004 09:47:01 1 C 74 % -3.1 C
2209 10-03-2004 09:59:01 1 C 74 % -3.1 C
2210 10-03-2004 10:11:01 1.1 C 74 % -3 C
2211 10-03-2004 10:23:01 1.1 C 73 % -3.19 C
2212 10-03-2004 10:35:01 1.2 C 73 % -3.09 C
2213 10-03-2004 10:47:01 1.2 C 73 % -3.09 C
2214 10-03-2004 10:59:01 1.2 C 74 % -2.91 C
2215 10-03-2004 11:11:01 1.6 C 75 % -2.34 C
2216 10-03-2004 11:23:01 1.8 C 74 % -2.33 C
2217 10-03-2004 11:35:01 1.9 C 73 % -2.41 C
2218 10-03-2004 11:47:00 1.9 C 73 % -2.41 C
2219 10-03-2004 11:59:00 1.9 C 74 % -2.23 C
2220 10-03-2004 12:11:00 1.9 C 75 % -2.05 C
2221 10-03-2004 12:23:59 2.2 C 73 % -2.13 C
2222 10-03-2004 12:35:58 2 C 72 % -2.5 C
2223 10-03-2004 12:47:01 1.7 C 74 % -2.42 C
2224 10-03-2004 12:59:01 2 C 74 % -2.13 C
2225 10-03-2004 13:11:02 2 C 73 % -2.32 C
Sensor: Nr:Datum:Temp:Feuchte:Taupunkt:
Aussen-T/F 2226 10-03-2004 13:23:01 2.3 C 74 % -1.85 C
2227 10-03-2004 13:35:01 2.4 C 73 % -1.93 C
2228 10-03-2004 13:47:00 2.2 C 72 % -2.31 C
2229 10-03-2004 13:59:00 2.4 C 70 % -2.5 C
2230 10-03-2004 14:11:00 2.7 C 68 % -2.6 C
2231 10-03-2004 14:23:58 2.3 C 70 % -2.59 C
2232 10-03-2004 14:35:57 2.5 C 71 % -2.21 C
2233 10-03-2004 14:47:01 2.8 C 71 % -1.92 C
2234 10-03-2004 14:59:01 3.4 C 67 % -2.13 C
2235 10-03-2004 15:11:01 3.6 C 66 % -2.14 C
2236 10-03-2004 15:23:01 3.4 C 66 % -2.33 C
2237 10-03-2004 15:35:01 3.2 C 66 % -2.53 C
2238 10-03-2004 15:47:00 3.2 C 66 % -2.53 C
2239 10-03-2004 15:59:00 3.4 C 66 % -2.33 C
2240 10-03-2004 16:11:59 3.2 C 66 % -2.53 C
2241 10-03-2004 16:23:58 3 C 66 % -2.72 C
2242 10-03-2004 16:35:57 3 C 67 % -2.51 C
2243 10-03-2004 16:47:01 3.2 C 67 % -2.32 C
2244 10-03-2004 16:59:01 2.7 C 68 % -2.6 C
2245 10-03-2004 17:11:01 2.2 C 71 % -2.5 C
2246 10-03-2004 17:23:01 2.2 C 74 % -1.94 C
2247 10-03-2004 17:35:00 2.2 C 74 % -1.94 C
2248 10-03-2004 17:47:01 2.1 C 75 % -1.86 C
2249 10-03-2004 17:59:01 2 C 75 % -1.95 C
2250 10-03-2004 18:11:01 1.8 C 76 % -1.97 C
Sensor: Nr:Datum:Temp:Feuchte:Taupunkt:
Aussen-T/F 2251 10-03-2004 18:23:01 1.7 C 77 % -1.89 C
2252 10-03-2004 18:35:01 1.4 C 78 % -2.01 C
2253 10-03-2004 18:47:00 1.3 C 79 % -1.93 C
2254 10-03-2004 18:59:00 1.3 C 79 % -1.93 C
2255 10-03-2004 19:11:00 1.3 C 79 % -1.93 C
2256 10-03-2004 19:23:01 1.2 C 79 % -2.03 C
2257 10-03-2004 19:35:00 1.2 C 80 % -1.86 C
2258 10-03-2004 19:47:01 1.2 C 80 % -1.86 C
2259 10-03-2004 19:59:01 1.3 C 81 % -1.59 C
2260 10-03-2004 20:11:02 1.4 C 81 % -1.49 C
2261 10-03-2004 20:23:01 1.1 C 80 % -1.96 C
2262 10-03-2004 20:35:01 0.7 C 80 % -2.34 C
2263 10-03-2004 20:47:01 0.5 C 81 % -2.37 C
2264 10-03-2004 20:59:01 0.5 C 82 % -2.21 C
2265 10-03-2004 21:11:00 0.6 C 82 % -2.11 C
2266 10-03-2004 21:23:59 0.7 C 82 % -2.01 C
2267 10-03-2004 21:35:58 0.6 C 83 % -1.95 C
2268 10-03-2004 21:47:01 0.6 C 84 % -1.78 C
2269 10-03-2004 21:59:01 0.5 C 84 % -1.88 C
2270 10-03-2004 22:11:01 0.6 C 85 % -1.62 C
2271 10-03-2004 22:23:01 0.7 C 85 % -1.53 C
2272 10-03-2004 22:35:01 0.7 C 85 % -1.53 C
2273 10-03-2004 22:47:00 0.6 C 84 % -1.78 C
2274 10-03-2004 22:59:00 0.5 C 84 % -1.88 C
2275 10-03-2004 23:11:00 0.3 C 84 % -2.08 C
Sensor: Nr:Datum:Temp:Feuchte:Taupunkt:
Aussen-T/F 2276 10-03-2004 23:23:58 0.2 C 84 % -2.18 C
2277 10-03-2004 23:35:57 -0.2 C 84 % -2.57 C
2278 10-03-2004 23:47:01 -0.3 C 84 % -2.67 C
2279 10-03-2004 23:59:01 -0.3 C 84 % -2.67 C
2280 11-03-2004 00:11:01 -0.4 C 84 % -2.77 C
2281 11-03-2004 00:23:01 -0.7 C 83 % -3.22 C
2282 11-03-2004 00:35:01 -0.8 C 83 % -3.32 C
2283 11-03-2004 00:47:01 -1 C 83 % -3.51 C
2284 11-03-2004 00:59:01 -1.1 C 83 % -3.61 C
2285 11-03-2004 01:11:01 -1.1 C 83 % -3.61 C
2286 11-03-2004 01:23:01 -1.3 C 83 % -3.81 C
2287 11-03-2004 01:35:01 -1.3 C 84 % -3.65 C
2288 11-03-2004 01:47:00 -1.3 C 83 % -3.81 C
2289 11-03-2004 01:59:00 -1.3 C 83 % -3.81 C
2290 11-03-2004 02:11:00 -1.4 C 83 % -3.91 C
2291 11-03-2004 02:23:59 -1.1 C 84 % -3.45 C
2292 11-03-2004 02:35:57 -1 C 84 % -3.35 C
2293 11-03-2004 02:48:02 -0.8 C 85 % -3 C
2294 11-03-2004 03:00:02 -0.8 C 85 % -3 C
2295 11-03-2004 03:12:02 -0.8 C 84 % -3.16 C
2296 11-03-2004 03:24:02 -0.7 C 84 % -3.06 C
2297 11-03-2004 03:36:00 -0.7 C 84 % -3.06 C
2298 11-03-2004 03:48:00 -0.7 C 84 % -3.06 C
2299 11-03-2004 04:00:00 -0.7 C 84 % -3.06 C
2300 11-03-2004 04:12:59 -0.7 C 84 % -3.06 C
Sensor: Nr:Datum:Temp:Feuchte:Taupunkt:
Aussen-T/F 2301 11-03-2004 04:24:58 -0.7 C 84 % -3.06 C
2302 11-03-2004 04:36:57 -0.6 C 84 % -2.96 C
2303 11-03-2004 04:48:01 -0.7 C 84 % -3.06 C
2304 11-03-2004 05:00:01 -0.7 C 84 % -3.06 C
2305 11-03-2004 05:12:01 -0.7 C 84 % -3.06 C
2306 11-03-2004 05:24:01 -0.7 C 84 % -3.06 C
2307 11-03-2004 05:36:01 -0.7 C 84 % -3.06 C
2308 11-03-2004 05:48:01 -0.6 C 83 % -3.12 C
2309 11-03-2004 06:00:01 -0.7 C 83 % -3.22 C
2310 11-03-2004 06:12:01 -0.7 C 83 % -3.22 C
2311 11-03-2004 06:24:01 -0.6 C 83 % -3.12 C
2312 11-03-2004 06:36:01 -0.6 C 83 % -3.12 C
2313 11-03-2004 06:48:00 -0.6 C 83 % -3.12 C
2314 11-03-2004 07:00:00 -0.7 C 83 % -3.22 C
2315 11-03-2004 07:12:00 -0.7 C 82 % -3.38 C
2316 11-03-2004 07:24:59 -0.7 C 82 % -3.38 C
2317 11-03-2004 07:36:58 -0.7 C 82 % -3.38 C
2318 11-03-2004 07:48:01 -0.5 C 82 % -3.19 C
2319 11-03-2004 08:00:01 -0.5 C 82 % -3.19 C
2320 11-03-2004 08:12:01 -0.5 C 82 % -3.19 C
2321 11-03-2004 08:24:01 -0.3 C 82 % -2.99 C
2322 11-03-2004 08:36:01 -0.3 C 81 % -3.16 C
2323 11-03-2004 08:48:01 -0.1 C 81 % -2.96 C
2324 11-03-2004 09:00:01 -0.1 C 81 % -2.96 C
2325 11-03-2004 09:12:01 0 C 80 % -3.03 C
Sensor: Nr:Datum:Temp:Feuchte:Taupunkt:
Aussen-T/F 2326 11-03-2004 09:24:01 0.1 C 80 % -2.93 C
2327 11-03-2004 09:36:01 0.4 C 80 % -2.64 C
2328 11-03-2004 09:48:00 1 C 78 % -2.39 C
2329 11-03-2004 10:00:00 1.2 C 77 % -2.37 C
2330 11-03-2004 10:12:00 1.2 C 77 % -2.37 C
2331 11-03-2004 10:24:58 1.6 C 76 % -2.16 C
2332 11-03-2004 10:36:57 2 C 75 % -1.95 C
2333 11-03-2004 10:48:02 2 C 71 % -2.69 C
2334 11-03-2004 11:00:02 2.5 C 71 % -2.21 C
2335 11-03-2004 11:12:01 2.7 C 70 % -2.21 C
2336 11-03-2004 11:24:01 2.7 C 69 % -2.4 C
2337 11-03-2004 11:36:01 2.9 C 69 % -2.21 C
2338 11-03-2004 11:48:01 3.2 C 68 % -2.12 C
2339 11-03-2004 12:00:01 3.1 C 67 % -2.42 C
2340 11-03-2004 12:12:02 2.9 C 66 % -2.81 C
2341 11-03-2004 12:24:01 3.1 C 64 % -3.03 C
2342 11-03-2004 12:36:01 2.9 C 65 % -3.02 C
2343 11-03-2004 12:48:00 3.5 C 63 % -2.86 C
2344 11-03-2004 13:00:00 4 C 60 % -3.05 C
2345 11-03-2004 13:12:00 4.1 C 61 % -2.73 C
2346 11-03-2004 13:24:59 3.6 C 61 % -3.2 C
2347 11-03-2004 13:36:57 3.8 C 63 % -2.58 C
2348 11-03-2004 13:48:01 3.6 C 60 % -3.42 C
2349 11-03-2004 14:00:01 4.1 C 57 % -3.64 C
2350 11-03-2004 14:12:01 4.5 C 57 % -3.26 C
Sensor: Nr:Datum:Temp:Feuchte:Taupunkt:
Aussen-T/F 2351 11-03-2004 14:24:01 4.7 C 58 % -2.84 C
2352 11-03-2004 14:36:01 4.1 C 55 % -4.11 C
2353 11-03-2004 14:48:00 4.1 C 60 % -2.95 C
2354 11-03-2004 15:00:00 4.2 C 59 % -3.08 C
2355 11-03-2004 15:11:59 4.3 C 58 % -3.22 C
2356 11-03-2004 15:24:58 4.3 C 55 % -3.93 C
2357 11-03-2004 15:36:57 3.9 C 60 % -3.14 C
2358 11-03-2004 15:48:01 3.2 C 64 % -2.94 C
2359 11-03-2004 16:00:01 3.1 C 67 % -2.42 C
2360 11-03-2004 16:12:01 3 C 70 % -1.92 C
2361 11-03-2004 16:24:01 2.9 C 72 % -1.64 C
2362 11-03-2004 16:36:01 2.7 C 74 % -1.46 C
2363 11-03-2004 16:48:01 2.7 C 75 % -1.28 C
2364 11-03-2004 17:00:01 2.6 C 75 % -1.37 C
2365 11-03-2004 17:12:01 2.6 C 76 % -1.19 C
2366 11-03-2004 17:24:01 2.3 C 77 % -1.31 C
2367 11-03-2004 17:36:01 2.2 C 77 % -1.4 C
2368 11-03-2004 17:48:01 2.4 C 79 % -0.86 C
2369 11-03-2004 18:00:01 2.3 C 79 % -0.96 C
2370 11-03-2004 18:12:01 2.2 C 79 % -1.05 C
2371 11-03-2004 18:24:02 1.9 C 80 % -1.18 C
2372 11-03-2004 18:36:02 1.9 C 80 % -1.18 C
2373 11-03-2004 18:48:02 1.7 C 81 % -1.2 C
2374 11-03-2004 19:00:02 1.4 C 81 % -1.49 C
2375 11-03-2004 19:12:02 1.3 C 82 % -1.43 C
Sensor: Nr:Datum:Temp:Feuchte:Taupunkt:
Aussen-T/F 2376 11-03-2004 19:24:01 1.2 C 82 % -1.52 C
2377 11-03-2004 19:36:02 1.1 C 82 % -1.62 C
2378 11-03-2004 19:48:02 1.3 C 83 % -1.26 C
2379 11-03-2004 20:00:02 1.2 C 83 % -1.36 C
2380 11-03-2004 20:12:02 1.2 C 83 % -1.36 C
2381 11-03-2004 20:24:01 1.2 C 83 % -1.36 C
2382 11-03-2004 20:36:01 1.2 C 83 % -1.36 C
2383 11-03-2004 20:48:01 1.3 C 84 % -1.1 C
2384 11-03-2004 21:00:01 1.4 C 84 % -1 C
2385 11-03-2004 21:12:00 1.3 C 84 % -1.1 C
2386 11-03-2004 21:24:59 1.4 C 83 % -1.16 C
2387 11-03-2004 21:36:58 1.3 C 83 % -1.26 C
2388 11-03-2004 21:48:01 1.3 C 83 % -1.26 C
2389 11-03-2004 22:00:01 1.3 C 83 % -1.26 C
2390 11-03-2004 22:12:01 1.3 C 83 % -1.26 C
2391 11-03-2004 22:24:02 1.3 C 83 % -1.26 C
2392 11-03-2004 22:36:01 1.3 C 82 % -1.43 C
2393 11-03-2004 22:48:01 1.3 C 83 % -1.26 C
2394 11-03-2004 23:00:01 1.2 C 82 % -1.52 C
2395 11-03-2004 23:12:01 1.2 C 83 % -1.36 C
2396 11-03-2004 23:24:59 1.3 C 83 % -1.26 C
2397 11-03-2004 23:36:58 1.2 C 83 % -1.36 C
2398 11-03-2004 23:48:01 1.2 C 83 % -1.36 C
2399 12-03-2004 00:00:01 1.1 C 82 % -1.62 C
2400 12-03-2004 00:12:01 1.2 C 82 % -1.52 C
Sensor: Nr:Datum:Temp:Feuchte:Taupunkt:
Aussen-T/F 2401 12-03-2004 00:24:00 1.2 C 82 % -1.52 C
2402 12-03-2004 00:36:00 1.1 C 82 % -1.62 C
2403 12-03-2004 00:48:01 1.1 C 82 % -1.62 C
2404 12-03-2004 01:00:01 1 C 82 % -1.72 C
2405 12-03-2004 01:12:01 1 C 82 % -1.72 C
2406 12-03-2004 01:24:00 0.9 C 82 % -1.82 C
2407 12-03-2004 01:36:00 0.9 C 82 % -1.82 C
2408 12-03-2004 01:48:01 0.9 C 82 % -1.82 C
2409 12-03-2004 02:00:01 0.9 C 82 % -1.82 C
2410 12-03-2004 02:12:01 0.9 C 82 % -1.82 C
2411 12-03-2004 02:24:01 0.5 C 81 % -2.37 C
2412 12-03-2004 02:36:01 0.3 C 81 % -2.57 C
2413 12-03-2004 02:49:02 0.1 C 80 % -2.93 C
2414 12-03-2004 03:01:02 -0.4 C 80 % -3.42 C
2415 12-03-2004 03:13:02 -0.7 C 80 % -3.71 C
2416 12-03-2004 03:25:02 -0.9 C 81 % -3.74 C
2417 12-03-2004 03:37:00 -1 C 82 % -3.68 C
2418 12-03-2004 03:49:00 -1.2 C 82 % -3.87 C
2419 12-03-2004 04:01:00 -1.3 C 82 % -3.97 C
2420 12-03-2004 04:13:00 -1.2 C 83 % -3.71 C
2421 12-03-2004 04:25:59 -1.1 C 83 % -3.61 C
2422 12-03-2004 04:37:58 -1.1 C 83 % -3.61 C
2423 12-03-2004 04:49:01 -1 C 83 % -3.51 C
2424 12-03-2004 05:01:01 -1 C 84 % -3.35 C
2425 12-03-2004 05:13:01 -0.8 C 84 % -3.16 C
Sensor: Nr:Datum:Temp:Feuchte:Taupunkt:
Aussen-T/F 2426 12-03-2004 05:25:01 -0.7 C 84 % -3.06 C
2427 12-03-2004 05:37:00 -0.6 C 84 % -2.96 C
2428 12-03-2004 05:49:01 -0.4 C 83 % -2.93 C
2429 12-03-2004 06:01:01 -0.4 C 82 % -3.09 C
2430 12-03-2004 06:13:01 -0.6 C 81 % -3.45 C
2431 12-03-2004 06:25:01 -0.5 C 81 % -3.35 C
2432 12-03-2004 06:37:01 -0.4 C 81 % -3.25 C
2433 12-03-2004 06:49:00 -0.1 C 78 % -3.47 C
2434 12-03-2004 07:01:59 -0.1 C 77 % -3.64 C
2435 12-03-2004 07:12:59 -0.2 C 78 % -3.56 C
2436 12-03-2004 07:25:59 0 C 78 % -3.37 C
2437 12-03-2004 07:37:58 0 C 78 % -3.37 C
2438 12-03-2004 07:49:01 0.3 C 76 % -3.42 C
2439 12-03-2004 08:01:00 0.6 C 74 % -3.49 C
2440 12-03-2004 08:13:00 1 C 70 % -3.84 C
2441 12-03-2004 08:25:00 1.2 C 69 % -3.84 C
2442 12-03-2004 08:37:01 1.5 C 69 % -3.55 C
2443 12-03-2004 08:49:01 1.7 C 67 % -3.75 C
2444 12-03-2004 09:01:01 1.7 C 65 % -4.16 C
2445 12-03-2004 09:13:01 1.8 C 65 % -4.06 C
2446 12-03-2004 09:25:01 2.2 C 65 % -3.68 C
2447 12-03-2004 09:37:01 2.3 C 61 % -4.43 C
2448 12-03-2004 09:49:01 2.4 C 61 % -4.34 C
2449 12-03-2004 10:01:01 2.9 C 61 % -3.86 C
2450 12-03-2004 10:13:01 3.3 C 58 % -4.16 C
Sensor: Nr:Datum:Temp:Feuchte:Taupunkt:
Aussen-T/F 2451 12-03-2004 10:25:02 3.6 C 56 % -4.34 C
2452 12-03-2004 10:37:01 4.2 C 54 % -4.26 C
2453 12-03-2004 10:49:00 4.2 C 54 % -4.26 C
2454 12-03-2004 11:01:00 4.5 C 53 % -4.23 C
2455 12-03-2004 11:13:00 4.3 C 52 % -4.67 C
2456 12-03-2004 11:25:59 4.5 C 54 % -3.98 C
2457 12-03-2004 11:37:57 4.7 C 52 % -4.3 C
2458 12-03-2004 11:49:01 5.4 C 51 % -3.91 C
2459 12-03-2004 12:01:01 5.9 C 48 % -4.25 C
2460 12-03-2004 12:13:01 5.9 C 48 % -4.25 C
2461 12-03-2004 12:25:01 6 C 46 % -4.72 C
2462 12-03-2004 12:37:01 6 C 44 % -5.31 C
2463 12-03-2004 12:49:00 6.7 C 43 % -4.97 C
2464 12-03-2004 13:01:00 6.5 C 43 % -5.16 C
2465 12-03-2004 13:13:00 6.2 C 43 % -5.43 C
2466 12-03-2004 13:25:58 6 C 44 % -5.31 C
2467 12-03-2004 13:37:57 6.2 C 45 % -4.83 C
2468 12-03-2004 13:49:01 6.3 C 43 % -5.34 C
2469 12-03-2004 14:01:01 6.5 C 42 % -5.46 C
2470 12-03-2004 14:13:01 6.6 C 43 % -5.07 C
2471 12-03-2004 14:25:01 6.3 C 43 % -5.34 C
2472 12-03-2004 14:37:01 6.3 C 43 % -5.34 C
2473 12-03-2004 14:49:02 6.6 C 44 % -4.76 C
2474 12-03-2004 15:01:01 6.5 C 45 % -4.56 C
2475 12-03-2004 15:13:01 6.4 C 45 % -4.65 C
Sensor: Nr:Datum:Temp:Feuchte:Taupunkt:
Aussen-T/F 2476 12-03-2004 15:25:01 6.5 C 44 % -4.85 C
2477 12-03-2004 15:37:02 6.5 C 43 % -5.16 C
2478 12-03-2004 15:49:01 6.4 C 42 % -5.56 C
2479 12-03-2004 16:01:01 6.2 C 42 % -5.74 C
2480 12-03-2004 16:13:01 6.2 C 42 % -5.74 C
2481 12-03-2004 16:25:01 6.2 C 41 % -6.05 C
2482 12-03-2004 16:37:01 6.2 C 41 % -6.05 C
2483 12-03-2004 16:49:00 6.2 C 43 % -5.43 C
2484 12-03-2004 17:01:00 5.9 C 47 % -4.53 C
2485 12-03-2004 17:13:00 5.8 C 48 % -4.34 C
2486 12-03-2004 17:25:59 5.7 C 49 % -4.16 C
2487 12-03-2004 17:37:58 5.9 C 49 % -3.98 C
2488 12-03-2004 17:49:01 5.9 C 49 % -3.98 C
2489 12-03-2004 18:01:01 5.9 C 50 % -3.71 C
2490 12-03-2004 18:13:01 5.9 C 51 % -3.44 C
2491 12-03-2004 18:25:01 5.9 C 52 % -3.19 C
2492 12-03-2004 18:37:00 5.9 C 54 % -2.68 C
2493 12-03-2004 18:49:01 5.9 C 55 % -2.43 C
2494 12-03-2004 19:01:01 5.7 C 59 % -1.67 C
2495 12-03-2004 19:13:01 5.6 C 62 % -1.09 C
2496 12-03-2004 19:25:01 5.6 C 62 % -1.09 C
2497 12-03-2004 19:37:01 5.8 C 62 % -0.9 C
2498 12-03-2004 19:49:01 5.8 C 62 % -0.9 C
2499 12-03-2004 20:01:02 5.5 C 66 % -0.33 C
2500 12-03-2004 20:13:02 5.5 C 67 % -0.13 C
Sensor: Nr:Datum:Temp:Feuchte:Taupunkt:
Aussen-T/F 2501 12-03-2004 20:25:02 5.7 C 68 % 0.27 C
2502 12-03-2004 20:37:01 5.7 C 69 % 0.47 C
2503 12-03-2004 20:49:02 5.8 C 69 % 0.56 C
2504 12-03-2004 21:01:01 5.9 C 68 % 0.46 C
2505 12-03-2004 21:13:01 6 C 67 % 0.35 C
2506 12-03-2004 21:25:02 6 C 67 % 0.35 C
2507 12-03-2004 21:37:02 6.1 C 67 % 0.44 C
2508 12-03-2004 21:49:01 6.1 C 67 % 0.44 C
2509 12-03-2004 22:01:00 6.2 C 67 % 0.54 C
2510 12-03-2004 22:13:00 6.2 C 67 % 0.54 C
2511 12-03-2004 22:25:00 6.2 C 68 % 0.75 C
2512 12-03-2004 22:37:58 6.1 C 68 % 0.65 C
2513 12-03-2004 22:49:01 6 C 69 % 0.76 C
2514 12-03-2004 23:01:01 6.1 C 69 % 0.85 C
2515 12-03-2004 23:13:01 6.2 C 69 % 0.95 C
2516 12-03-2004 23:25:01 6.1 C 69 % 0.85 C
2517 12-03-2004 23:37:01 6.1 C 70 % 1.05 C
2518 12-03-2004 23:49:00 6 C 70 % 0.95 C
2519 13-03-2004 00:01:00 6.4 C 70 % 1.34 C
2520 13-03-2004 00:13:00 6.3 C 70 % 1.24 C
2521 13-03-2004 00:25:59 6.4 C 71 % 1.54 C
2522 13-03-2004 00:37:57 6.3 C 71 % 1.44 C
2523 13-03-2004 00:49:01 6.2 C 72 % 1.54 C
2524 13-03-2004 01:01:01 6.3 C 72 % 1.63 C
2525 13-03-2004 01:13:01 6.3 C 72 % 1.63 C
Sensor: Nr:Datum:Temp:Feuchte:Taupunkt:
Aussen-T/F 2526 13-03-2004 01:25:01 6.3 C 72 % 1.63 C
2527 13-03-2004 01:37:01 6.4 C 72 % 1.73 C
2528 13-03-2004 01:49:01 6.4 C 73 % 1.92 C
2529 13-03-2004 02:01:01 6.4 C 72 % 1.73 C
2530 13-03-2004 02:13:01 6.4 C 73 % 1.92 C
2531 13-03-2004 02:25:01 6.6 C 72 % 1.92 C
2532 13-03-2004 02:37:01 6.7 C 72 % 2.02 C
2533 13-03-2004 02:50:01 6.8 C 72 % 2.12 C
2534 13-03-2004 03:02:01 6.8 C 72 % 2.12 C
2535 13-03-2004 03:14:00 7 C 70 % 1.91 C
2536 13-03-2004 03:26:00 7 C 70 % 1.91 C
2537 13-03-2004 03:38:01 6.9 C 72 % 2.21 C
2538 13-03-2004 03:50:01 7 C 71 % 2.11 C
2539 13-03-2004 04:02:01 7.1 C 70 % 2.01 C
2540 13-03-2004 04:14:01 7.2 C 70 % 2.11 C
2541 13-03-2004 04:26:00 7.3 C 70 % 2.2 C
2542 13-03-2004 04:38:00 7.4 C 69 % 2.1 C
2543 13-03-2004 04:50:01 7.4 C 69 % 2.1 C
2544 13-03-2004 05:02:01 7.6 C 69 % 2.29 C
2545 13-03-2004 05:14:01 7.5 C 69 % 2.19 C
2546 13-03-2004 05:26:01 7.6 C 69 % 2.29 C
2547 13-03-2004 05:38:01 7.6 C 70 % 2.49 C
2548 13-03-2004 05:50:00 7.6 C 70 % 2.49 C
2549 13-03-2004 06:02:59 7.5 C 71 % 2.59 C
2550 13-03-2004 06:14:58 7.3 C 72 % 2.6 C
Sensor: Nr:Datum:Temp:Feuchte:Taupunkt:
Aussen-T/F 2551 13-03-2004 06:26:58 7.2 C 73 % 2.69 C
2552 13-03-2004 06:38:57 7.2 C 74 % 2.89 C
2553 13-03-2004 06:50:01 7.2 C 74 % 2.89 C
2554 13-03-2004 07:02:01 7.3 C 74 % 2.98 C
2555 13-03-2004 07:14:01 7.4 C 74 % 3.08 C
2556 13-03-2004 07:26:01 7.5 C 73 % 2.98 C
2557 13-03-2004 07:38:00 7.5 C 73 % 2.98 C
2558 13-03-2004 07:50:01 7.8 C 73 % 3.27 C
2559 13-03-2004 08:02:01 7.9 C 72 % 3.17 C
2560 13-03-2004 08:14:01 8.1 C 71 % 3.17 C
2561 13-03-2004 08:26:01 8.4 C 70 % 3.26 C
2562 13-03-2004 08:38:01 8.9 C 68 % 3.32 C
2563 13-03-2004 08:50:01 9 C 66 % 3 C
2564 13-03-2004 09:02:03 9.3 C 66 % 3.28 C
2565 13-03-2004 09:14:03 9.5 C 66 % 3.47 C
2566 13-03-2004 09:26:58 9.7 C 65 % 3.45 C
2567 13-03-2004 09:38:58 9.8 C 65 % 3.54 C
2568 13-03-2004 09:50:01 10 C 63 % 3.29 C
2569 13-03-2004 10:02:01 10.1 C 63 % 3.39 C
2570 13-03-2004 10:14:01 10.1 C 62 % 3.16 C
2571 13-03-2004 10:26:02 10.1 C 61 % 2.93 C
2572 13-03-2004 10:38:03 10.2 C 61 % 3.03 C
2573 13-03-2004 10:50:01 10.4 C 60 % 2.98 C
2574 13-03-2004 11:02:01 10.5 C 59 % 2.84 C
2575 13-03-2004 11:14:01 10.8 C 58 % 2.88 C
Sensor: Nr:Datum:Temp:Feuchte:Taupunkt:
Aussen-T/F 2576 13-03-2004 11:26:01 11.1 C 55 % 2.41 C
2577 13-03-2004 11:38:01 11.3 C 54 % 2.34 C
2578 13-03-2004 11:50:01 11.4 C 52 % 1.91 C
2579 13-03-2004 12:02:00 11.6 C 50 % 1.54 C
2580 13-03-2004 12:14:00 11.7 C 49 % 1.36 C
2581 13-03-2004 12:26:59 11.8 C 48 % 1.16 C
2582 13-03-2004 12:38:58 11.9 C 48 % 1.25 C
2583 13-03-2004 12:50:01 12.1 C 45 % 0.54 C
2584 13-03-2004 13:02:01 12.5 C 45 % 0.91 C
2585 13-03-2004 13:14:01 12.5 C 43 % 0.28 C
2586 13-03-2004 13:26:00 12.7 C 43 % 0.46 C
2587 13-03-2004 13:38:00 13 C 41 % 0.07 C
2588 13-03-2004 13:50:01 12.7 C 41 % -0.2 C
2589 13-03-2004 14:02:01 12.6 C 40 % -0.62 C
2590 13-03-2004 14:14:01 12.5 C 41 % -0.38 C
2591 13-03-2004 14:26:01 12.4 C 42 % -0.14 C
2592 13-03-2004 14:38:01 12.6 C 42 % 0.04 C
2593 13-03-2004 14:50:01 12.5 C 46 % 1.21 C
2594 13-03-2004 15:02:01 12.9 C 47 % 1.87 C
2595 13-03-2004 15:14:01 12.7 C 47 % 1.69 C
2596 13-03-2004 15:26:00 12.9 C 46 % 1.57 C
2597 13-03-2004 15:38:00 12.6 C 45 % 1 C
2598 13-03-2004 15:50:01 12.5 C 45 % 0.91 C
2599 13-03-2004 16:02:01 12.7 C 45 % 1.09 C
2600 13-03-2004 16:14:01 12.7 C 44 % 0.78 C
Sensor: Nr:Datum:Temp:Feuchte:Taupunkt:
Aussen-T/F 2601 13-03-2004 16:26:01 12.9 C 43 % 0.64 C
2602 13-03-2004 16:38:08 12.8 C 42 % 0.22 C
2603 13-03-2004 16:50:02 12.9 C 40 % -0.36 C
2604 13-03-2004 17:02:01 12.6 C 40 % -0.62 C
2605 13-03-2004 17:14:01 12.4 C 40 % -0.8 C
2606 13-03-2004 17:26:02 12.4 C 41 % -0.47 C
2607 13-03-2004 17:38:02 12.7 C 39 % -0.88 C
2608 13-03-2004 17:50:01 12.2 C 40 % -0.98 C
2609 13-03-2004 18:02:01 11.9 C 40 % -1.25 C
2610 13-03-2004 18:14:01 11.5 C 41 % -1.28 C
2611 13-03-2004 18:26:01 11.2 C 45 % -0.28 C
2612 13-03-2004 18:38:01 10.7 C 47 % -0.14 C
2613 13-03-2004 18:50:01 10.4 C 48 % -0.12 C
2614 13-03-2004 19:02:01 10.1 C 50 % 0.16 C
2615 13-03-2004 19:14:01 9.8 C 50 % -0.11 C
2616 13-03-2004 19:26:00 9.7 C 51 % 0.07 C
2617 13-03-2004 19:38:00 9.2 C 52 % -0.13 C
2618 13-03-2004 19:50:02 9.1 C 54 % 0.3 C
2619 13-03-2004 20:02:02 8.8 C 56 % 0.52 C
2620 13-03-2004 20:14:02 8.6 C 57 % 0.58 C
2621 13-03-2004 20:26:01 8.4 C 58 % 0.63 C
2622 13-03-2004 20:38:01 8.3 C 58 % 0.54 C
2623 13-03-2004 20:50:00 8.3 C 57 % 0.3 C
2624 13-03-2004 21:13:59 8.2 C 57 % 0.2 C
2625 13-03-2004 21:14:58 8 C 58 % 0.25 C
Sensor: Nr:Datum:Temp:Feuchte:Taupunkt:
Aussen-T/F 2626 13-03-2004 21:26:58 7.9 C 60 % 0.63 C
2627 13-03-2004 21:38:57 7.8 C 60 % 0.53 C
2628 13-03-2004 21:50:01 7.7 C 60 % 0.44 C
2629 13-03-2004 22:02:01 7.7 C 59 % 0.21 C
2630 13-03-2004 22:14:01 7.7 C 58 % -0.03 C
2631 13-03-2004 22:26:01 7.7 C 58 % -0.03 C
2632 13-03-2004 22:38:01 7.5 C 58 % -0.21 C
2633 13-03-2004 22:50:00 7.4 C 58 % -0.31 C
2634 13-03-2004 23:02:58 7.4 C 58 % -0.31 C
2635 13-03-2004 23:14:57 7.1 C 61 % 0.1 C
2636 13-03-2004 23:26:57 7.3 C 59 % -0.17 C
2637 13-03-2004 23:38:57 7.2 C 60 % -0.03 C
2638 13-03-2004 23:50:01 7.2 C 59 % -0.26 C
2639 14-03-2004 00:02:01 7.1 C 59 % -0.36 C
2640 14-03-2004 00:14:01 7.1 C 60 % -0.13 C
2641 14-03-2004 00:26:01 7.1 C 60 % -0.13 C
2642 14-03-2004 00:38:01 7 C 60 % -0.22 C
2643 14-03-2004 00:50:01 6.9 C 61 % -0.09 C
2644 14-03-2004 01:02:01 6.8 C 62 % 0.04 C
2645 14-03-2004 01:14:01 6.7 C 63 % 0.17 C
2646 14-03-2004 01:26:01 6.6 C 64 % 0.29 C
2647 14-03-2004 01:38:01 6.5 C 65 % 0.41 C
2648 14-03-2004 01:50:01 6.4 C 65 % 0.31 C
2649 14-03-2004 02:02:01 6.3 C 65 % 0.22 C
2650 14-03-2004 02:14:01 6.2 C 65 % 0.12 C
Sensor: Nr:Datum:Temp:Feuchte:Taupunkt:
Aussen-T/F 2651 14-03-2004 02:26:01 6 C 66 % 0.14 C
2652 14-03-2004 02:38:00 5.9 C 68 % 0.46 C
2653 14-03-2004 02:51:03 5.7 C 69 % 0.47 C
2654 14-03-2004 03:03:03 5.5 C 69 % 0.28 C
2655 14-03-2004 03:15:02 5.3 C 71 % 0.48 C
2656 14-03-2004 03:27:02 5.1 C 71 % 0.29 C
2657 14-03-2004 03:39:00 4.8 C 72 % 0.19 C
2658 14-03-2004 03:51:00 4.7 C 73 % 0.28 C
2659 14-03-2004 04:03:00 4.7 C 73 % 0.28 C
2660 14-03-2004 04:15:59 4.7 C 73 % 0.28 C
2661 14-03-2004 04:27:59 4.9 C 74 % 0.67 C
2662 14-03-2004 04:39:58 4.7 C 74 % 0.47 C
2663 14-03-2004 04:51:01 5.2 C 74 % 0.95 C
2664 14-03-2004 05:03:00 5.5 C 73 % 1.06 C
2665 14-03-2004 05:15:00 5.5 C 72 % 0.86 C
2666 14-03-2004 05:27:00 5.5 C 72 % 0.86 C
2667 14-03-2004 05:39:00 5.5 C 72 % 0.86 C
2668 14-03-2004 05:51:01 5.4 C 72 % 0.77 C
2669 14-03-2004 06:03:01 5.4 C 72 % 0.77 C
2670 14-03-2004 06:15:01 5.6 C 72 % 0.96 C
2671 14-03-2004 06:27:01 5.8 C 73 % 1.34 C
2672 14-03-2004 06:39:00 5.8 C 72 % 1.15 C
2673 14-03-2004 06:51:01 5.9 C 73 % 1.44 C
2674 14-03-2004 07:03:01 6 C 72 % 1.35 C
2675 14-03-2004 07:15:01 6.2 C 72 % 1.54 C
Sensor: Nr:Datum:Temp:Feuchte:Taupunkt:
Aussen-T/F 2676 14-03-2004 07:27:01 6.8 C 73 % 2.31 C
2677 14-03-2004 07:39:01 7 C 68 % 1.51 C
2678 14-03-2004 07:51:00 6.9 C 68 % 1.41 C
2679 14-03-2004 08:03:00 7.2 C 69 % 1.9 C
2680 14-03-2004 08:15:58 7.5 C 68 % 1.99 C
2681 14-03-2004 08:27:58 7.5 C 68 % 1.99 C
2682 14-03-2004 08:39:57 7.7 C 67 % 1.97 C
2683 14-03-2004 08:51:01 7.8 C 67 % 2.07 C
2684 14-03-2004 09:03:01 8 C 65 % 1.83 C
2685 14-03-2004 09:15:01 8.2 C 64 % 1.81 C
2686 14-03-2004 09:27:01 8.4 C 63 % 1.78 C
2687 14-03-2004 09:39:02 8.6 C 62 % 1.74 C
2688 14-03-2004 09:51:02 8.8 C 61 % 1.71 C
2689 14-03-2004 10:03:01 9.1 C 59 % 1.52 C
2690 14-03-2004 10:15:01 9.2 C 58 % 1.38 C
2691 14-03-2004 10:27:01 9.1 C 58 % 1.29 C
2692 14-03-2004 10:39:01 9.4 C 57 % 1.33 C
2693 14-03-2004 10:51:00 9.6 C 56 % 1.27 C
2694 14-03-2004 11:03:00 9.6 C 55 % 1.02 C
2695 14-03-2004 11:15:59 10.1 C 52 % 0.7 C
2696 14-03-2004 11:27:59 10.2 C 51 % 0.53 C
2697 14-03-2004 11:39:57 10.7 C 50 % 0.72 C
2698 14-03-2004 11:51:01 10.8 C 48 % 0.24 C
2699 14-03-2004 12:03:01 10.8 C 47 % -0.04 C
2700 14-03-2004 12:15:01 11.6 C 45 % 0.09 C
Sensor: Nr:Datum:Temp:Feuchte:Taupunkt:
Aussen-T/F 2701 14-03-2004 12:27:01 12.3 C 41 % -0.56 C
2702 14-03-2004 12:39:01 12.3 C 40 % -0.89 C
2703 14-03-2004 12:51:00 12.4 C 39 % -1.15 C
2704 14-03-2004 13:03:00 12.8 C 36 % -1.88 C
2705 14-03-2004 13:15:58 13.3 C 35 % -1.82 C
2706 14-03-2004 13:27:58 13.4 C 34 % -2.12 C
2707 14-03-2004 13:39:57 13.9 C 33 % -2.08 C
2708 14-03-2004 13:51:01 14.2 C 32 % -2.24 C
2709 14-03-2004 14:03:01 14.1 C 35 % -1.11 C
2710 14-03-2004 14:15:01 14.2 C 33 % -1.82 C
2711 14-03-2004 14:27:01 14.3 C 35 % -0.93 C
2712 14-03-2004 14:39:01 14.6 C 32 % -1.89 C
2713 14-03-2004 14:51:00 15 C 28 % -3.34 C
2714 14-03-2004 15:03:00 14.6 C 29 % -3.21 C
2715 14-03-2004 15:15:58 14.2 C 29 % -3.56 C
2716 14-03-2004 15:27:58 14.7 C 28 % -3.59 C
2717 14-03-2004 15:39:57 14.5 C 28 % -3.77 C
2718 14-03-2004 15:51:01 15.1 C 26 % -4.24 C
2719 14-03-2004 16:03:01 14.9 C 28 % -3.42 C
2720 14-03-2004 16:15:01 15.1 C 27 % -3.74 C
2721 14-03-2004 16:27:01 15.1 C 27 % -3.74 C
2722 14-03-2004 16:39:01 14.5 C 28 % -3.77 C
2723 14-03-2004 16:51:00 14 C 29 % -3.73 C
2724 14-03-2004 17:03:59 13.7 C 30 % -3.54 C
2725 14-03-2004 17:15:58 13.5 C 30 % -3.71 C
Sensor: Nr:Datum:Temp:Feuchte:Taupunkt:
Aussen-T/F 2726 14-03-2004 17:27:58 13.5 C 30 % -3.71 C
2727 14-03-2004 17:39:57 13.4 C 33 % -2.52 C
2728 14-03-2004 17:51:01 13.2 C 31 % -3.54 C
2729 14-03-2004 18:03:01 13 C 32 % -3.29 C
2730 14-03-2004 18:15:01 12.7 C 36 % -1.97 C
2731 14-03-2004 18:27:01 12.3 C 40 % -0.89 C
2732 14-03-2004 18:39:01 12.2 C 40 % -0.98 C
2733 14-03-2004 18:51:01 12.1 C 41 % -0.74 C
2734 14-03-2004 19:03:00 11.9 C 43 % -0.27 C
2735 14-03-2004 19:15:58 11.9 C 44 % 0.05 C
2736 14-03-2004 19:27:58 11.7 C 46 % 0.48 C
2737 14-03-2004 19:39:57 11.8 C 45 % 0.27 C
2738 14-03-2004 19:51:01 11.6 C 46 % 0.39 C
2739 14-03-2004 20:03:01 11.6 C 47 % 0.69 C
2740 14-03-2004 20:15:01 11.4 C 47 % 0.5 C
2741 14-03-2004 20:27:01 11.4 C 47 % 0.5 C
2742 14-03-2004 20:39:01 11.3 C 48 % 0.7 C
2743 14-03-2004 20:50:59 11.1 C 50 % 1.08 C
2744 14-03-2004 21:03:59 10.9 C 52 % 1.44 C
2745 14-03-2004 21:15:58 10.9 C 52 % 1.44 C
2746 14-03-2004 21:27:58 10.6 C 53 % 1.43 C
2747 14-03-2004 21:39:57 10.5 C 52 % 1.07 C
2748 14-03-2004 21:51:01 10.3 C 53 % 1.15 C
2749 14-03-2004 22:03:01 10.2 C 54 % 1.32 C
2750 14-03-2004 22:15:01 10.1 C 54 % 1.23 C
Sensor: Nr:Datum:Temp:Feuchte:Taupunkt:
Aussen-T/F 2751 14-03-2004 22:27:01 10.1 C 54 % 1.23 C
2752 14-03-2004 22:39:00 10 C 55 % 1.39 C
2753 14-03-2004 22:51:01 9.9 C 56 % 1.55 C
2754 14-03-2004 23:03:02 10.3 C 56 % 1.92 C
2755 14-03-2004 23:15:01 9.9 C 55 % 1.3 C
2756 14-03-2004 23:27:01 10.2 C 54 % 1.32 C
2757 14-03-2004 23:39:01 10.2 C 53 % 1.06 C
2758 14-03-2004 23:51:00 10.2 C 54 % 1.32 C
2759 15-03-2004 00:03:00 10.4 C 52 % 0.98 C
2760 15-03-2004 00:15:59 10.8 C 50 % 0.81 C
2761 15-03-2004 00:27:59 10.6 C 50 % 0.62 C
2762 15-03-2004 00:39:58 10.8 C 48 % 0.24 C
2763 15-03-2004 00:51:01 11.3 C 45 % -0.19 C
2764 15-03-2004 01:03:01 11.4 C 43 % -0.72 C
2765 15-03-2004 01:15:01 11.5 C 43 % -0.63 C
2766 15-03-2004 01:27:01 11.4 C 43 % -0.72 C
2767 15-03-2004 01:39:01 11.3 C 43 % -0.81 C
2768 15-03-2004 01:51:00 11.2 C 43 % -0.9 C
2769 15-03-2004 02:03:00 11 C 43 % -1.08 C
2770 15-03-2004 02:15:59 11.1 C 43 % -0.99 C
2771 15-03-2004 02:27:59 11 C 44 % -0.77 C
2772 15-03-2004 02:39:57 11.1 C 43 % -0.99 C
2773 15-03-2004 02:52:03 10.8 C 45 % -0.64 C
2774 15-03-2004 03:04:03 10.7 C 46 % -0.43 C
2775 15-03-2004 03:16:02 10.3 C 48 % -0.21 C
Sensor: Nr:Datum:Temp:Feuchte:Taupunkt:
Aussen-T/F 2776 15-03-2004 03:28:02 10.2 C 48 % -0.31 C
2777 15-03-2004 03:40:00 10.5 C 46 % -0.61 C
2778 15-03-2004 03:52:00 10.6 C 46 % -0.52 C
2779 15-03-2004 04:04:00 10.6 C 46 % -0.52 C
2780 15-03-2004 04:16:59 10.5 C 46 % -0.61 C
2781 15-03-2004 04:28:59 10.5 C 46 % -0.61 C
2782 15-03-2004 04:40:58 10.4 C 47 % -0.41 C
2783 15-03-2004 04:52:01 10.2 C 47 % -0.59 C
2784 15-03-2004 05:04:01 10.3 C 47 % -0.5 C
2785 15-03-2004 05:16:01 10.2 C 47 % -0.59 C
2786 15-03-2004 05:28:01 10.3 C 47 % -0.5 C
2787 15-03-2004 05:40:01 10.4 C 46 % -0.7 C
2788 15-03-2004 05:52:00 10.6 C 46 % -0.52 C
2789 15-03-2004 06:04:00 10.6 C 46 % -0.52 C
2790 15-03-2004 06:16:59 10.5 C 46 % -0.61 C
2791 15-03-2004 06:28:59 10.7 C 46 % -0.43 C
2792 15-03-2004 06:40:58 10.8 C 46 % -0.34 C
2793 15-03-2004 06:52:01 10.8 C 46 % -0.34 C
2794 15-03-2004 07:04:01 10.8 C 46 % -0.34 C
2795 15-03-2004 07:16:01 10.8 C 46 % -0.34 C
2796 15-03-2004 07:28:01 10.9 C 46 % -0.25 C
2797 15-03-2004 07:40:02 10.8 C 46 % -0.34 C
2798 15-03-2004 07:52:00 10.8 C 48 % 0.24 C
2799 15-03-2004 08:04:00 10.7 C 49 % 0.44 C
2800 15-03-2004 08:16:59 10.8 C 49 % 0.53 C
Sensor: Nr:Datum:Temp:Feuchte:Taupunkt:
Aussen-T/F 2801 15-03-2004 08:28:59 10.8 C 50 % 0.81 C
2802 15-03-2004 08:40:58 11 C 49 % 0.71 C
2803 15-03-2004 08:52:01 11.1 C 49 % 0.8 C
2804 15-03-2004 09:04:01 11.5 C 48 % 0.89 C
2805 15-03-2004 09:16:00 11.5 C 48 % 0.89 C
2806 15-03-2004 09:28:00 11.5 C 48 % 0.89 C
2807 15-03-2004 09:40:00 11.6 C 48 % 0.98 C
2808 15-03-2004 09:52:01 11.7 C 48 % 1.07 C
2809 15-03-2004 10:04:01 11.8 C 47 % 0.87 C
2810 15-03-2004 10:16:01 12 C 47 % 1.05 C
2811 15-03-2004 10:28:01 12 C 48 % 1.34 C
2812 15-03-2004 10:40:01 11.9 C 49 % 1.54 C
2813 15-03-2004 10:52:00 11.9 C 49 % 1.54 C
2814 15-03-2004 11:04:59 12 C 48 % 1.34 C
2815 15-03-2004 11:16:58 12.9 C 48 % 2.17 C
2816 15-03-2004 11:28:58 12.3 C 48 % 1.62 C
2817 15-03-2004 11:40:57 12.7 C 48 % 1.99 C
2818 15-03-2004 11:52:01 12.6 C 48 % 1.89 C
2819 15-03-2004 12:04:01 12.8 C 49 % 2.37 C
2820 15-03-2004 12:16:01 12.7 C 50 % 2.56 C
2821 15-03-2004 12:28:01 12.8 C 50 % 2.65 C
2822 15-03-2004 12:40:01 13.2 C 48 % 2.44 C
2823 15-03-2004 12:52:01 13.7 C 46 % 2.3 C
2824 15-03-2004 13:04:01 13.8 C 46 % 2.4 C
2825 15-03-2004 13:16:01 13.8 C 47 % 2.7 C
Sensor: Nr:Datum:Temp:Feuchte:Taupunkt:
Aussen-T/F 2826 15-03-2004 13:28:01 13.5 C 47 % 2.42 C
2827 15-03-2004 13:40:01 13.4 C 47 % 2.33 C
2828 15-03-2004 13:52:00 13.7 C 46 % 2.3 C
2829 15-03-2004 14:04:00 13.4 C 46 % 2.03 C
2830 15-03-2004 14:16:58 13.4 C 46 % 2.03 C
2831 15-03-2004 14:28:58 13.6 C 45 % 1.91 C
2832 15-03-2004 14:40:57 13.5 C 46 % 2.12 C
2833 15-03-2004 14:52:01 13.5 C 46 % 2.12 C
2834 15-03-2004 15:04:01 13.6 C 46 % 2.21 C
2835 15-03-2004 15:16:01 13.9 C 45 % 2.18 C
2836 15-03-2004 15:28:01 13.9 C 45 % 2.18 C
2837 15-03-2004 15:40:01 14.2 C 45 % 2.45 C
2838 15-03-2004 15:52:00 14.2 C 44 % 2.14 C
2839 15-03-2004 16:04:59 14.2 C 44 % 2.14 C
2840 15-03-2004 16:16:58 14.3 C 44 % 2.23 C
2841 15-03-2004 16:28:58 14.2 C 44 % 2.14 C
2842 15-03-2004 16:40:57 14.4 C 44 % 2.32 C
2843 15-03-2004 16:52:01 14.4 C 44 % 2.32 C
2844 15-03-2004 17:04:01 14.3 C 45 % 2.54 C
2845 15-03-2004 17:16:01 14.3 C 45 % 2.54 C
2846 15-03-2004 17:28:01 14.2 C 45 % 2.45 C
2847 15-03-2004 17:40:01 14.1 C 45 % 2.36 C
2848 15-03-2004 17:52:00 14.1 C 46 % 2.67 C
2849 15-03-2004 18:04:00 14 C 46 % 2.58 C
2850 15-03-2004 18:16:59 14 C 46 % 2.58 C
Sensor: Nr:Datum:Temp:Feuchte:Taupunkt:
Aussen-T/F 2851 15-03-2004 18:28:59 13.9 C 47 % 2.79 C
2852 15-03-2004 18:40:58 13.8 C 48 % 2.99 C
2853 15-03-2004 18:52:01 13.7 C 48 % 2.9 C
2854 15-03-2004 19:04:01 13.4 C 49 % 2.92 C
2855 15-03-2004 19:16:01 12.9 C 52 % 3.29 C
2856 15-03-2004 19:28:01 12.2 C 54 % 3.18 C
2857 15-03-2004 19:40:02 12 C 55 % 3.25 C
2858 15-03-2004 19:52:00 11.5 C 58 % 3.54 C
2859 15-03-2004 20:04:00 11.1 C 59 % 3.4 C
2860 15-03-2004 20:16:59 10.9 C 61 % 3.69 C
2861 15-03-2004 20:28:59 10.5 C 62 % 3.54 C
2862 15-03-2004 20:40:58 10.2 C 63 % 3.48 C
2863 15-03-2004 20:52:01 10.1 C 64 % 3.61 C
2864 15-03-2004 21:04:01 9.8 C 65 % 3.54 C
2865 15-03-2004 21:16:00 9.6 C 65 % 3.35 C
2866 15-03-2004 21:28:00 9.5 C 67 % 3.69 C
2867 15-03-2004 21:40:01 9.5 C 67 % 3.69 C
2868 15-03-2004 21:52:01 9.4 C 67 % 3.59 C
2869 15-03-2004 22:04:01 9.2 C 67 % 3.4 C
2870 15-03-2004 22:16:01 8.8 C 68 % 3.23 C
2871 15-03-2004 22:28:01 8.6 C 69 % 3.24 C
2872 15-03-2004 22:40:01 8.6 C 70 % 3.45 C
2873 15-03-2004 22:52:00 8.8 C 70 % 3.64 C
2874 15-03-2004 23:04:00 8.9 C 69 % 3.53 C
2875 15-03-2004 23:16:58 8.9 C 69 % 3.53 C
Sensor: Nr:Datum:Temp:Feuchte:Taupunkt:
Aussen-T/F 2876 15-03-2004 23:28:58 8.9 C 70 % 3.74 C
2877 15-03-2004 23:40:57 8.8 C 70 % 3.64 C
2878 15-03-2004 23:52:01 8.6 C 69 % 3.24 C
2879 16-03-2004 00:04:01 8.6 C 71 % 3.65 C
2880 16-03-2004 00:16:01 8.6 C 71 % 3.65 C
2881 16-03-2004 00:28:01 8.3 C 70 % 3.16 C
2882 16-03-2004 00:40:01 8.3 C 71 % 3.36 C
2883 16-03-2004 00:52:00 8.5 C 72 % 3.75 C
2884 16-03-2004 01:04:59 8.6 C 71 % 3.65 C
2885 16-03-2004 01:16:58 8.6 C 71 % 3.65 C
2886 16-03-2004 01:28:58 8.7 C 70 % 3.54 C
2887 16-03-2004 01:40:57 8.8 C 70 % 3.64 C
2888 16-03-2004 01:52:01 8.7 C 70 % 3.54 C
2889 16-03-2004 02:04:01 8.5 C 70 % 3.35 C
2890 16-03-2004 02:16:01 8.7 C 70 % 3.54 C
2891 16-03-2004 02:28:01 8.6 C 71 % 3.65 C
2892 16-03-2004 02:40:01 8.8 C 71 % 3.84 C
2893 16-03-2004 02:53:02 9 C 71 % 4.03 C
2894 16-03-2004 03:05:02 9.2 C 71 % 4.22 C
2895 16-03-2004 03:17:02 9.2 C 69 % 3.82 C
2896 16-03-2004 03:29:02 9.3 C 70 % 4.12 C
2897 16-03-2004 03:41:00 9.5 C 71 % 4.51 C
2898 16-03-2004 03:53:00 9.6 C 70 % 4.41 C
2899 16-03-2004 04:05:00 9.6 C 70 % 4.41 C
2900 16-03-2004 04:17:58 9.6 C 70 % 4.41 C
Sensor: Nr:Datum:Temp:Feuchte:Taupunkt:
Aussen-T/F 2901 16-03-2004 04:29:58 9.5 C 70 % 4.31 C
2902 16-03-2004 04:41:57 9.6 C 71 % 4.61 C
2903 16-03-2004 04:53:01 9.4 C 70 % 4.21 C
2904 16-03-2004 05:05:01 9.2 C 71 % 4.22 C
2905 16-03-2004 05:17:01 8.8 C 72 % 4.04 C
2906 16-03-2004 05:29:01 8.7 C 74 % 4.33 C
2907 16-03-2004 05:41:01 8.5 C 74 % 4.14 C
2908 16-03-2004 05:53:01 8.9 C 74 % 4.53 C
2909 16-03-2004 06:05:01 9.6 C 71 % 4.61 C
2910 16-03-2004 06:17:01 9.9 C 69 % 4.49 C
2911 16-03-2004 06:29:01 9.7 C 69 % 4.3 C
2912 16-03-2004 06:41:01 9 C 70 % 3.83 C
2913 16-03-2004 06:53:00 8.6 C 72 % 3.85 C
2914 16-03-2004 07:05:00 8.5 C 73 % 3.95 C
2915 16-03-2004 07:17:59 8.8 C 75 % 4.62 C
2916 16-03-2004 07:29:59 8.8 C 74 % 4.43 C
2917 16-03-2004 07:41:57 8.4 C 73 % 3.85 C
2918 16-03-2004 07:53:01 8.2 C 73 % 3.66 C
2919 16-03-2004 08:05:01 8.1 C 73 % 3.56 C
2920 16-03-2004 08:17:01 8 C 74 % 3.66 C
2921 16-03-2004 08:29:01 8 C 74 % 3.66 C
2922 16-03-2004 08:41:01 8.1 C 75 % 3.94 C
2923 16-03-2004 08:53:01 8.4 C 75 % 4.23 C
2924 16-03-2004 09:05:00 9.7 C 72 % 4.9 C
2925 16-03-2004 09:17:58 11.5 C 63 % 4.71 C
Sensor: Nr:Datum:Temp:Feuchte:Taupunkt:
Aussen-T/F 2926 16-03-2004 09:29:58 12.4 C 57 % 4.13 C
2927 16-03-2004 09:41:57 12.9 C 55 % 4.09 C
2928 16-03-2004 09:53:01 13 C 53 % 3.66 C
2929 16-03-2004 10:05:01 13.1 C 52 % 3.48 C
2930 16-03-2004 10:17:01 13.3 C 52 % 3.66 C
2931 16-03-2004 10:29:01 13.5 C 52 % 3.85 C
2932 16-03-2004 10:41:01 13.9 C 51 % 3.94 C
2933 16-03-2004 10:53:01 14.1 C 49 % 3.56 C
2934 16-03-2004 11:05:02 14.2 C 49 % 3.65 C
2935 16-03-2004 11:17:01 14.5 C 49 % 3.93 C
2936 16-03-2004 11:29:01 14.7 C 48 % 3.82 C
2937 16-03-2004 11:41:01 14.9 C 48 % 4 C
2938 16-03-2004 11:53:01 14.9 C 47 % 3.7 C
2939 16-03-2004 12:05:00 15.3 C 46 % 3.76 C
2940 16-03-2004 12:17:59 15.6 C 45 % 3.72 C
2941 16-03-2004 12:29:59 15.9 C 45 % 4 C
2942 16-03-2004 12:41:57 16.4 C 43 % 3.8 C
2943 16-03-2004 12:53:01 16.9 C 42 % 3.92 C
2944 16-03-2004 13:05:01 17.5 C 40 % 3.77 C
2945 16-03-2004 13:17:01 17.7 C 40 % 3.95 C
2946 16-03-2004 13:29:01 17.8 C 40 % 4.03 C
2947 16-03-2004 13:41:01 18.5 C 39 % 4.3 C
2948 16-03-2004 13:53:00 18.8 C 38 % 4.2 C
2949 16-03-2004 14:05:00 18.5 C 38 % 3.93 C
2950 16-03-2004 14:17:58 18.5 C 38 % 3.93 C
Sensor: Nr:Datum:Temp:Feuchte:Taupunkt:
Aussen-T/F 2951 16-03-2004 14:29:58 18.9 C 38 % 4.29 C
2952 16-03-2004 14:41:57 19.4 C 36 % 3.96 C
2953 16-03-2004 14:53:01 19.3 C 36 % 3.87 C
2954 16-03-2004 15:05:01 19.8 C 36 % 4.31 C
2955 16-03-2004 15:17:01 20 C 36 % 4.49 C
2956 16-03-2004 15:29:01 19.8 C 36 % 4.31 C
2957 16-03-2004 15:41:01 20 C 36 % 4.49 C
2958 16-03-2004 15:53:01 19.9 C 36 % 4.4 C
2959 16-03-2004 16:05:01 20.4 C 37 % 5.24 C
2960 16-03-2004 16:17:01 20.4 C 37 % 5.24 C
2961 16-03-2004 16:29:01 20.2 C 37 % 5.06 C
2962 16-03-2004 16:41:01 20 C 37 % 4.88 C
2963 16-03-2004 16:53:00 19.8 C 37 % 4.7 C
2964 16-03-2004 17:05:00 19.8 C 37 % 4.7 C
2965 16-03-2004 17:17:58 20 C 37 % 4.88 C
2966 16-03-2004 17:29:58 19.7 C 37 % 4.62 C
2967 16-03-2004 17:41:58 19.7 C 38 % 5 C
2968 16-03-2004 17:53:01 19 C 40 % 5.11 C
2969 16-03-2004 18:05:01 18.2 C 43 % 5.43 C
2970 16-03-2004 18:17:01 17.3 C 45 % 5.27 C
2971 16-03-2004 18:29:01 16.4 C 48 % 5.37 C
2972 16-03-2004 18:41:01 15.8 C 50 % 5.41 C
2973 16-03-2004 18:53:00 15.5 C 52 % 5.7 C
2974 16-03-2004 19:05:00 15 C 53 % 5.51 C
2975 16-03-2004 19:17:58 14.7 C 55 % 5.76 C
Sensor: Nr:Datum:Temp:Feuchte:Taupunkt:
Aussen-T/F 2976 16-03-2004 19:29:58 14.4 C 55 % 5.49 C
2977 16-03-2004 19:41:57 14.2 C 56 % 5.56 C
2978 16-03-2004 19:53:01 14 C 57 % 5.63 C
2979 16-03-2004 20:05:01 13.6 C 58 % 5.5 C
2980 16-03-2004 20:17:01 13.4 C 59 % 5.56 C
2981 16-03-2004 20:29:01 13.3 C 60 % 5.71 C
2982 16-03-2004 20:41:01 13 C 60 % 5.43 C
2983 16-03-2004 20:53:01 12.8 C 62 % 5.71 C
2984 16-03-2004 21:05:00 12.6 C 62 % 5.52 C
2985 16-03-2004 21:17:59 12.2 C 62 % 5.14 C
2986 16-03-2004 21:29:59 12 C 63 % 5.18 C
2987 16-03-2004 21:41:57 11.6 C 64 % 5.03 C
2988 16-03-2004 21:53:01 11.4 C 65 % 5.06 C
2989 16-03-2004 22:05:01 11.2 C 65 % 4.87 C
2990 16-03-2004 22:17:01 10.8 C 66 % 4.71 C
2991 16-03-2004 22:29:01 10.5 C 67 % 4.64 C
2992 16-03-2004 22:41:01 10.2 C 67 % 4.36 C
2993 16-03-2004 22:53:00 9.9 C 69 % 4.49 C
2994 16-03-2004 23:05:00 9.6 C 69 % 4.2 C
2995 16-03-2004 23:17:58 9.5 C 70 % 4.31 C
2996 16-03-2004 23:29:58 9.4 C 70 % 4.21 C
2997 16-03-2004 23:41:57 9.1 C 71 % 4.13 C
2998 16-03-2004 23:53:01 9 C 72 % 4.23 C
2999 17-03-2004 00:05:01 8.9 C 73 % 4.33 C
3000 17-03-2004 00:17:01 8.8 C 72 % 4.04 C
Sensor: Nr:Datum:Temp:Feuchte:Taupunkt:
Aussen-T/F 3001 17-03-2004 00:29:01 8.4 C 73 % 3.85 C
3002 17-03-2004 00:41:01 8.3 C 74 % 3.95 C
3003 17-03-2004 00:53:00 8.2 C 75 % 4.04 C
3004 17-03-2004 01:05:59 8.1 C 75 % 3.94 C
3005 17-03-2004 01:17:58 7.8 C 75 % 3.65 C
3006 17-03-2004 01:29:58 7.6 C 76 % 3.65 C
3007 17-03-2004 01:41:57 7.3 C 76 % 3.36 C
3008 17-03-2004 01:53:01 7.2 C 76 % 3.26 C
3009 17-03-2004 02:05:01 7.1 C 77 % 3.35 C
3010 17-03-2004 02:17:01 6.8 C 77 % 3.06 C
3011 17-03-2004 02:29:01 6.7 C 77 % 2.96 C
3012 17-03-2004 02:41:00 6.3 C 78 % 2.75 C
3013 17-03-2004 02:54:03 6.2 C 79 % 2.84 C
3014 17-03-2004 03:06:03 6.1 C 80 % 2.92 C
3015 17-03-2004 03:18:02 6.1 C 80 % 2.92 C
3016 17-03-2004 03:30:02 5.8 C 81 % 2.8 C
3017 17-03-2004 03:42:00 5.8 C 82 % 2.97 C
3018 17-03-2004 03:54:00 5.6 C 82 % 2.78 C
3019 17-03-2004 04:06:00 5.5 C 82 % 2.68 C
3020 17-03-2004 04:18:59 5.1 C 81 % 2.12 C
3021 17-03-2004 04:30:58 5.2 C 81 % 2.21 C
3022 17-03-2004 04:42:58 5.2 C 81 % 2.21 C
3023 17-03-2004 04:54:01 5 C 81 % 2.02 C
3024 17-03-2004 05:06:00 4.9 C 83 % 2.26 C
3025 17-03-2004 05:18:00 4.7 C 83 % 2.07 C
Sensor: Nr:Datum:Temp:Feuchte:Taupunkt:
Aussen-T/F 3026 17-03-2004 05:30:00 4.6 C 82 % 1.8 C
3027 17-03-2004 05:42:00 4.5 C 82 % 1.7 C
3028 17-03-2004 05:54:01 4.5 C 83 % 1.87 C
3029 17-03-2004 06:06:01 4.4 C 84 % 1.94 C
3030 17-03-2004 06:18:01 4.4 C 84 % 1.94 C
3031 17-03-2004 06:30:01 4.2 C 83 % 1.58 C
3032 17-03-2004 06:42:01 4 C 83 % 1.38 C
3033 17-03-2004 06:54:01 3.9 C 84 % 1.45 C
3034 17-03-2004 07:06:01 4 C 83 % 1.38 C
3035 17-03-2004 07:18:01 4 C 83 % 1.38 C
3036 17-03-2004 07:30:01 4 C 83 % 1.38 C
3037 17-03-2004 07:42:01 3.8 C 84 % 1.35 C
3038 17-03-2004 07:54:00 3.6 C 85 % 1.32 C
3039 17-03-2004 08:06:00 4.1 C 86 % 1.97 C
3040 17-03-2004 08:18:59 4.5 C 85 % 2.2 C
3041 17-03-2004 08:30:58 4.8 C 84 % 2.33 C
3042 17-03-2004 08:42:58 4.9 C 83 % 2.26 C
3043 17-03-2004 08:54:01 4.9 C 83 % 2.26 C
3044 17-03-2004 09:06:01 5 C 83 % 2.36 C
3045 17-03-2004 09:18:01 5.3 C 83 % 2.65 C
3046 17-03-2004 09:30:01 5.9 C 84 % 3.41 C
3047 17-03-2004 09:42:01 6.3 C 82 % 3.46 C
3048 17-03-2004 09:54:00 6.9 C 80 % 3.7 C
3049 17-03-2004 10:06:00 7.3 C 78 % 3.73 C
3050 17-03-2004 10:18:59 8 C 76 % 4.04 C
Sensor: Nr:Datum:Temp:Feuchte:Taupunkt:
Aussen-T/F 3051 17-03-2004 10:30:57 8.7 C 75 % 4.52 C
3052 17-03-2004 10:42:57 9.5 C 72 % 4.71 C
3053 17-03-2004 10:54:01 10.5 C 69 % 5.06 C
3054 17-03-2004 11:06:01 11.3 C 67 % 5.4 C
3055 17-03-2004 11:18:01 12.6 C 64 % 5.98 C
3056 17-03-2004 11:30:01 13.5 C 60 % 5.9 C
3057 17-03-2004 11:42:01 14.2 C 58 % 6.06 C
3058 17-03-2004 11:54:00 14.9 C 55 % 5.95 C
3059 17-03-2004 12:06:59 15.9 C 52 % 6.07 C
3060 17-03-2004 12:18:58 16.7 C 50 % 6.24 C
3061 17-03-2004 12:30:57 17.5 C 46 % 5.76 C
3062 17-03-2004 12:42:57 18.3 C 45 % 6.17 C
3063 17-03-2004 12:54:01 19 C 40 % 5.11 C
3064 17-03-2004 13:06:01 19.7 C 42 % 6.44 C
3065 17-03-2004 13:18:01 20.6 C 40 % 6.54 C
3066 17-03-2004 13:30:01 21.3 C 35 % 5.23 C
3067 17-03-2004 13:42:01 22 C 34 % 5.43 C
3068 17-03-2004 13:54:01 22.8 C 33 % 5.7 C
3069 17-03-2004 14:06:01 23.4 C 33 % 6.22 C
3070 17-03-2004 14:18:01 23.3 C 27 % 3.27 C
3071 17-03-2004 14:30:01 23.5 C 29 % 4.45 C
3072 17-03-2004 14:42:01 23.9 C 27 % 3.78 C
3073 17-03-2004 14:54:00 24 C 25 % 2.78 C
3074 17-03-2004 15:06:00 24 C 26 % 3.33 C
3075 17-03-2004 15:18:58 23.9 C 25 % 2.69 C
Sensor: Nr:Datum:Temp:Feuchte:Taupunkt:
Aussen-T/F 3076 17-03-2004 15:30:57 23.9 C 25 % 2.69 C
3077 17-03-2004 15:42:57 24 C 24 % 2.21 C
3078 17-03-2004 15:54:01 24.3 C 25 % 3.03 C
3079 17-03-2004 16:06:01 24.5 C 24 % 2.63 C
3080 17-03-2004 16:18:01 24.2 C 24 % 2.37 C
3081 17-03-2004 16:30:01 24.1 C 25 % 2.86 C
3082 17-03-2004 16:42:01 23.9 C 24 % 2.12 C
3083 17-03-2004 16:54:00 23.8 C 22 % 0.83 C
3084 17-03-2004 17:06:59 23.7 C 20 % -0.57 C
3085 17-03-2004 17:18:58 23.4 C 22 % 0.49 C
3086 17-03-2004 17:30:57 23.1 C 25 % 2.02 C
3087 17-03-2004 17:42:57 22.1 C 28 % 2.76 C
3088 17-03-2004 17:54:01 21.1 C 31 % 3.33 C
3089 17-03-2004 18:06:01 20.6 C 35 % 4.62 C
3090 17-03-2004 18:18:01 19.9 C 38 % 5.18 C
3091 17-03-2004 18:30:01 19.6 C 39 % 5.28 C
3092 17-03-2004 18:42:01 19.4 C 39 % 5.1 C
3093 17-03-2004 18:54:00 18.9 C 41 % 5.37 C
3094 17-03-2004 19:06:59 18 C 45 % 5.9 C
3095 17-03-2004 19:18:58 17.2 C 47 % 5.8 C
3096 17-03-2004 19:30:58 16.8 C 50 % 6.33 C
3097 17-03-2004 19:42:58 16.3 C 50 % 5.87 C
3098 17-03-2004 19:54:01 15.9 C 51 % 5.79 C
3099 17-03-2004 20:06:01 15.5 C 51 % 5.42 C
3100 17-03-2004 20:18:01 15.2 C 51 % 5.14 C
Sensor: Nr:Datum:Temp:Feuchte:Taupunkt:
Aussen-T/F 3101 17-03-2004 20:30:01 15.2 C 50 % 4.86 C
3102 17-03-2004 20:42:01 14.8 C 51 % 4.77 C
3103 17-03-2004 20:54:01 14.5 C 52 % 4.77 C
3104 17-03-2004 21:06:01 14.4 C 51 % 4.4 C
3105 17-03-2004 21:18:01 14.2 C 51 % 4.22 C
3106 17-03-2004 21:30:01 14.1 C 51 % 4.13 C
3107 17-03-2004 21:42:01 13.8 C 52 % 4.13 C
3108 17-03-2004 21:54:00 13.7 C 53 % 4.31 C
3109 17-03-2004 22:06:00 13.4 C 55 % 4.55 C
3110 17-03-2004 22:18:59 13 C 56 % 4.44 C
3111 17-03-2004 22:30:57 12.7 C 59 % 4.9 C
3112 17-03-2004 22:42:57 12.1 C 61 % 4.82 C
3113 17-03-2004 22:54:01 11.8 C 62 % 4.77 C
3114 17-03-2004 23:06:01 11.8 C 63 % 5 C
3115 17-03-2004 23:18:01 11.7 C 63 % 4.9 C
3116 17-03-2004 23:30:01 11.5 C 63 % 4.71 C
3117 17-03-2004 23:42:01 11.3 C 64 % 4.75 C
3118 17-03-2004 23:54:00 11.1 C 65 % 4.78 C
3119 18-03-2004 00:06:00 11 C 66 % 4.9 C
3120 18-03-2004 00:18:59 10.8 C 66 % 4.71 C
3121 18-03-2004 00:30:57 10.7 C 67 % 4.83 C
3122 18-03-2004 00:42:57 10.8 C 67 % 4.93 C
3123 18-03-2004 00:54:01 10.8 C 67 % 4.93 C
3124 18-03-2004 01:06:01 10.5 C 67 % 4.64 C
3125 18-03-2004 01:18:01 10.2 C 68 % 4.57 C
Sensor: Nr:Datum:Temp:Feuchte:Taupunkt:
Aussen-T/F 3126 18-03-2004 01:30:01 9.8 C 71 % 4.8 C
3127 18-03-2004 01:42:01 9.8 C 72 % 5 C
3128 18-03-2004 01:54:01 9.8 C 71 % 4.8 C
3129 18-03-2004 02:06:01 9.7 C 71 % 4.7 C
3130 18-03-2004 02:18:01 9.7 C 72 % 4.9 C
3131 18-03-2004 02:30:01 9.7 C 72 % 4.9 C
3132 18-03-2004 02:42:01 9.6 C 72 % 4.81 C
3133 18-03-2004 02:55:01 9.5 C 73 % 4.91 C
3134 18-03-2004 03:07:01 9.4 C 73 % 4.81 C
3135 18-03-2004 03:19:00 9.2 C 73 % 4.62 C
3136 18-03-2004 03:31:01 9.1 C 73 % 4.52 C
3137 18-03-2004 03:43:01 9 C 74 % 4.62 C
3138 18-03-2004 03:55:01 8.9 C 75 % 4.72 C
3139 18-03-2004 04:07:01 8.7 C 75 % 4.52 C
3140 18-03-2004 04:19:00 8.6 C 76 % 4.62 C
3141 18-03-2004 04:31:00 8.4 C 76 % 4.42 C
3142 18-03-2004 04:43:00 8.3 C 77 % 4.51 C
3143 18-03-2004 04:55:01 8.1 C 77 % 4.32 C
3144 18-03-2004 05:07:01 8.2 C 78 % 4.6 C
3145 18-03-2004 05:19:01 8.1 C 77 % 4.32 C
3146 18-03-2004 05:31:01 8 C 77 % 4.22 C
3147 18-03-2004 05:43:01 7.9 C 79 % 4.49 C
3148 18-03-2004 05:55:02 7.6 C 79 % 4.2 C
3149 18-03-2004 06:07:01 7.4 C 79 % 4 C
3150 18-03-2004 06:19:01 7.5 C 80 % 4.28 C
Sensor: Nr:Datum:Temp:Feuchte:Taupunkt:
Aussen-T/F 3151 18-03-2004 06:31:01 7.4 C 81 % 4.36 C
3152 18-03-2004 06:43:01 7.4 C 80 % 4.18 C
3153 18-03-2004 06:55:01 7.4 C 80 % 4.18 C
3154 18-03-2004 07:07:00 7.4 C 80 % 4.18 C
3155 18-03-2004 07:19:59 7.5 C 80 % 4.28 C
3156 18-03-2004 07:31:57 7.8 C 80 % 4.57 C
3157 18-03-2004 07:43:57 8.1 C 78 % 4.5 C
3158 18-03-2004 07:55:01 8.2 C 78 % 4.6 C
3159 18-03-2004 08:07:01 8.5 C 77 % 4.71 C
3160 18-03-2004 08:19:01 8.5 C 76 % 4.52 C
3161 18-03-2004 08:31:01 8.8 C 75 % 4.62 C
3162 18-03-2004 08:43:01 9.2 C 73 % 4.62 C
3163 18-03-2004 08:55:00 9.5 C 72 % 4.71 C
3164 18-03-2004 09:07:00 9.5 C 71 % 4.51 C
3165 18-03-2004 09:19:58 9.9 C 71 % 4.9 C
3166 18-03-2004 09:31:57 10.5 C 69 % 5.06 C
3167 18-03-2004 09:43:57 11 C 67 % 5.12 C
3168 18-03-2004 09:55:01 11.4 C 65 % 5.06 C
3169 18-03-2004 10:07:01 11.7 C 65 % 5.35 C
3170 18-03-2004 10:19:01 12.5 C 62 % 5.43 C
3171 18-03-2004 10:31:01 13.1 C 59 % 5.28 C
3172 18-03-2004 10:43:01 13.8 C 59 % 5.94 C
3173 18-03-2004 10:55:01 14.1 C 57 % 5.72 C
3174 18-03-2004 11:07:00 14.8 C 58 % 6.63 C
3175 18-03-2004 11:19:59 15.5 C 54 % 6.24 C
Sensor: Nr:Datum:Temp:Feuchte:Taupunkt:
Aussen-T/F 3176 18-03-2004 11:31:58 15.4 C 53 % 5.88 C
3177 18-03-2004 11:43:58 16.3 C 52 % 6.44 C
3178 18-03-2004 11:55:01 17.1 C 51 % 6.89 C
3179 18-03-2004 12:07:01 17.7 C 48 % 6.56 C
3180 18-03-2004 12:19:01 18.6 C 48 % 7.39 C
3181 18-03-2004 12:31:01 19.2 C 44 % 6.66 C
3182 18-03-2004 12:43:01 19.9 C 45 % 7.63 C
3183 18-03-2004 12:55:00 20.6 C 43 % 7.59 C
3184 18-03-2004 13:07:00 20.7 C 41 % 6.99 C
3185 18-03-2004 13:19:58 21.2 C 42 % 7.79 C
3186 18-03-2004 13:31:57 22 C 37 % 6.65 C
3187 18-03-2004 13:43:57 22.6 C 37 % 7.18 C
3188 18-03-2004 13:55:01 22.9 C 34 % 6.22 C
3189 18-03-2004 14:07:01 23.3 C 34 % 6.57 C
3190 18-03-2004 14:19:01 23 C 31 % 4.98 C
3191 18-03-2004 14:31:01 22.9 C 31 % 4.89 C
3192 18-03-2004 14:43:01 21.9 C 33 % 4.92 C
3193 18-03-2004 14:55:01 22.5 C 32 % 5 C
3194 18-03-2004 15:07:01 22.5 C 31 % 4.54 C
3195 18-03-2004 15:19:01 22.1 C 31 % 4.2 C
3196 18-03-2004 15:31:01 22.2 C 31 % 4.28 C
3197 18-03-2004 15:43:01 22 C 33 % 5 C
3198 18-03-2004 15:55:00 21.1 C 36 % 5.46 C
3199 18-03-2004 16:07:00 20.8 C 37 % 5.59 C
3200 18-03-2004 16:19:59 20.6 C 40 % 6.54 C
Sensor: Nr:Datum:Temp:Feuchte:Taupunkt:
Aussen-T/F 3201 18-03-2004 16:31:58 20.3 C 40 % 6.27 C
3202 18-03-2004 16:43:58 20.1 C 42 % 6.8 C
3203 18-03-2004 16:55:01 20 C 38 % 5.26 C
3204 18-03-2004 17:07:00 20 C 39 % 5.64 C
3205 18-03-2004 17:19:00 19.7 C 39 % 5.37 C
3206 18-03-2004 17:31:00 19.5 C 40 % 5.56 C
3207 18-03-2004 17:43:00 19.3 C 41 % 5.73 C
3208 18-03-2004 17:55:01 18.8 C 45 % 6.63 C
3209 18-03-2004 18:07:01 18.6 C 45 % 6.45 C
3210 18-03-2004 18:19:01 18.4 C 45 % 6.26 C
3211 18-03-2004 18:31:00 17.9 C 48 % 6.75 C
3212 18-03-2004 18:43:00 17.6 C 47 % 6.17 C
3213 18-03-2004 18:55:01 17.3 C 48 % 6.2 C
3214 18-03-2004 19:07:01 17.1 C 49 % 6.31 C
3215 18-03-2004 19:19:01 16.9 C 50 % 6.42 C
3216 18-03-2004 19:31:01 16.8 C 50 % 6.33 C
3217 18-03-2004 19:43:01 16.7 C 50 % 6.24 C
3218 18-03-2004 19:55:00 16.5 C 51 % 6.34 C
3219 18-03-2004 20:07:00 16.2 C 52 % 6.34 C
3220 18-03-2004 20:19:59 16 C 53 % 6.44 C
3221 18-03-2004 20:31:57 15.8 C 55 % 6.79 C
3222 18-03-2004 20:43:57 15.7 C 55 % 6.69 C
3223 18-03-2004 20:55:01 15.5 C 56 % 6.77 C
3224 18-03-2004 21:07:01 15.6 C 54 % 6.34 C
3225 18-03-2004 21:19:01 15.5 C 55 % 6.51 C
Sensor: Nr:Datum:Temp:Feuchte:Taupunkt:
Aussen-T/F 3226 18-03-2004 21:31:01 15.3 C 56 % 6.58 C
3227 18-03-2004 21:43:01 15.4 C 56 % 6.68 C
3228 18-03-2004 21:55:00 15 C 57 % 6.56 C
3229 18-03-2004 22:07:00 15 C 58 % 6.81 C
3230 18-03-2004 22:19:59 14.4 C 59 % 6.5 C
3231 18-03-2004 22:31:58 14.8 C 59 % 6.87 C
3232 18-03-2004 22:43:58 14.7 C 59 % 6.78 C
3233 18-03-2004 22:55:01 14.7 C 59 % 6.78 C
3234 18-03-2004 23:07:01 14.6 C 60 % 6.93 C
3235 18-03-2004 23:19:01 14.6 C 60 % 6.93 C
3236 18-03-2004 23:31:01 14.5 C 60 % 6.84 C
3237 18-03-2004 23:43:01 14.7 C 59 % 6.78 C
3238 18-03-2004 23:55:00 14.7 C 59 % 6.78 C
3239 19-03-2004 00:07:00 14.6 C 60 % 6.93 C
3240 19-03-2004 00:19:59 14.5 C 61 % 7.08 C
3241 19-03-2004 00:31:57 14.4 C 61 % 6.98 C
3242 19-03-2004 00:43:57 14.1 C 65 % 7.63 C
3243 19-03-2004 00:55:01 13.6 C 67 % 7.6 C
3244 19-03-2004 01:07:01 13.2 C 68 % 7.43 C
3245 19-03-2004 01:19:01 13.1 C 69 % 7.55 C
3246 19-03-2004 01:31:01 13.2 C 69 % 7.64 C
3247 19-03-2004 01:43:01 13.1 C 68 % 7.34 C
3248 19-03-2004 01:55:00 13 C 69 % 7.45 C
3249 19-03-2004 02:07:59 12.7 C 70 % 7.38 C
3250 19-03-2004 02:19:58 12.6 C 71 % 7.49 C
Sensor: Nr:Datum:Temp:Feuchte:Taupunkt:
Aussen-T/F 3251 19-03-2004 02:31:57 12.6 C 71 % 7.49 C
3252 19-03-2004 02:43:57 12.5 C 71 % 7.39 C
3253 19-03-2004 02:56:02 12.4 C 71 % 7.3 C
3254 19-03-2004 03:08:02 12.5 C 69 % 6.97 C
3255 19-03-2004 03:20:02 12.6 C 66 % 6.42 C
3256 19-03-2004 03:32:00 12.4 C 66 % 6.23 C
3257 19-03-2004 03:44:00 12.6 C 61 % 5.29 C
3258 19-03-2004 03:56:00 12.5 C 59 % 4.72 C
3259 19-03-2004 04:08:00 12.4 C 61 % 5.1 C
3260 19-03-2004 04:20:59 12.2 C 62 % 5.14 C
3261 19-03-2004 04:32:57 11.9 C 64 % 5.32 C
3262 19-03-2004 04:44:01 11.7 C 64 % 5.13 C
3263 19-03-2004 04:56:01 11.7 C 65 % 5.35 C
3264 19-03-2004 05:08:01 11.7 C 65 % 5.35 C
3265 19-03-2004 05:20:01 11.6 C 66 % 5.47 C
3266 19-03-2004 05:32:01 11.8 C 66 % 5.66 C
3267 19-03-2004 05:44:01 11.9 C 66 % 5.76 C
3268 19-03-2004 05:56:00 12 C 64 % 5.41 C
3269 19-03-2004 06:08:00 12 C 64 % 5.41 C
3270 19-03-2004 06:20:58 11.9 C 65 % 5.54 C
3271 19-03-2004 06:32:57 11.8 C 65 % 5.44 C
3272 19-03-2004 06:44:01 11.8 C 65 % 5.44 C
3273 19-03-2004 06:56:01 11.8 C 65 % 5.44 C
3274 19-03-2004 07:08:01 11.8 C 65 % 5.44 C
3275 19-03-2004 07:20:01 11.9 C 65 % 5.54 C
Sensor: Nr:Datum:Temp:Feuchte:Taupunkt:
Aussen-T/F 3276 19-03-2004 07:32:01 11.8 C 64 % 5.22 C
3277 19-03-2004 07:44:01 11.7 C 64 % 5.13 C
3278 19-03-2004 07:56:00 11.8 C 63 % 5 C
3279 19-03-2004 08:08:00 11.8 C 63 % 5 C
3280 19-03-2004 08:20:58 11.7 C 63 % 4.9 C
3281 19-03-2004 08:32:57 11.9 C 63 % 5.09 C
3282 19-03-2004 08:44:01 12 C 62 % 4.96 C
3283 19-03-2004 08:56:01 12 C 62 % 4.96 C
3284 19-03-2004 09:08:01 12.1 C 61 % 4.82 C
3285 19-03-2004 09:20:01 12.2 C 60 % 4.67 C
3286 19-03-2004 09:32:01 12.1 C 59 % 4.34 C
3287 19-03-2004 09:44:01 12.2 C 58 % 4.19 C
3288 19-03-2004 09:56:01 12 C 57 % 3.76 C
3289 19-03-2004 10:08:01 12.2 C 57 % 3.94 C
3290 19-03-2004 10:20:01 12.4 C 58 % 4.38 C
3291 19-03-2004 10:32:01 13 C 56 % 4.44 C
3292 19-03-2004 10:44:01 12.6 C 58 % 4.57 C
3293 19-03-2004 10:56:00 12.8 C 57 % 4.5 C
3294 19-03-2004 11:08:00 12.6 C 59 % 4.81 C
3295 19-03-2004 11:20:59 12.2 C 60 % 4.67 C
3296 19-03-2004 11:32:57 12 C 62 % 4.96 C
3297 19-03-2004 11:44:01 12.2 C 61 % 4.91 C
3298 19-03-2004 11:56:01 12.2 C 62 % 5.14 C
3299 19-03-2004 12:08:01 12.2 C 62 % 5.14 C
3300 19-03-2004 12:20:01 12.2 C 62 % 5.14 C
Sensor: Nr:Datum:Temp:Feuchte:Taupunkt:
Aussen-T/F 3301 19-03-2004 12:32:01 12.5 C 61 % 5.19 C
3302 19-03-2004 12:44:01 12.7 C 61 % 5.38 C
3303 19-03-2004 12:56:00 13.5 C 58 % 5.41 C
3304 19-03-2004 13:07:59 13.3 C 59 % 5.47 C
3305 19-03-2004 13:20:58 12.6 C 62 % 5.52 C
3306 19-03-2004 13:32:57 12.5 C 63 % 5.66 C
3307 19-03-2004 13:44:01 12 C 65 % 5.63 C
3308 19-03-2004 13:56:01 11.8 C 67 % 5.88 C
3309 19-03-2004 14:08:01 12 C 66 % 5.85 C
3310 19-03-2004 14:20:01 12 C 65 % 5.63 C
3311 19-03-2004 14:32:01 12.4 C 62 % 5.33 C
3312 19-03-2004 14:44:01 12.4 C 61 % 5.1 C
3313 19-03-2004 14:56:01 12.5 C 61 % 5.19 C
3314 19-03-2004 15:08:01 12.4 C 62 % 5.33 C
3315 19-03-2004 15:20:02 12.6 C 62 % 5.52 C
3316 19-03-2004 15:32:01 12 C 66 % 5.85 C
3317 19-03-2004 15:44:01 12 C 65 % 5.63 C
3318 19-03-2004 15:56:00 12.1 C 65 % 5.73 C
3319 19-03-2004 16:08:00 12 C 65 % 5.63 C
3320 19-03-2004 16:20:59 12.2 C 65 % 5.82 C
3321 19-03-2004 16:32:57 12.3 C 63 % 5.47 C
3322 19-03-2004 16:44:01 12.3 C 63 % 5.47 C
3323 19-03-2004 16:56:01 12.5 C 62 % 5.43 C
3324 19-03-2004 17:08:01 12.6 C 61 % 5.29 C
3325 19-03-2004 17:20:01 12.6 C 61 % 5.29 C
Sensor: Nr:Datum:Temp:Feuchte:Taupunkt:
Aussen-T/F 3326 19-03-2004 17:32:01 12.7 C 59 % 4.9 C
3327 19-03-2004 17:44:01 12.7 C 58 % 4.66 C
3328 19-03-2004 17:56:00 12.7 C 59 % 4.9 C
3329 19-03-2004 18:08:00 12.8 C 58 % 4.75 C
3330 19-03-2004 18:20:59 12.6 C 59 % 4.81 C
3331 19-03-2004 18:32:00 12.7 C 59 % 4.9 C
3332 19-03-2004 18:44:00 12.8 C 58 % 4.75 C
3333 19-03-2004 18:56:01 12.8 C 58 % 4.75 C
3334 19-03-2004 19:08:01 12.8 C 58 % 4.75 C
3335 19-03-2004 19:20:00 13 C 57 % 4.69 C
3336 19-03-2004 19:32:59 13 C 57 % 4.69 C
3337 19-03-2004 19:44:02 13 C 57 % 4.69 C
3338 19-03-2004 19:56:02 12.8 C 59 % 5 C
3339 19-03-2004 20:08:01 12.7 C 60 % 5.14 C
3340 19-03-2004 20:20:01 12.5 C 61 % 5.19 C
3341 19-03-2004 20:32:02 12.3 C 63 % 5.47 C
3342 19-03-2004 20:44:02 12.2 C 64 % 5.6 C
3343 19-03-2004 20:56:00 12.1 C 64 % 5.51 C
3344 19-03-2004 21:08:00 12 C 65 % 5.63 C
3345 19-03-2004 21:20:59 11.9 C 67 % 5.98 C
3346 19-03-2004 21:32:58 11.9 C 67 % 5.98 C
3347 19-03-2004 21:44:01 11.8 C 68 % 6.09 C
3348 19-03-2004 21:56:01 11.7 C 68 % 6 C
3349 19-03-2004 22:08:00 11.8 C 69 % 6.31 C
3350 19-03-2004 22:20:00 11.7 C 70 % 6.42 C
Sensor: Nr:Datum:Temp:Feuchte:Taupunkt:
Aussen-T/F 3351 19-03-2004 22:32:00 11.7 C 71 % 6.62 C
3352 19-03-2004 22:44:00 11.4 C 73 % 6.74 C
3353 19-03-2004 22:56:01 11.4 C 73 % 6.74 C
3354 19-03-2004 23:08:01 11.4 C 73 % 6.74 C
3355 19-03-2004 23:20:01 11.5 C 74 % 7.03 C
3356 19-03-2004 23:32:01 11.4 C 75 % 7.13 C
3357 19-03-2004 23:44:01 11.3 C 75 % 7.04 C
3358 19-03-2004 23:56:01 11.1 C 77 % 7.23 C
3359 20-03-2004 00:08:01 11.2 C 77 % 7.32 C
3360 20-03-2004 00:20:01 11.2 C 77 % 7.32 C
3361 20-03-2004 00:32:01 11 C 80 % 7.69 C
3362 20-03-2004 00:44:01 10.9 C 82 % 7.95 C
3363 20-03-2004 00:56:00 11 C 81 % 7.87 C
3364 20-03-2004 01:08:00 11.2 C 80 % 7.88 C
3365 20-03-2004 01:20:59 11.1 C 79 % 7.6 C
3366 20-03-2004 01:32:57 11.3 C 78 % 7.61 C
3367 20-03-2004 01:44:01 11.4 C 78 % 7.71 C
3368 20-03-2004 01:56:01 10.7 C 84 % 8.11 C
3369 20-03-2004 02:08:01 10.7 C 86 % 8.46 C
3370 20-03-2004 02:20:01 10.5 C 84 % 7.91 C
3371 20-03-2004 02:32:01 10.5 C 79 % 7.02 C
3372 20-03-2004 02:44:01 10.5 C 75 % 6.26 C
3373 20-03-2004 02:57:01 10.3 C 73 % 5.68 C
3374 20-03-2004 03:09:01 10.3 C 73 % 5.68 C
3375 20-03-2004 03:21:59 10.2 C 70 % 4.98 C
Sensor: Nr:Datum:Temp:Feuchte:Taupunkt:
Aussen-T/F 3376 20-03-2004 03:33:01 10.2 C 65 % 3.92 C
3377 20-03-2004 03:45:01 10.1 C 58 % 2.22 C
3378 20-03-2004 03:57:01 9.9 C 60 % 2.51 C
3379 20-03-2004 04:09:01 9.7 C 61 % 2.55 C
3380 20-03-2004 04:21:01 9.7 C 63 % 3.01 C
3381 20-03-2004 04:33:01 9.5 C 64 % 3.04 C
3382 20-03-2004 04:45:01 9.3 C 67 % 3.5 C
3383 20-03-2004 04:57:01 9.3 C 69 % 3.91 C
3384 20-03-2004 05:09:01 9.2 C 70 % 4.02 C
3385 20-03-2004 05:21:01 9.4 C 68 % 3.8 C
3386 20-03-2004 05:33:01 9.3 C 68 % 3.71 C
3387 20-03-2004 05:45:00 9.3 C 67 % 3.5 C
3388 20-03-2004 05:57:00 9.3 C 67 % 3.5 C
3389 20-03-2004 06:09:00 9.2 C 67 % 3.4 C
3390 20-03-2004 06:21:58 9.1 C 68 % 3.52 C
3391 20-03-2004 06:33:57 9 C 69 % 3.63 C
3392 20-03-2004 06:45:01 9 C 70 % 3.83 C
3393 20-03-2004 06:57:01 9.1 C 69 % 3.72 C
3394 20-03-2004 07:09:01 9.3 C 68 % 3.71 C
3395 20-03-2004 07:21:01 9.4 C 68 % 3.8 C
3396 20-03-2004 07:33:01 9.6 C 68 % 3.99 C
3397 20-03-2004 07:45:01 9.7 C 67 % 3.88 C
3398 20-03-2004 07:57:01 9.9 C 67 % 4.07 C
3399 20-03-2004 08:09:00 10 C 67 % 4.16 C
3400 20-03-2004 08:21:59 10.1 C 67 % 4.26 C
Sensor: Nr:Datum:Temp:Feuchte:Taupunkt:
Aussen-T/F 3401 20-03-2004 08:33:58 10.3 C 67 % 4.45 C
3402 20-03-2004 08:45:01 10.6 C 67 % 4.74 C
3403 20-03-2004 08:57:01 10.8 C 69 % 5.35 C
3404 20-03-2004 09:09:01 11 C 68 % 5.33 C
3405 20-03-2004 09:21:01 10.9 C 72 % 6.06 C
3406 20-03-2004 09:33:00 11.1 C 72 % 6.25 C
3407 20-03-2004 09:45:01 11.2 C 72 % 6.35 C
3408 20-03-2004 09:57:01 11.6 C 72 % 6.73 C
3409 20-03-2004 10:09:01 11.7 C 72 % 6.83 C
3410 20-03-2004 10:21:01 11.8 C 72 % 6.92 C
3411 20-03-2004 10:33:01 11.9 C 73 % 7.22 C
3412 20-03-2004 10:45:00 11.9 C 74 % 7.42 C
3413 20-03-2004 10:57:00 12 C 74 % 7.52 C
3414 20-03-2004 11:09:00 12.2 C 74 % 7.71 C
3415 20-03-2004 11:21:59 12.4 C 74 % 7.9 C
3416 20-03-2004 11:33:58 13 C 73 % 8.28 C
3417 20-03-2004 11:45:01 13.2 C 72 % 8.27 C
3418 20-03-2004 11:57:01 13.4 C 72 % 8.46 C
3419 20-03-2004 12:09:01 13.6 C 71 % 8.45 C
3420 20-03-2004 12:21:01 13.7 C 71 % 8.54 C
3421 20-03-2004 12:33:01 13.9 C 71 % 8.73 C
3422 20-03-2004 12:45:01 13.9 C 72 % 8.94 C
3423 20-03-2004 12:57:01 13.9 C 72 % 8.94 C
3424 20-03-2004 13:09:00 13.8 C 72 % 8.85 C
3425 20-03-2004 13:21:58 13.9 C 72 % 8.94 C
Sensor: Nr:Datum:Temp:Feuchte:Taupunkt:
Aussen-T/F 3426 20-03-2004 13:33:57 14 C 71 % 8.83 C
3427 20-03-2004 13:45:01 14 C 71 % 8.83 C
3428 20-03-2004 13:57:01 14.1 C 71 % 8.93 C
3429 20-03-2004 14:09:01 14.1 C 71 % 8.93 C
3430 20-03-2004 14:21:02 14.2 C 70 % 8.81 C
3431 20-03-2004 14:33:02 14.3 C 69 % 8.7 C
3432 20-03-2004 14:45:01 14.4 C 68 % 8.58 C
3433 20-03-2004 14:57:01 14.5 C 67 % 8.45 C
3434 20-03-2004 15:09:01 14.7 C 66 % 8.42 C
3435 20-03-2004 15:21:01 15 C 65 % 8.48 C
3436 20-03-2004 15:33:01 14.5 C 67 % 8.45 C
3437 20-03-2004 15:45:00 14.4 C 67 % 8.36 C
3438 20-03-2004 15:57:00 14.4 C 67 % 8.36 C
3439 20-03-2004 16:09:59 14.4 C 66 % 8.14 C
3440 20-03-2004 16:21:58 14.4 C 66 % 8.14 C
3441 20-03-2004 16:33:57 14.1 C 68 % 8.29 C
3442 20-03-2004 16:45:01 14 C 67 % 7.98 C
3443 20-03-2004 16:57:01 14.1 C 65 % 7.63 C
3444 20-03-2004 17:09:01 14.1 C 65 % 7.63 C
3445 20-03-2004 17:21:01 14 C 64 % 7.31 C
3446 20-03-2004 17:33:00 14.1 C 64 % 7.4 C
3447 20-03-2004 17:45:01 14.1 C 63 % 7.17 C
3448 20-03-2004 17:57:01 14.1 C 64 % 7.4 C
3449 20-03-2004 18:09:01 13.8 C 67 % 7.79 C
3450 20-03-2004 18:21:01 13.4 C 71 % 8.26 C
Sensor: Nr:Datum:Temp:Feuchte:Taupunkt:
Aussen-T/F 3451 20-03-2004 18:33:03 13.4 C 70 % 8.05 C
3452 20-03-2004 18:45:01 13.6 C 69 % 8.03 C
3453 20-03-2004 18:57:01 13.9 C 66 % 7.66 C
3454 20-03-2004 19:09:59 13.8 C 66 % 7.57 C
3455 20-03-2004 19:21:58 13.7 C 67 % 7.69 C
3456 20-03-2004 19:33:58 13.7 C 67 % 7.69 C
3457 20-03-2004 19:45:01 13.7 C 67 % 7.69 C
3458 20-03-2004 19:57:01 13.7 C 66 % 7.47 C
3459 20-03-2004 20:09:01 13.8 C 66 % 7.57 C
3460 20-03-2004 20:21:02 13.8 C 66 % 7.57 C
3461 20-03-2004 20:33:01 13.7 C 67 % 7.69 C
3462 20-03-2004 20:45:00 13.7 C 67 % 7.69 C
3463 20-03-2004 20:57:00 13.5 C 68 % 7.72 C
3464 20-03-2004 21:09:00 13.2 C 72 % 8.27 C
3465 20-03-2004 21:21:00 13.1 C 72 % 8.17 C
3466 20-03-2004 21:33:58 13.2 C 72 % 8.27 C
3467 20-03-2004 21:45:02 13.2 C 72 % 8.27 C
3468 20-03-2004 21:57:02 13.3 C 71 % 8.16 C
3469 20-03-2004 22:09:01 13.4 C 70 % 8.05 C
3470 20-03-2004 22:21:01 13.4 C 69 % 7.84 C
3471 20-03-2004 22:33:01 13.5 C 69 % 7.93 C
3472 20-03-2004 22:45:00 13.5 C 68 % 7.72 C
3473 20-03-2004 22:57:00 13.6 C 67 % 7.6 C
3474 20-03-2004 23:09:00 13.5 C 67 % 7.5 C
3475 20-03-2004 23:21:59 13.5 C 66 % 7.28 C
Sensor: Nr:Datum:Temp:Feuchte:Taupunkt:
Aussen-T/F 3476 20-03-2004 23:33:58 13.4 C 67 % 7.4 C
3477 20-03-2004 23:45:01 13.2 C 68 % 7.43 C
3478 20-03-2004 23:57:01 13 C 70 % 7.66 C
3479 21-03-2004 00:09:01 12.8 C 72 % 7.88 C
3480 21-03-2004 00:21:01 12.9 C 71 % 7.78 C
3481 21-03-2004 00:33:00 12.9 C 70 % 7.57 C
3482 21-03-2004 00:45:01 12.8 C 69 % 7.26 C
3483 21-03-2004 00:57:01 12.4 C 73 % 7.7 C
3484 21-03-2004 01:09:01 12.1 C 75 % 7.81 C
3485 21-03-2004 01:21:01 11.8 C 78 % 8.09 C
3486 21-03-2004 01:33:01 11.8 C 79 % 8.28 C
3487 21-03-2004 01:45:01 11.8 C 78 % 8.09 C
3488 21-03-2004 01:57:01 11.6 C 79 % 8.09 C
3489 21-03-2004 02:09:01 11.3 C 81 % 8.16 C
3490 21-03-2004 02:21:01 10.7 C 87 % 8.63 C
3491 21-03-2004 02:33:01 10.6 C 89 % 8.86 C
3492 21-03-2004 02:46:01 10.5 C 90 % 8.93 C
3493 21-03-2004 02:58:01 10.5 C 91 % 9.09 C
3494 21-03-2004 03:10:00 10.1 C 90 % 8.54 C
3495 21-03-2004 03:22:00 10.1 C 90 % 8.54 C
3496 21-03-2004 03:34:01 9.9 C 90 % 8.34 C
3497 21-03-2004 03:46:01 9.8 C 88 % 7.91 C
3498 21-03-2004 03:58:01 9.2 C 87 % 7.15 C
3499 21-03-2004 04:10:01 8.9 C 85 % 6.52 C
3500 21-03-2004 04:22:00 8.2 C 83 % 5.49 C
Sensor: Nr:Datum:Temp:Feuchte:Taupunkt:
Aussen-T/F 3501 21-03-2004 04:34:00 8.3 C 80 % 5.06 C
3502 21-03-2004 04:46:01 8.1 C 79 % 4.68 C
3503 21-03-2004 04:58:01 7.9 C 77 % 4.12 C
3504 21-03-2004 05:10:01 7.8 C 78 % 4.21 C
3505 21-03-2004 05:22:01 7.8 C 80 % 4.57 C
3506 21-03-2004 05:34:01 7.6 C 78 % 4.02 C
3507 21-03-2004 05:46:00 7.3 C 80 % 4.09 C
3508 21-03-2004 05:58:00 7.4 C 77 % 3.64 C
3509 21-03-2004 06:10:59 7.4 C 75 % 3.27 C
3510 21-03-2004 06:22:58 7.3 C 74 % 2.98 C
3511 21-03-2004 06:34:57 7.2 C 75 % 3.07 C
3512 21-03-2004 06:46:01 7.4 C 77 % 3.64 C
3513 21-03-2004 06:58:01 7.5 C 75 % 3.36 C
3514 21-03-2004 07:10:01 7.5 C 74 % 3.17 C
3515 21-03-2004 07:22:01 7.4 C 74 % 3.08 C
3516 21-03-2004 07:34:00 7.5 C 73 % 2.98 C
3517 21-03-2004 07:46:01 7.4 C 72 % 2.69 C
3518 21-03-2004 07:58:01 7.5 C 71 % 2.59 C
3519 21-03-2004 08:10:01 7.7 C 70 % 2.58 C
3520 21-03-2004 08:22:01 7.8 C 71 % 2.88 C
3521 21-03-2004 08:34:01 7.9 C 70 % 2.78 C
3522 21-03-2004 08:46:00 8.1 C 69 % 2.77 C
3523 21-03-2004 08:58:00 8.4 C 69 % 3.05 C
3524 21-03-2004 09:10:00 8.4 C 69 % 3.05 C
3525 21-03-2004 09:22:58 8.5 C 69 % 3.15 C
Sensor: Nr:Datum:Temp:Feuchte:Taupunkt:
Aussen-T/F 3526 21-03-2004 09:34:58 8.4 C 72 % 3.65 C
3527 21-03-2004 09:46:00 8.4 C 73 % 3.85 C
3528 21-03-2004 09:58:00 8.4 C 75 % 4.23 C
3529 21-03-2004 10:10:00 8.6 C 72 % 3.85 C
3530 21-03-2004 10:22:01 9 C 71 % 4.03 C
3531 21-03-2004 10:34:01 9.7 C 68 % 4.09 C
3532 21-03-2004 10:46:02 10.2 C 63 % 3.48 C
3533 21-03-2004 10:58:02 10.7 C 60 % 3.26 C
3534 21-03-2004 11:10:02 10.7 C 51 % 0.99 C
3535 21-03-2004 11:22:01 11.3 C 50 % 1.27 C
3536 21-03-2004 11:34:01 11.6 C 46 % 0.39 C
3537 21-03-2004 11:46:01 11.5 C 42 % -0.95 C
3538 21-03-2004 11:58:01 11.9 C 36 % -2.68 C
3539 21-03-2004 12:10:00 11.7 C 36 % -2.85 C
3540 21-03-2004 12:22:59 11.7 C 38 % -2.13 C
3541 21-03-2004 12:34:58 12.1 C 35 % -2.88 C
3542 21-03-2004 12:46:01 12.5 C 35 % -2.52 C
3543 21-03-2004 12:58:01 12.9 C 35 % -2.17 C
3544 21-03-2004 13:10:01 13.3 C 35 % -1.82 C
3545 21-03-2004 13:22:00 13 C 36 % -1.7 C
3546 21-03-2004 13:34:00 13 C 37 % -1.33 C
3547 21-03-2004 13:46:01 13.2 C 36 % -1.52 C
3548 21-03-2004 13:58:01 13.2 C 34 % -2.3 C
3549 21-03-2004 14:10:01 13.6 C 31 % -3.19 C
3550 21-03-2004 14:22:01 13.8 C 31 % -3.01 C
Sensor: Nr:Datum:Temp:Feuchte:Taupunkt:
Aussen-T/F 3551 21-03-2004 14:34:01 13.1 C 32 % -3.2 C
3552 21-03-2004 14:46:01 14.1 C 31 % -2.75 C
3553 21-03-2004 14:58:01 13.7 C 32 % -2.67 C
3554 21-03-2004 15:10:00 12.8 C 40 % -0.45 C
3555 21-03-2004 15:22:58 11.4 C 57 % 3.2 C
3556 21-03-2004 15:34:57 13 C 45 % 1.36 C
3557 21-03-2004 15:46:01 12.1 C 40 % -1.07 C
3558 21-03-2004 15:58:01 12.9 C 38 % -1.06 C
3559 21-03-2004 16:10:01 12.8 C 36 % -1.88 C
3560 21-03-2004 16:22:01 13.7 C 36 % -1.08 C
3561 21-03-2004 16:34:01 12.6 C 40 % -0.62 C
3562 21-03-2004 16:46:00 12.5 C 44 % 0.59 C
3563 21-03-2004 16:58:00 11.6 C 47 % 0.69 C
3564 21-03-2004 17:10:59 11 C 50 % 0.99 C
3565 21-03-2004 17:22:58 10.9 C 58 % 2.97 C
3566 21-03-2004 17:34:58 10.7 C 55 % 2.04 C
3567 21-03-2004 17:46:01 9.6 C 58 % 1.75 C
3568 21-03-2004 17:58:01 9.4 C 61 % 2.27 C
3569 21-03-2004 18:10:01 9.5 C 62 % 2.59 C
3570 21-03-2004 18:22:01 9.8 C 60 % 2.42 C
3571 21-03-2004 18:34:01 9.8 C 57 % 1.7 C
3572 21-03-2004 18:46:00 9.3 C 58 % 1.47 C
3573 21-03-2004 18:58:00 9 C 60 % 1.66 C
3574 21-03-2004 19:10:59 8.7 C 62 % 1.84 C
3575 21-03-2004 19:22:58 8.6 C 62 % 1.74 C
Sensor: Nr:Datum:Temp:Feuchte:Taupunkt:
Aussen-T/F 3576 21-03-2004 19:34:57 8.5 C 62 % 1.65 C
3577 21-03-2004 19:46:01 8.4 C 62 % 1.55 C
3578 21-03-2004 19:58:01 8.5 C 61 % 1.42 C
3579 21-03-2004 20:10:01 8.3 C 61 % 1.23 C
3580 21-03-2004 20:22:01 8.5 C 61 % 1.42 C
3581 21-03-2004 20:34:00 8.7 C 60 % 1.38 C
3582 21-03-2004 20:46:01 8.7 C 60 % 1.38 C
3583 21-03-2004 20:58:01 8.5 C 62 % 1.65 C
3584 21-03-2004 21:10:01 8 C 65 % 1.83 C
3585 21-03-2004 21:22:01 7.6 C 68 % 2.08 C
3586 21-03-2004 21:34:01 7.5 C 69 % 2.19 C
3587 21-03-2004 21:46:00 7.6 C 69 % 2.29 C
3588 21-03-2004 21:58:00 7.9 C 67 % 2.16 C
3589 21-03-2004 22:10:00 8 C 67 % 2.26 C
3590 21-03-2004 22:22:59 7.5 C 73 % 2.98 C
3591 21-03-2004 22:34:57 7.1 C 77 % 3.35 C
3592 21-03-2004 22:46:01 7.1 C 77 % 3.35 C
3593 21-03-2004 22:58:01 6.5 C 80 % 3.31 C
3594 21-03-2004 23:10:01 6.6 C 79 % 3.23 C
3595 21-03-2004 23:22:01 7.3 C 75 % 3.17 C
3596 21-03-2004 23:34:01 7.6 C 72 % 2.88 C
3597 21-03-2004 23:46:00 7.7 C 70 % 2.58 C
3598 21-03-2004 23:58:00 7.8 C 68 % 2.27 C
3599 22-03-2004 00:10:00 7.7 C 68 % 2.18 C
3600 22-03-2004 00:22:59 7.8 C 67 % 2.07 C
Sensor: Nr:Datum:Temp:Feuchte:Taupunkt:
Aussen-T/F 3601 22-03-2004 00:34:57 7.8 C 67 % 2.07 C
3602 22-03-2004 00:46:01 7.9 C 66 % 1.95 C
3603 22-03-2004 00:58:01 7.9 C 66 % 1.95 C
3604 22-03-2004 01:10:01 5.2 C 76 % 1.32 C
3605 22-03-2004 01:22:01 4.8 C 85 % 2.5 C
3606 22-03-2004 01:34:01 4.7 C 87 % 2.73 C
3607 22-03-2004 01:46:00 4.7 C 86 % 2.56 C
3608 22-03-2004 01:58:00 4.5 C 87 % 2.53 C
3609 22-03-2004 02:10:00 4.3 C 87 % 2.33 C
3610 22-03-2004 02:22:58 4.4 C 87 % 2.43 C
3611 22-03-2004 02:34:57 4.3 C 87 % 2.33 C
3612 22-03-2004 02:47:02 4.2 C 88 % 2.39 C
3613 22-03-2004 02:59:02 4.5 C 89 % 2.85 C
3614 22-03-2004 03:11:02 5 C 87 % 3.02 C
3615 22-03-2004 03:23:02 5.4 C 84 % 2.92 C
3616 22-03-2004 03:35:00 5.7 C 79 % 2.35 C
3617 22-03-2004 03:47:00 5.9 C 77 % 2.19 C
3618 22-03-2004 03:59:00 6 C 76 % 2.1 C
3619 22-03-2004 04:11:00 6 C 75 % 1.91 C
3620 22-03-2004 04:23:59 5.9 C 76 % 2 C
3621 22-03-2004 04:35:58 5.7 C 76 % 1.81 C
3622 22-03-2004 04:47:01 5.6 C 76 % 1.71 C
3623 22-03-2004 04:59:01 5.5 C 76 % 1.62 C
3624 22-03-2004 05:11:01 5.6 C 75 % 1.53 C
3625 22-03-2004 05:23:01 5.6 C 75 % 1.53 C
Sensor: Nr:Datum:Temp:Feuchte:Taupunkt:
Aussen-T/F 3626 22-03-2004 05:35:01 5.8 C 75 % 1.72 C
3627 22-03-2004 05:47:00 5.8 C 76 % 1.91 C
3628 22-03-2004 05:59:00 5.8 C 76 % 1.91 C
3629 22-03-2004 06:11:00 6 C 73 % 1.54 C
3630 22-03-2004 06:23:58 6 C 74 % 1.73 C
3631 22-03-2004 06:35:57 6 C 73 % 1.54 C
3632 22-03-2004 06:47:01 6.2 C 72 % 1.54 C
3633 22-03-2004 06:59:01 6.2 C 72 % 1.54 C
3634 22-03-2004 07:11:01 6.3 C 71 % 1.44 C
3635 22-03-2004 07:23:01 6.4 C 71 % 1.54 C
3636 22-03-2004 07:35:01 6.6 C 70 % 1.53 C
3637 22-03-2004 07:47:01 6.8 C 69 % 1.52 C
3638 22-03-2004 07:59:01 6.8 C 69 % 1.52 C
3639 22-03-2004 08:11:59 6.9 C 69 % 1.62 C
3640 22-03-2004 08:23:58 7 C 68 % 1.51 C
3641 22-03-2004 08:35:58 7.1 C 67 % 1.4 C
3642 22-03-2004 08:47:00 7.3 C 66 % 1.38 C
3643 22-03-2004 08:59:00 7.2 C 67 % 1.49 C
3644 22-03-2004 09:11:01 6.8 C 74 % 2.5 C
3645 22-03-2004 09:23:01 6.9 C 75 % 2.78 C
3646 22-03-2004 09:35:01 7 C 74 % 2.69 C
3647 22-03-2004 09:47:01 7.4 C 71 % 2.5 C
3648 22-03-2004 09:59:01 7.5 C 68 % 1.99 C
3649 22-03-2004 10:11:01 7.1 C 70 % 2.01 C
3650 22-03-2004 10:23:01 7.1 C 70 % 2.01 C
Sensor: Nr:Datum:Temp:Feuchte:Taupunkt:
Aussen-T/F 3651 22-03-2004 10:35:00 7.9 C 69 % 2.57 C
3652 22-03-2004 10:47:01 8 C 66 % 2.05 C
3653 22-03-2004 10:59:01 8 C 66 % 2.05 C
3654 22-03-2004 11:11:01 8.4 C 66 % 2.43 C
3655 22-03-2004 11:23:01 8.9 C 65 % 2.69 C
3656 22-03-2004 11:35:01 8.2 C 64 % 1.81 C
3657 22-03-2004 11:47:02 8.8 C 63 % 2.16 C
3658 22-03-2004 11:59:02 9.2 C 60 % 1.85 C
3659 22-03-2004 12:11:02 9.4 C 60 % 2.04 C
3660 22-03-2004 12:23:01 9.2 C 60 % 1.85 C
3661 22-03-2004 12:35:01 7.7 C 70 % 2.58 C
3662 22-03-2004 12:47:00 8.1 C 71 % 3.17 C
3663 22-03-2004 12:59:00 8.1 C 68 % 2.56 C
3664 22-03-2004 13:10:59 6.6 C 74 % 2.31 C
3665 22-03-2004 13:23:58 7 C 80 % 3.79 C
3666 22-03-2004 13:35:57 7.8 C 80 % 4.57 C
3667 22-03-2004 13:47:01 8.2 C 74 % 3.85 C
3668 22-03-2004 13:59:01 7.9 C 77 % 4.12 C
3669 22-03-2004 14:11:01 8.4 C 75 % 4.23 C
3670 22-03-2004 14:23:01 8.5 C 72 % 3.75 C
3671 22-03-2004 14:35:02 8.5 C 64 % 2.09 C
3672 22-03-2004 14:47:01 7.1 C 67 % 1.4 C
3673 22-03-2004 14:59:01 7.1 C 74 % 2.79 C
3674 22-03-2004 15:11:00 7.5 C 72 % 2.79 C
3675 22-03-2004 15:23:01 7.8 C 71 % 2.88 C
Sensor: Nr:Datum:Temp:Feuchte:Taupunkt:
Aussen-T/F 3676 22-03-2004 15:35:01 7.7 C 66 % 1.76 C
3677 22-03-2004 15:47:01 7.5 C 65 % 1.36 C
3678 22-03-2004 15:59:01 7.8 C 64 % 1.43 C
3679 22-03-2004 16:11:00 9.3 C 55 % 0.74 C
3680 22-03-2004 16:23:58 9 C 56 % 0.71 C
3681 22-03-2004 16:35:58 8.8 C 57 % 0.76 C
3682 22-03-2004 16:47:02 8.4 C 58 % 0.63 C
3683 22-03-2004 16:59:02 7.8 C 65 % 1.64 C
3684 22-03-2004 17:11:01 7.6 C 70 % 2.49 C
3685 22-03-2004 17:23:01 8.4 C 69 % 3.05 C
3686 22-03-2004 17:35:01 7.8 C 71 % 2.88 C
3687 22-03-2004 17:47:01 7.5 C 69 % 2.19 C
3688 22-03-2004 17:59:01 7.4 C 73 % 2.89 C
3689 22-03-2004 18:11:59 6.9 C 77 % 3.16 C
3690 22-03-2004 18:23:58 6.7 C 78 % 3.14 C
3691 22-03-2004 18:35:58 6.4 C 76 % 2.49 C
3692 22-03-2004 18:47:01 6.3 C 77 % 2.57 C
3693 22-03-2004 18:59:01 6.5 C 74 % 2.21 C
3694 22-03-2004 19:11:01 6.5 C 67 % 0.83 C
3695 22-03-2004 19:23:01 6.2 C 70 % 1.15 C
3696 22-03-2004 19:35:02 5.7 C 74 % 1.44 C
3697 22-03-2004 19:47:01 5.5 C 76 % 1.62 C
3698 22-03-2004 19:59:01 5.6 C 77 % 1.89 C
3699 22-03-2004 20:11:00 5.3 C 79 % 1.96 C
3700 22-03-2004 20:23:59 5.1 C 80 % 1.94 C
Sensor: Nr:Datum:Temp:Feuchte:Taupunkt:
Aussen-T/F 3701 22-03-2004 20:35:58 4.7 C 82 % 1.9 C
3702 22-03-2004 20:47:02 4.4 C 83 % 1.77 C
3703 22-03-2004 20:59:02 4.2 C 84 % 1.74 C
3704 22-03-2004 21:11:01 4.4 C 85 % 2.11 C
3705 22-03-2004 21:23:01 4.7 C 85 % 2.4 C
3706 22-03-2004 21:35:01 4.7 C 83 % 2.07 C
3707 22-03-2004 21:47:01 4.6 C 83 % 1.97 C
3708 22-03-2004 21:59:01 4.7 C 83 % 2.07 C
3709 22-03-2004 22:11:00 4.6 C 83 % 1.97 C
3710 22-03-2004 22:23:00 4.7 C 83 % 2.07 C
3711 22-03-2004 22:35:58 4.5 C 83 % 1.87 C
3712 22-03-2004 22:47:01 4.3 C 83 % 1.67 C
3713 22-03-2004 22:59:01 4.2 C 84 % 1.74 C
3714 22-03-2004 23:11:01 4.1 C 84 % 1.65 C
3715 22-03-2004 23:23:01 4 C 85 % 1.71 C
3716 22-03-2004 23:35:01 4 C 85 % 1.71 C
3717 22-03-2004 23:47:01 4 C 85 % 1.71 C
3718 22-03-2004 23:59:01 4.1 C 85 % 1.81 C
3719 23-03-2004 00:11:01 4 C 85 % 1.71 C
3720 23-03-2004 00:23:01 3.6 C 86 % 1.48 C
3721 23-03-2004 00:35:01 3.4 C 86 % 1.29 C
3722 23-03-2004 00:47:01 3.1 C 87 % 1.15 C
3723 23-03-2004 00:59:01 2.8 C 88 % 1.02 C
3724 23-03-2004 01:11:01 2.5 C 89 % 0.88 C
3725 23-03-2004 01:23:01 2.3 C 89 % 0.68 C
Sensor: Nr:Datum:Temp:Feuchte:Taupunkt:
Aussen-T/F 3726 23-03-2004 01:35:00 2.3 C 89 % 0.68 C
3727 23-03-2004 01:47:01 2.1 C 89 % 0.48 C
3728 23-03-2004 01:59:01 2.1 C 90 % 0.64 C
3729 23-03-2004 02:11:01 1.9 C 91 % 0.59 C
3730 23-03-2004 02:23:01 1.8 C 91 % 0.49 C
3731 23-03-2004 02:35:01 1.6 C 91 % 0.29 C
3732 23-03-2004 02:48:01 1.5 C 91 % 0.19 C
3733 23-03-2004 03:00:01 1.4 C 91 % 0.1 C
3734 23-03-2004 03:12:00 1.3 C 91 % 0 C
3735 23-03-2004 03:24:00 1.2 C 91 % -0.1 C
3736 23-03-2004 03:36:01 1.3 C 92 % 0.15 C
3737 23-03-2004 03:48:01 1.2 C 92 % 0.05 C
3738 23-03-2004 04:00:01 1.5 C 93 % 0.49 C
3739 23-03-2004 04:12:00 1.7 C 94 % 0.84 C
3740 23-03-2004 04:24:00 1.9 C 94 % 1.04 C
3741 23-03-2004 04:36:00 2 C 94 % 1.14 C
3742 23-03-2004 04:48:01 2 C 94 % 1.14 C
3743 23-03-2004 05:00:01 2.1 C 94 % 1.24 C
3744 23-03-2004 05:12:01 2.2 C 94 % 1.34 C
3745 23-03-2004 05:24:01 2.3 C 94 % 1.44 C
3746 23-03-2004 05:36:00 2.4 C 94 % 1.54 C
3747 23-03-2004 05:48:01 2.4 C 94 % 1.54 C
3748 23-03-2004 06:00:01 2.4 C 93 % 1.39 C
3749 23-03-2004 06:12:01 2.3 C 93 % 1.29 C
3750 23-03-2004 06:24:01 2.3 C 93 % 1.29 C
Sensor: Nr:Datum:Temp:Feuchte:Taupunkt:
Aussen-T/F 3751 23-03-2004 06:36:01 2.3 C 93 % 1.29 C
3752 23-03-2004 06:48:00 2.5 C 93 % 1.49 C
3753 23-03-2004 07:00:00 2.7 C 93 % 1.68 C
3754 23-03-2004 07:12:00 2.8 C 93 % 1.78 C
3755 23-03-2004 07:24:59 3 C 93 % 1.98 C
3756 23-03-2004 07:36:58 3.2 C 92 % 2.03 C
3757 23-03-2004 07:48:01 3.1 C 92 % 1.93 C
3758 23-03-2004 08:00:01 3.2 C 91 % 1.88 C
3759 23-03-2004 08:12:00 3.6 C 92 % 2.42 C
3760 23-03-2004 08:24:00 3.9 C 91 % 2.57 C
3761 23-03-2004 08:36:00 4.3 C 90 % 2.81 C
3762 23-03-2004 08:48:01 4.7 C 88 % 2.89 C
3763 23-03-2004 09:00:01 5.2 C 85 % 2.89 C
3764 23-03-2004 09:12:01 6.1 C 78 % 2.56 C
3765 23-03-2004 09:24:01 6.5 C 76 % 2.58 C
3766 23-03-2004 09:36:00 6.7 C 74 % 2.4 C
3767 23-03-2004 09:48:01 6.2 C 75 % 2.11 C
3768 23-03-2004 10:00:01 6.4 C 76 % 2.49 C
3769 23-03-2004 10:12:01 6.7 C 75 % 2.59 C
3770 23-03-2004 10:24:01 7 C 74 % 2.69 C
3771 23-03-2004 10:36:01 7.4 C 71 % 2.5 C
3772 23-03-2004 10:48:00 7.6 C 70 % 2.49 C
3773 23-03-2004 11:00:00 7.9 C 70 % 2.78 C
3774 23-03-2004 11:12:00 7.7 C 68 % 2.18 C
3775 23-03-2004 11:24:59 8.2 C 67 % 2.45 C
Sensor: Nr:Datum:Temp:Feuchte:Taupunkt:
Aussen-T/F 3776 23-03-2004 11:36:57 8.4 C 63 % 1.78 C
3777 23-03-2004 11:48:01 8.4 C 63 % 1.78 C
3778 23-03-2004 12:00:01 7.9 C 64 % 1.52 C
3779 23-03-2004 12:12:01 7.9 C 66 % 1.95 C
3780 23-03-2004 12:24:01 8.4 C 62 % 1.55 C
3781 23-03-2004 12:36:01 7.9 C 62 % 1.08 C
3782 23-03-2004 12:48:01 8.9 C 60 % 1.57 C
3783 23-03-2004 13:00:01 9.5 C 59 % 1.9 C
3784 23-03-2004 13:12:01 10.5 C 53 % 1.34 C
3785 23-03-2004 13:24:01 11 C 50 % 0.99 C
3786 23-03-2004 13:36:01 10 C 51 % 0.34 C
3787 23-03-2004 13:48:00 10.9 C 49 % 0.62 C
3788 23-03-2004 14:00:00 11.7 C 47 % 0.78 C
3789 23-03-2004 14:12:00 12 C 42 % -0.5 C
3790 23-03-2004 14:24:59 12.2 C 45 % 0.63 C
3791 23-03-2004 14:36:57 11.7 C 48 % 1.07 C
3792 23-03-2004 14:48:01 10.1 C 57 % 1.98 C
3793 23-03-2004 15:00:01 9.5 C 57 % 1.42 C
3794 23-03-2004 15:12:01 8.8 C 60 % 1.48 C
3795 23-03-2004 15:24:01 8 C 69 % 2.67 C
3796 23-03-2004 15:36:01 6.8 C 79 % 3.42 C
3797 23-03-2004 15:48:00 7.2 C 82 % 4.34 C
3798 23-03-2004 16:00:00 7.4 C 83 % 4.71 C
3799 23-03-2004 16:11:59 7.3 C 78 % 3.73 C
3800 23-03-2004 16:24:58 7.6 C 74 % 3.27 C
Sensor: Nr:Datum:Temp:Feuchte:Taupunkt:
Aussen-T/F 3801 23-03-2004 16:36:57 7.4 C 71 % 2.5 C
3802 23-03-2004 16:48:01 7.1 C 71 % 2.21 C
3803 23-03-2004 17:00:01 6.8 C 69 % 1.52 C
3804 23-03-2004 17:12:01 6.8 C 69 % 1.52 C
3805 23-03-2004 17:24:01 6.8 C 70 % 1.72 C
3806 23-03-2004 17:36:01 6.7 C 75 % 2.59 C
3807 23-03-2004 17:48:01 6.7 C 76 % 2.78 C
3808 23-03-2004 18:00:01 6.4 C 76 % 2.49 C
3809 23-03-2004 18:12:01 6.1 C 79 % 2.74 C
3810 23-03-2004 18:24:01 5.9 C 81 % 2.9 C
3811 23-03-2004 18:36:01 5.8 C 81 % 2.8 C
3812 23-03-2004 18:48:00 5.8 C 79 % 2.45 C
3813 23-03-2004 19:00:00 5.7 C 79 % 2.35 C
3814 23-03-2004 19:12:00 5.4 C 79 % 2.06 C
3815 23-03-2004 19:24:59 5.1 C 80 % 1.94 C
3816 23-03-2004 19:36:58 5 C 82 % 2.19 C
3817 23-03-2004 19:48:02 4.8 C 83 % 2.16 C
3818 23-03-2004 20:00:02 4.5 C 83 % 1.87 C
3819 23-03-2004 20:12:02 4.4 C 84 % 1.94 C
3820 23-03-2004 20:24:01 4.4 C 84 % 1.94 C
3821 23-03-2004 20:36:02 4.4 C 84 % 1.94 C
3822 23-03-2004 20:48:01 4.2 C 84 % 1.74 C
3823 23-03-2004 21:00:01 4.1 C 85 % 1.81 C
3824 23-03-2004 21:12:00 4.1 C 86 % 1.97 C
3825 23-03-2004 21:24:59 4.2 C 86 % 2.07 C
Sensor: Nr:Datum:Temp:Feuchte:Taupunkt:
Aussen-T/F 3826 23-03-2004 21:36:57 4.1 C 86 % 1.97 C
3827 23-03-2004 21:48:02 3.9 C 87 % 1.94 C
3828 23-03-2004 22:00:02 3.7 C 87 % 1.74 C
3829 23-03-2004 22:12:01 3.9 C 88 % 2.1 C
3830 23-03-2004 22:24:01 4 C 86 % 1.88 C
3831 23-03-2004 22:36:01 4 C 86 % 1.88 C
3832 23-03-2004 22:48:00 4 C 85 % 1.71 C
3833 23-03-2004 23:00:00 3.9 C 87 % 1.94 C
3834 23-03-2004 23:12:00 4 C 86 % 1.88 C
3835 23-03-2004 23:24:59 4 C 86 % 1.88 C
3836 23-03-2004 23:36:57 4 C 86 % 1.88 C
3837 23-03-2004 23:48:01 4.1 C 87 % 2.14 C
3838 24-03-2004 00:00:01 4.1 C 87 % 2.14 C
3839 24-03-2004 00:12:01 4 C 87 % 2.04 C
3840 24-03-2004 00:24:02 3.7 C 87 % 1.74 C
3841 24-03-2004 00:36:01 3.7 C 88 % 1.9 C
3842 24-03-2004 00:48:00 3.7 C 89 % 2.06 C
3843 24-03-2004 01:00:00 3.7 C 89 % 2.06 C
3844 24-03-2004 01:11:59 3.8 C 89 % 2.16 C
3845 24-03-2004 01:24:58 4 C 88 % 2.2 C
3846 24-03-2004 01:36:57 4.1 C 87 % 2.14 C
3847 24-03-2004 01:48:01 4.1 C 87 % 2.14 C
3848 24-03-2004 02:00:01 4.2 C 85 % 1.91 C
3849 24-03-2004 02:12:01 4.1 C 84 % 1.65 C
3850 24-03-2004 02:24:01 4 C 83 % 1.38 C
Sensor: Nr:Datum:Temp:Feuchte:Taupunkt:
Aussen-T/F 3851 24-03-2004 02:36:01 3.8 C 85 % 1.52 C
3852 24-03-2004 02:49:03 3.6 C 85 % 1.32 C
3853 24-03-2004 03:01:03 3.3 C 85 % 1.03 C
3854 24-03-2004 03:13:03 3.2 C 86 % 1.09 C
3855 24-03-2004 03:25:03 3.1 C 86 % 0.99 C
3856 24-03-2004 03:37:00 2.9 C 87 % 0.96 C
3857 24-03-2004 03:49:00 2.8 C 88 % 1.02 C
3858 24-03-2004 04:01:00 2.8 C 88 % 1.02 C
3859 24-03-2004 04:13:00 2.6 C 87 % 0.66 C
3860 24-03-2004 04:25:59 2.6 C 87 % 0.66 C
3861 24-03-2004 04:37:58 2.8 C 88 % 1.02 C
3862 24-03-2004 04:49:01 3.2 C 86 % 1.09 C
3863 24-03-2004 05:01:01 3 C 84 % 0.57 C
3864 24-03-2004 05:13:01 2.9 C 85 % 0.63 C
3865 24-03-2004 05:25:00 2.9 C 85 % 0.63 C
3866 24-03-2004 05:37:00 2.7 C 85 % 0.44 C
3867 24-03-2004 05:49:01 2.6 C 86 % 0.5 C
3868 24-03-2004 06:01:01 2.7 C 86 % 0.6 C
3869 24-03-2004 06:13:01 2.5 C 86 % 0.4 C
3870 24-03-2004 06:25:01 2.5 C 87 % 0.56 C
3871 24-03-2004 06:37:01 2.4 C 87 % 0.46 C
3872 24-03-2004 06:49:00 2.3 C 87 % 0.36 C
3873 24-03-2004 07:01:00 2.3 C 87 % 0.36 C
3874 24-03-2004 07:13:00 2.5 C 88 % 0.72 C
3875 24-03-2004 07:25:59 2.7 C 88 % 0.92 C
Sensor: Nr:Datum:Temp:Feuchte:Taupunkt:
Aussen-T/F 3876 24-03-2004 07:37:58 3 C 87 % 1.05 C
3877 24-03-2004 07:49:01 3.2 C 85 % 0.93 C
3878 24-03-2004 08:01:00 3.5 C 84 % 1.06 C
3879 24-03-2004 08:13:00 3.6 C 83 % 0.99 C
3880 24-03-2004 08:25:01 3.8 C 82 % 1.02 C
3881 24-03-2004 08:37:00 4.1 C 81 % 1.14 C
3882 24-03-2004 08:49:01 4.3 C 79 % 0.99 C
3883 24-03-2004 09:01:01 4.6 C 78 % 1.1 C
3884 24-03-2004 09:13:01 4.9 C 76 % 1.03 C
3885 24-03-2004 09:25:01 5.4 C 75 % 1.33 C
3886 24-03-2004 09:37:01 5.8 C 74 % 1.53 C
3887 24-03-2004 09:49:00 5.9 C 72 % 1.25 C
3888 24-03-2004 10:01:00 6.2 C 71 % 1.34 C
3889 24-03-2004 10:13:00 6 C 70 % 0.95 C
3890 24-03-2004 10:25:58